<?xml version="1.0" encoding="UTF-8" standalone="no" ?>
<gpx xmlns="http://www.topografix.com/GPX/1/1" xmlns:xsi="http://www.w3.org/2001/XMLSchema-instance" xsi:schemaLocation="http://www.topografix.com/GPX/1/1 http://www.topografix.com/GPX/1/1/gpx.xsd" version="1.1" creator="VisuGPX - https://www.visugpx.com">
  <metadata>
    <name>Segur  - Ponts de Salars 22km</name>
    <desc><![CDATA[J2 fait le 16/09/2025]]></desc>
  </metadata>
  <wpt lat="44.33085" lon="2.85308">
    <ele>922.3</ele>
    <name><![CDATA[Le Jardin de Chalets]]></name>
    <cmt><![CDATA[06 82 49 62  24]]></cmt>
    <type><![CDATA[hotel]]></type>
    <extensions>
      <visugpx:TrackPointExtension xmlns:visugpx="https://www.visugpx.com/editgpx/">
        <visugpx:dec>108,-224</visugpx:dec>
      </visugpx:TrackPointExtension>
    </extensions>
  </wpt>
  <wpt lat="44.28208" lon="2.72461">
    <ele>685.1</ele>
    <name><![CDATA[Anse du Lac]]></name>
    <type><![CDATA[hotel]]></type>
    <extensions>
      <visugpx:TrackPointExtension xmlns:visugpx="https://www.visugpx.com/editgpx/">
        <visugpx:dec>-244,-41</visugpx:dec>
      </visugpx:TrackPointExtension>
    </extensions>
  </wpt>
  <wpt lat="44.29186" lon="2.72781">
    <ele>714</ele>
    <name><![CDATA[Anse du Lac]]></name>
    <cmt><![CDATA[Laurent 06 77 29 34 38]]></cmt>
    <type><![CDATA[hotel]]></type>
  </wpt>
  <trk>
    <name><![CDATA[J2 Le Jardin de Chalet - Anse du Lac]]></name>
    <extensions>
      <line xmlns="http://www.topografix.com/GPX/gpx_style/0/2">
        <color>0000FF</color>
        <opacity>1</opacity>
        <width>4</width>
      </line>
    </extensions>
    <trkseg>
      <trkpt lat="44.33" lon="2.85123">
        <ele>936.94</ele>
        <time>2025-09-16T07:26:42Z</time>
      </trkpt>
      <trkpt lat="44.33" lon="2.85124">
        <ele>937.42</ele>
        <time>2025-09-16T07:27:02Z</time>
      </trkpt>
      <trkpt lat="44.32997" lon="2.85122">
        <ele>940.79</ele>
        <time>2025-09-16T07:27:26Z</time>
      </trkpt>
      <trkpt lat="44.33" lon="2.85122">
        <ele>941.27</ele>
        <time>2025-09-16T07:27:43Z</time>
      </trkpt>
      <trkpt lat="44.32998" lon="2.85124">
        <ele>943.19</ele>
        <time>2025-09-16T07:28:08Z</time>
      </trkpt>
      <trkpt lat="44.33" lon="2.85124">
        <ele>938.38</ele>
        <time>2025-09-16T07:28:35Z</time>
      </trkpt>
      <trkpt lat="44.32996" lon="2.8512">
        <ele>940.79</ele>
        <time>2025-09-16T07:28:55Z</time>
      </trkpt>
      <trkpt lat="44.32994" lon="2.8512">
        <ele>942.71</ele>
        <time>2025-09-16T07:29:10Z</time>
      </trkpt>
      <trkpt lat="44.32991" lon="2.85121">
        <ele>941.27</ele>
        <time>2025-09-16T07:29:29Z</time>
      </trkpt>
      <trkpt lat="44.32996" lon="2.85118">
        <ele>938.38</ele>
        <time>2025-09-16T07:29:52Z</time>
      </trkpt>
      <trkpt lat="44.32992" lon="2.85126">
        <ele>940.31</ele>
        <time>2025-09-16T07:30:13Z</time>
      </trkpt>
      <trkpt lat="44.32991" lon="2.85123">
        <ele>938.38</ele>
        <time>2025-09-16T07:30:28Z</time>
      </trkpt>
      <trkpt lat="44.32996" lon="2.8512">
        <ele>936.46</ele>
        <time>2025-09-16T07:30:53Z</time>
      </trkpt>
      <trkpt lat="44.32991" lon="2.85125">
        <ele>936.94</ele>
        <time>2025-09-16T07:31:16Z</time>
      </trkpt>
      <trkpt lat="44.32989" lon="2.85127">
        <ele>935.5</ele>
        <time>2025-09-16T07:31:31Z</time>
      </trkpt>
      <trkpt lat="44.3299" lon="2.85122">
        <ele>935.02</ele>
        <time>2025-09-16T07:31:51Z</time>
      </trkpt>
      <trkpt lat="44.32989" lon="2.85128">
        <ele>932.62</ele>
        <time>2025-09-16T07:32:05Z</time>
      </trkpt>
      <trkpt lat="44.3299" lon="2.85133">
        <ele>933.1</ele>
        <time>2025-09-16T07:32:09Z</time>
      </trkpt>
      <trkpt lat="44.32997" lon="2.85154">
        <ele>932.62</ele>
        <time>2025-09-16T07:32:30Z</time>
      </trkpt>
      <trkpt lat="44.32999" lon="2.85161">
        <ele>933.1</ele>
        <time>2025-09-16T07:32:35Z</time>
      </trkpt>
      <trkpt lat="44.33019" lon="2.85184">
        <ele>934.54</ele>
        <time>2025-09-16T07:32:57Z</time>
      </trkpt>
      <trkpt lat="44.33034" lon="2.85195">
        <ele>936.46</ele>
        <time>2025-09-16T07:33:20Z</time>
      </trkpt>
      <trkpt lat="44.33052" lon="2.85195">
        <ele>936.46</ele>
        <time>2025-09-16T07:33:36Z</time>
      </trkpt>
      <trkpt lat="44.33052" lon="2.85195">
        <ele>940.31</ele>
        <time>2025-09-16T07:33:56Z</time>
      </trkpt>
      <trkpt lat="44.33056" lon="2.85198">
        <ele>940.31</ele>
        <time>2025-09-16T07:34:21Z</time>
      </trkpt>
      <trkpt lat="44.33053" lon="2.85199">
        <ele>941.75</ele>
        <time>2025-09-16T07:34:48Z</time>
      </trkpt>
      <trkpt lat="44.33051" lon="2.85184">
        <ele>941.75</ele>
        <time>2025-09-16T07:35:14Z</time>
      </trkpt>
      <trkpt lat="44.33053" lon="2.8516">
        <ele>942.71</ele>
        <time>2025-09-16T07:35:29Z</time>
      </trkpt>
      <trkpt lat="44.33052" lon="2.85123">
        <ele>944.63</ele>
        <time>2025-09-16T07:35:49Z</time>
      </trkpt>
      <trkpt lat="44.3305" lon="2.85088">
        <ele>944.63</ele>
        <time>2025-09-16T07:36:09Z</time>
      </trkpt>
      <trkpt lat="44.33048" lon="2.85079">
        <ele>943.67</ele>
        <time>2025-09-16T07:36:15Z</time>
      </trkpt>
      <trkpt lat="44.33031" lon="2.85051">
        <ele>942.23</ele>
        <time>2025-09-16T07:36:32Z</time>
      </trkpt>
      <trkpt lat="44.33022" lon="2.85042">
        <ele>941.27</ele>
        <time>2025-09-16T07:36:41Z</time>
      </trkpt>
      <trkpt lat="44.33001" lon="2.85025">
        <ele>938.38</ele>
        <time>2025-09-16T07:36:59Z</time>
      </trkpt>
      <trkpt lat="44.32979" lon="2.85004">
        <ele>937.42</ele>
        <time>2025-09-16T07:37:19Z</time>
      </trkpt>
      <trkpt lat="44.32956" lon="2.84984">
        <ele>934.54</ele>
        <time>2025-09-16T07:37:39Z</time>
      </trkpt>
      <trkpt lat="44.32954" lon="2.84983">
        <ele>934.54</ele>
        <time>2025-09-16T07:37:41Z</time>
      </trkpt>
      <trkpt lat="44.32924" lon="2.84959">
        <ele>933.58</ele>
        <time>2025-09-16T07:38:02Z</time>
      </trkpt>
      <trkpt lat="44.32896" lon="2.84932">
        <ele>934.54</ele>
        <time>2025-09-16T07:38:20Z</time>
      </trkpt>
      <trkpt lat="44.32879" lon="2.84896">
        <ele>935.5</ele>
        <time>2025-09-16T07:38:40Z</time>
      </trkpt>
      <trkpt lat="44.32869" lon="2.84851">
        <ele>935.98</ele>
        <time>2025-09-16T07:39:03Z</time>
      </trkpt>
      <trkpt lat="44.32865" lon="2.84814">
        <ele>934.54</ele>
        <time>2025-09-16T07:39:20Z</time>
      </trkpt>
      <trkpt lat="44.32865" lon="2.84774">
        <ele>932.14</ele>
        <time>2025-09-16T07:39:38Z</time>
      </trkpt>
      <trkpt lat="44.32865" lon="2.84736">
        <ele>931.65</ele>
        <time>2025-09-16T07:39:57Z</time>
      </trkpt>
      <trkpt lat="44.32868" lon="2.84698">
        <ele>928.29</ele>
        <time>2025-09-16T07:40:15Z</time>
      </trkpt>
      <trkpt lat="44.32873" lon="2.84665">
        <ele>922.52</ele>
        <time>2025-09-16T07:40:31Z</time>
      </trkpt>
      <trkpt lat="44.32881" lon="2.84626">
        <ele>921.56</ele>
        <time>2025-09-16T07:40:49Z</time>
      </trkpt>
      <trkpt lat="44.3289" lon="2.84597">
        <ele>919.16</ele>
        <time>2025-09-16T07:41:05Z</time>
      </trkpt>
      <trkpt lat="44.32897" lon="2.84567">
        <ele>918.2</ele>
        <time>2025-09-16T07:41:20Z</time>
      </trkpt>
      <trkpt lat="44.32895" lon="2.84541">
        <ele>917.24</ele>
        <time>2025-09-16T07:41:33Z</time>
      </trkpt>
      <trkpt lat="44.32881" lon="2.8451">
        <ele>915.79</ele>
        <time>2025-09-16T07:41:53Z</time>
      </trkpt>
      <trkpt lat="44.32881" lon="2.84511">
        <ele>916.75</ele>
        <time>2025-09-16T07:42:23Z</time>
      </trkpt>
      <trkpt lat="44.3288" lon="2.84509">
        <ele>917.72</ele>
        <time>2025-09-16T07:42:45Z</time>
      </trkpt>
      <trkpt lat="44.32878" lon="2.84506">
        <ele>917.72</ele>
        <time>2025-09-16T07:43:16Z</time>
      </trkpt>
      <trkpt lat="44.32878" lon="2.84507">
        <ele>916.75</ele>
        <time>2025-09-16T07:43:38Z</time>
      </trkpt>
      <trkpt lat="44.32875" lon="2.84505">
        <ele>916.27</ele>
        <time>2025-09-16T07:44:00Z</time>
      </trkpt>
      <trkpt lat="44.32877" lon="2.84504">
        <ele>915.31</ele>
        <time>2025-09-16T07:44:32Z</time>
      </trkpt>
      <trkpt lat="44.32876" lon="2.84506">
        <ele>917.24</ele>
        <time>2025-09-16T07:45:03Z</time>
      </trkpt>
      <trkpt lat="44.32866" lon="2.84487">
        <ele>918.2</ele>
        <time>2025-09-16T07:45:18Z</time>
      </trkpt>
      <trkpt lat="44.32845" lon="2.84455">
        <ele>920.6</ele>
        <time>2025-09-16T07:45:38Z</time>
      </trkpt>
      <trkpt lat="44.32827" lon="2.84426">
        <ele>919.64</ele>
        <time>2025-09-16T07:45:55Z</time>
      </trkpt>
      <trkpt lat="44.32809" lon="2.84397">
        <ele>919.64</ele>
        <time>2025-09-16T07:46:13Z</time>
      </trkpt>
      <trkpt lat="44.32787" lon="2.84367">
        <ele>917.72</ele>
        <time>2025-09-16T07:46:34Z</time>
      </trkpt>
      <trkpt lat="44.3276" lon="2.84341">
        <ele>914.35</ele>
        <time>2025-09-16T07:46:53Z</time>
      </trkpt>
      <trkpt lat="44.3274" lon="2.84328">
        <ele>911.95</ele>
        <time>2025-09-16T07:47:09Z</time>
      </trkpt>
      <trkpt lat="44.3274" lon="2.84331">
        <ele>912.91</ele>
        <time>2025-09-16T07:47:26Z</time>
      </trkpt>
      <trkpt lat="44.32718" lon="2.84316">
        <ele>910.51</ele>
        <time>2025-09-16T07:47:43Z</time>
      </trkpt>
      <trkpt lat="44.32692" lon="2.84299">
        <ele>905.7</ele>
        <time>2025-09-16T07:48:01Z</time>
      </trkpt>
      <trkpt lat="44.32661" lon="2.84282">
        <ele>902.33</ele>
        <time>2025-09-16T07:48:23Z</time>
      </trkpt>
      <trkpt lat="44.32637" lon="2.84279">
        <ele>900.89</ele>
        <time>2025-09-16T07:48:40Z</time>
      </trkpt>
      <trkpt lat="44.32605" lon="2.84263">
        <ele>900.41</ele>
        <time>2025-09-16T07:48:59Z</time>
      </trkpt>
      <trkpt lat="44.3258" lon="2.84232">
        <ele>896.09</ele>
        <time>2025-09-16T07:49:20Z</time>
      </trkpt>
      <trkpt lat="44.32558" lon="2.84207">
        <ele>892.72</ele>
        <time>2025-09-16T07:49:38Z</time>
      </trkpt>
      <trkpt lat="44.32539" lon="2.84187">
        <ele>888.4</ele>
        <time>2025-09-16T07:49:55Z</time>
      </trkpt>
      <trkpt lat="44.32515" lon="2.84162">
        <ele>884.55</ele>
        <time>2025-09-16T07:50:14Z</time>
      </trkpt>
      <trkpt lat="44.3249" lon="2.84148">
        <ele>885.03</ele>
        <time>2025-09-16T07:50:31Z</time>
      </trkpt>
      <trkpt lat="44.32467" lon="2.84128">
        <ele>883.59</ele>
        <time>2025-09-16T07:50:45Z</time>
      </trkpt>
      <trkpt lat="44.32442" lon="2.8411">
        <ele>885.99</ele>
        <time>2025-09-16T07:51:00Z</time>
      </trkpt>
      <trkpt lat="44.32421" lon="2.84087">
        <ele>884.07</ele>
        <time>2025-09-16T07:51:17Z</time>
      </trkpt>
      <trkpt lat="44.32399" lon="2.84057">
        <ele>882.63</ele>
        <time>2025-09-16T07:51:36Z</time>
      </trkpt>
      <trkpt lat="44.32384" lon="2.84036">
        <ele>883.59</ele>
        <time>2025-09-16T07:51:49Z</time>
      </trkpt>
      <trkpt lat="44.32384" lon="2.84034">
        <ele>883.11</ele>
        <time>2025-09-16T07:51:50Z</time>
      </trkpt>
      <trkpt lat="44.32384" lon="2.84033">
        <ele>883.11</ele>
        <time>2025-09-16T07:51:51Z</time>
      </trkpt>
      <trkpt lat="44.32384" lon="2.84031">
        <ele>883.11</ele>
        <time>2025-09-16T07:51:52Z</time>
      </trkpt>
      <trkpt lat="44.32385" lon="2.84029">
        <ele>882.63</ele>
        <time>2025-09-16T07:51:53Z</time>
      </trkpt>
      <trkpt lat="44.32386" lon="2.84028">
        <ele>882.63</ele>
        <time>2025-09-16T07:51:54Z</time>
      </trkpt>
      <trkpt lat="44.32387" lon="2.84026">
        <ele>882.15</ele>
        <time>2025-09-16T07:51:55Z</time>
      </trkpt>
      <trkpt lat="44.32388" lon="2.84025">
        <ele>882.15</ele>
        <time>2025-09-16T07:51:56Z</time>
      </trkpt>
      <trkpt lat="44.32389" lon="2.84024">
        <ele>881.67</ele>
        <time>2025-09-16T07:51:57Z</time>
      </trkpt>
      <trkpt lat="44.3239" lon="2.84024">
        <ele>881.67</ele>
        <time>2025-09-16T07:51:58Z</time>
      </trkpt>
      <trkpt lat="44.32416" lon="2.8401">
        <ele>877.82</ele>
        <time>2025-09-16T07:52:17Z</time>
      </trkpt>
      <trkpt lat="44.32449" lon="2.84001">
        <ele>876.38</ele>
        <time>2025-09-16T07:52:40Z</time>
      </trkpt>
      <trkpt lat="44.32466" lon="2.83994">
        <ele>879.26</ele>
        <time>2025-09-16T07:52:49Z</time>
      </trkpt>
      <trkpt lat="44.32489" lon="2.83974">
        <ele>876.86</ele>
        <time>2025-09-16T07:53:08Z</time>
      </trkpt>
      <trkpt lat="44.32495" lon="2.83959">
        <ele>874.94</ele>
        <time>2025-09-16T07:53:17Z</time>
      </trkpt>
      <trkpt lat="44.32495" lon="2.83957">
        <ele>874.94</ele>
        <time>2025-09-16T07:53:18Z</time>
      </trkpt>
      <trkpt lat="44.32492" lon="2.83912">
        <ele>878.3</ele>
        <time>2025-09-16T07:53:35Z</time>
      </trkpt>
      <trkpt lat="44.32497" lon="2.83884">
        <ele>880.71</ele>
        <time>2025-09-16T07:53:47Z</time>
      </trkpt>
      <trkpt lat="44.32504" lon="2.83848">
        <ele>885.51</ele>
        <time>2025-09-16T07:54:03Z</time>
      </trkpt>
      <trkpt lat="44.3252" lon="2.8382">
        <ele>890.8</ele>
        <time>2025-09-16T07:54:21Z</time>
      </trkpt>
      <trkpt lat="44.32537" lon="2.83808">
        <ele>891.76</ele>
        <time>2025-09-16T07:54:35Z</time>
      </trkpt>
      <trkpt lat="44.3254" lon="2.83808">
        <ele>892.24</ele>
        <time>2025-09-16T07:54:36Z</time>
      </trkpt>
      <trkpt lat="44.32542" lon="2.83807">
        <ele>892.72</ele>
        <time>2025-09-16T07:54:37Z</time>
      </trkpt>
      <trkpt lat="44.32544" lon="2.83807">
        <ele>893.2</ele>
        <time>2025-09-16T07:54:38Z</time>
      </trkpt>
      <trkpt lat="44.32546" lon="2.83806">
        <ele>893.2</ele>
        <time>2025-09-16T07:54:39Z</time>
      </trkpt>
      <trkpt lat="44.32547" lon="2.83806">
        <ele>893.68</ele>
        <time>2025-09-16T07:54:40Z</time>
      </trkpt>
      <trkpt lat="44.32549" lon="2.83806">
        <ele>894.16</ele>
        <time>2025-09-16T07:54:41Z</time>
      </trkpt>
      <trkpt lat="44.32575" lon="2.83802">
        <ele>896.09</ele>
        <time>2025-09-16T07:54:58Z</time>
      </trkpt>
      <trkpt lat="44.32602" lon="2.83796">
        <ele>896.57</ele>
        <time>2025-09-16T07:55:14Z</time>
      </trkpt>
      <trkpt lat="44.32625" lon="2.83794">
        <ele>896.09</ele>
        <time>2025-09-16T07:55:29Z</time>
      </trkpt>
      <trkpt lat="44.32657" lon="2.83788">
        <ele>897.53</ele>
        <time>2025-09-16T07:55:49Z</time>
      </trkpt>
      <trkpt lat="44.32683" lon="2.83784">
        <ele>897.05</ele>
        <time>2025-09-16T07:56:06Z</time>
      </trkpt>
      <trkpt lat="44.32707" lon="2.83778">
        <ele>896.09</ele>
        <time>2025-09-16T07:56:21Z</time>
      </trkpt>
      <trkpt lat="44.32707" lon="2.83774">
        <ele>896.09</ele>
        <time>2025-09-16T07:56:24Z</time>
      </trkpt>
      <trkpt lat="44.32708" lon="2.83772">
        <ele>896.09</ele>
        <time>2025-09-16T07:56:25Z</time>
      </trkpt>
      <trkpt lat="44.32707" lon="2.8377">
        <ele>896.09</ele>
        <time>2025-09-16T07:56:26Z</time>
      </trkpt>
      <trkpt lat="44.32707" lon="2.83768">
        <ele>895.61</ele>
        <time>2025-09-16T07:56:27Z</time>
      </trkpt>
      <trkpt lat="44.32706" lon="2.83766">
        <ele>895.61</ele>
        <time>2025-09-16T07:56:28Z</time>
      </trkpt>
      <trkpt lat="44.3269" lon="2.83728">
        <ele>894.64</ele>
        <time>2025-09-16T07:56:49Z</time>
      </trkpt>
      <trkpt lat="44.32682" lon="2.83699">
        <ele>893.2</ele>
        <time>2025-09-16T07:57:04Z</time>
      </trkpt>
      <trkpt lat="44.32677" lon="2.83692">
        <ele>892.72</ele>
        <time>2025-09-16T07:57:09Z</time>
      </trkpt>
      <trkpt lat="44.3265" lon="2.8367">
        <ele>890.8</ele>
        <time>2025-09-16T07:57:28Z</time>
      </trkpt>
      <trkpt lat="44.3263" lon="2.83654">
        <ele>889.84</ele>
        <time>2025-09-16T07:57:44Z</time>
      </trkpt>
      <trkpt lat="44.32604" lon="2.83632">
        <ele>887.91</ele>
        <time>2025-09-16T07:58:03Z</time>
      </trkpt>
      <trkpt lat="44.32578" lon="2.83616">
        <ele>887.43</ele>
        <time>2025-09-16T07:58:21Z</time>
      </trkpt>
      <trkpt lat="44.32546" lon="2.83607">
        <ele>887.43</ele>
        <time>2025-09-16T07:58:41Z</time>
      </trkpt>
      <trkpt lat="44.32522" lon="2.83599">
        <ele>886.47</ele>
        <time>2025-09-16T07:58:58Z</time>
      </trkpt>
      <trkpt lat="44.32498" lon="2.83588">
        <ele>886.47</ele>
        <time>2025-09-16T07:59:14Z</time>
      </trkpt>
      <trkpt lat="44.32484" lon="2.83583">
        <ele>883.59</ele>
        <time>2025-09-16T07:59:28Z</time>
      </trkpt>
      <trkpt lat="44.32475" lon="2.8358">
        <ele>882.63</ele>
        <time>2025-09-16T07:59:39Z</time>
      </trkpt>
      <trkpt lat="44.32474" lon="2.83579">
        <ele>882.63</ele>
        <time>2025-09-16T07:59:40Z</time>
      </trkpt>
      <trkpt lat="44.32456" lon="2.83565">
        <ele>881.19</ele>
        <time>2025-09-16T07:59:56Z</time>
      </trkpt>
      <trkpt lat="44.32439" lon="2.8354">
        <ele>877.82</ele>
        <time>2025-09-16T08:00:13Z</time>
      </trkpt>
      <trkpt lat="44.32423" lon="2.83508">
        <ele>876.38</ele>
        <time>2025-09-16T08:00:32Z</time>
      </trkpt>
      <trkpt lat="44.32396" lon="2.83488">
        <ele>874.46</ele>
        <time>2025-09-16T08:00:51Z</time>
      </trkpt>
      <trkpt lat="44.32378" lon="2.83473">
        <ele>872.53</ele>
        <time>2025-09-16T08:01:08Z</time>
      </trkpt>
      <trkpt lat="44.32357" lon="2.83454">
        <ele>870.61</ele>
        <time>2025-09-16T08:01:26Z</time>
      </trkpt>
      <trkpt lat="44.32339" lon="2.83434">
        <ele>870.61</ele>
        <time>2025-09-16T08:01:46Z</time>
      </trkpt>
      <trkpt lat="44.32311" lon="2.83416">
        <ele>870.13</ele>
        <time>2025-09-16T08:02:05Z</time>
      </trkpt>
      <trkpt lat="44.3231" lon="2.83414">
        <ele>870.13</ele>
        <time>2025-09-16T08:02:06Z</time>
      </trkpt>
      <trkpt lat="44.32306" lon="2.83389">
        <ele>868.21</ele>
        <time>2025-09-16T08:02:20Z</time>
      </trkpt>
      <trkpt lat="44.32302" lon="2.83376">
        <ele>869.17</ele>
        <time>2025-09-16T08:02:27Z</time>
      </trkpt>
      <trkpt lat="44.32301" lon="2.83374">
        <ele>869.17</ele>
        <time>2025-09-16T08:02:28Z</time>
      </trkpt>
      <trkpt lat="44.32301" lon="2.83372">
        <ele>869.17</ele>
        <time>2025-09-16T08:02:29Z</time>
      </trkpt>
      <trkpt lat="44.32294" lon="2.83361">
        <ele>869.65</ele>
        <time>2025-09-16T08:02:37Z</time>
      </trkpt>
      <trkpt lat="44.32292" lon="2.8336">
        <ele>869.65</ele>
        <time>2025-09-16T08:02:38Z</time>
      </trkpt>
      <trkpt lat="44.32291" lon="2.83359">
        <ele>869.17</ele>
        <time>2025-09-16T08:02:39Z</time>
      </trkpt>
      <trkpt lat="44.3229" lon="2.83358">
        <ele>869.17</ele>
        <time>2025-09-16T08:02:40Z</time>
      </trkpt>
      <trkpt lat="44.32289" lon="2.83357">
        <ele>869.17</ele>
        <time>2025-09-16T08:02:41Z</time>
      </trkpt>
      <trkpt lat="44.32273" lon="2.83345">
        <ele>868.21</ele>
        <time>2025-09-16T08:02:56Z</time>
      </trkpt>
      <trkpt lat="44.32271" lon="2.83344">
        <ele>868.21</ele>
        <time>2025-09-16T08:02:57Z</time>
      </trkpt>
      <trkpt lat="44.3227" lon="2.83343">
        <ele>868.21</ele>
        <time>2025-09-16T08:02:58Z</time>
      </trkpt>
      <trkpt lat="44.32263" lon="2.83338">
        <ele>866.77</ele>
        <time>2025-09-16T08:03:04Z</time>
      </trkpt>
      <trkpt lat="44.32247" lon="2.83317">
        <ele>862.92</ele>
        <time>2025-09-16T08:03:21Z</time>
      </trkpt>
      <trkpt lat="44.32238" lon="2.83287">
        <ele>859.56</ele>
        <time>2025-09-16T08:03:39Z</time>
      </trkpt>
      <trkpt lat="44.32225" lon="2.83248">
        <ele>856.67</ele>
        <time>2025-09-16T08:04:00Z</time>
      </trkpt>
      <trkpt lat="44.32217" lon="2.83238">
        <ele>855.71</ele>
        <time>2025-09-16T08:04:08Z</time>
      </trkpt>
      <trkpt lat="44.32198" lon="2.83226">
        <ele>854.27</ele>
        <time>2025-09-16T08:04:24Z</time>
      </trkpt>
      <trkpt lat="44.32194" lon="2.83225">
        <ele>854.75</ele>
        <time>2025-09-16T08:04:28Z</time>
      </trkpt>
      <trkpt lat="44.32192" lon="2.83225">
        <ele>855.23</ele>
        <time>2025-09-16T08:04:29Z</time>
      </trkpt>
      <trkpt lat="44.3219" lon="2.83225">
        <ele>855.23</ele>
        <time>2025-09-16T08:04:30Z</time>
      </trkpt>
      <trkpt lat="44.32189" lon="2.83225">
        <ele>854.75</ele>
        <time>2025-09-16T08:04:31Z</time>
      </trkpt>
      <trkpt lat="44.32185" lon="2.83228">
        <ele>853.31</ele>
        <time>2025-09-16T08:04:35Z</time>
      </trkpt>
      <trkpt lat="44.32184" lon="2.83228">
        <ele>852.83</ele>
        <time>2025-09-16T08:04:36Z</time>
      </trkpt>
      <trkpt lat="44.32165" lon="2.83249">
        <ele>848.02</ele>
        <time>2025-09-16T08:04:54Z</time>
      </trkpt>
      <trkpt lat="44.32147" lon="2.83267">
        <ele>845.62</ele>
        <time>2025-09-16T08:05:11Z</time>
      </trkpt>
      <trkpt lat="44.32119" lon="2.83279">
        <ele>846.1</ele>
        <time>2025-09-16T08:05:30Z</time>
      </trkpt>
      <trkpt lat="44.32104" lon="2.83269">
        <ele>847.54</ele>
        <time>2025-09-16T08:05:44Z</time>
      </trkpt>
      <trkpt lat="44.32082" lon="2.83263">
        <ele>847.54</ele>
        <time>2025-09-16T08:06:00Z</time>
      </trkpt>
      <trkpt lat="44.32081" lon="2.83264">
        <ele>847.54</ele>
        <time>2025-09-16T08:06:01Z</time>
      </trkpt>
      <trkpt lat="44.3208" lon="2.83264">
        <ele>848.02</ele>
        <time>2025-09-16T08:06:02Z</time>
      </trkpt>
      <trkpt lat="44.32055" lon="2.83276">
        <ele>852.35</ele>
        <time>2025-09-16T08:06:19Z</time>
      </trkpt>
      <trkpt lat="44.32038" lon="2.83288">
        <ele>853.79</ele>
        <time>2025-09-16T08:06:33Z</time>
      </trkpt>
      <trkpt lat="44.32014" lon="2.83302">
        <ele>854.27</ele>
        <time>2025-09-16T08:06:51Z</time>
      </trkpt>
      <trkpt lat="44.31992" lon="2.83316">
        <ele>855.23</ele>
        <time>2025-09-16T08:07:08Z</time>
      </trkpt>
      <trkpt lat="44.31967" lon="2.83336">
        <ele>856.67</ele>
        <time>2025-09-16T08:07:27Z</time>
      </trkpt>
      <trkpt lat="44.31942" lon="2.83356">
        <ele>857.63</ele>
        <time>2025-09-16T08:07:46Z</time>
      </trkpt>
      <trkpt lat="44.31923" lon="2.83378">
        <ele>858.11</ele>
        <time>2025-09-16T08:08:03Z</time>
      </trkpt>
      <trkpt lat="44.31898" lon="2.83403">
        <ele>858.59</ele>
        <time>2025-09-16T08:08:24Z</time>
      </trkpt>
      <trkpt lat="44.31872" lon="2.83415">
        <ele>858.59</ele>
        <time>2025-09-16T08:08:43Z</time>
      </trkpt>
      <trkpt lat="44.31842" lon="2.83414">
        <ele>859.08</ele>
        <time>2025-09-16T08:09:06Z</time>
      </trkpt>
      <trkpt lat="44.31816" lon="2.83396">
        <ele>860.04</ele>
        <time>2025-09-16T08:09:28Z</time>
      </trkpt>
      <trkpt lat="44.31795" lon="2.83368">
        <ele>857.15</ele>
        <time>2025-09-16T08:09:50Z</time>
      </trkpt>
      <trkpt lat="44.31772" lon="2.83353">
        <ele>852.35</ele>
        <time>2025-09-16T08:10:12Z</time>
      </trkpt>
      <trkpt lat="44.31751" lon="2.83339">
        <ele>854.75</ele>
        <time>2025-09-16T08:10:30Z</time>
      </trkpt>
      <trkpt lat="44.31722" lon="2.83327">
        <ele>856.67</ele>
        <time>2025-09-16T08:10:50Z</time>
      </trkpt>
      <trkpt lat="44.31692" lon="2.83316">
        <ele>863.4</ele>
        <time>2025-09-16T08:11:09Z</time>
      </trkpt>
      <trkpt lat="44.3166" lon="2.83316">
        <ele>863.4</ele>
        <time>2025-09-16T08:11:33Z</time>
      </trkpt>
      <trkpt lat="44.3165" lon="2.833">
        <ele>863.4</ele>
        <time>2025-09-16T08:11:47Z</time>
      </trkpt>
      <trkpt lat="44.3165" lon="2.83298">
        <ele>862.92</ele>
        <time>2025-09-16T08:11:48Z</time>
      </trkpt>
      <trkpt lat="44.31656" lon="2.83268">
        <ele>860.52</ele>
        <time>2025-09-16T08:12:04Z</time>
      </trkpt>
      <trkpt lat="44.31665" lon="2.83233">
        <ele>856.19</ele>
        <time>2025-09-16T08:12:23Z</time>
      </trkpt>
      <trkpt lat="44.3167" lon="2.83198">
        <ele>852.83</ele>
        <time>2025-09-16T08:12:42Z</time>
      </trkpt>
      <trkpt lat="44.31675" lon="2.83171">
        <ele>849.94</ele>
        <time>2025-09-16T08:12:57Z</time>
      </trkpt>
      <trkpt lat="44.3168" lon="2.83144">
        <ele>850.42</ele>
        <time>2025-09-16T08:13:12Z</time>
      </trkpt>
      <trkpt lat="44.31686" lon="2.83113">
        <ele>847.54</ele>
        <time>2025-09-16T08:13:28Z</time>
      </trkpt>
      <trkpt lat="44.31695" lon="2.83076">
        <ele>844.18</ele>
        <time>2025-09-16T08:13:46Z</time>
      </trkpt>
      <trkpt lat="44.31705" lon="2.8304">
        <ele>840.81</ele>
        <time>2025-09-16T08:14:04Z</time>
      </trkpt>
      <trkpt lat="44.31716" lon="2.83003">
        <ele>837.45</ele>
        <time>2025-09-16T08:14:24Z</time>
      </trkpt>
      <trkpt lat="44.31728" lon="2.82966">
        <ele>834.56</ele>
        <time>2025-09-16T08:14:43Z</time>
      </trkpt>
      <trkpt lat="44.31743" lon="2.82921">
        <ele>834.56</ele>
        <time>2025-09-16T08:15:05Z</time>
      </trkpt>
      <trkpt lat="44.31759" lon="2.82878">
        <ele>830.72</ele>
        <time>2025-09-16T08:15:27Z</time>
      </trkpt>
      <trkpt lat="44.31771" lon="2.82841">
        <ele>826.39</ele>
        <time>2025-09-16T08:15:46Z</time>
      </trkpt>
      <trkpt lat="44.31778" lon="2.82822">
        <ele>823.99</ele>
        <time>2025-09-16T08:15:56Z</time>
      </trkpt>
      <trkpt lat="44.31779" lon="2.8282">
        <ele>823.51</ele>
        <time>2025-09-16T08:15:57Z</time>
      </trkpt>
      <trkpt lat="44.3178" lon="2.82819">
        <ele>823.51</ele>
        <time>2025-09-16T08:15:58Z</time>
      </trkpt>
      <trkpt lat="44.31781" lon="2.82818">
        <ele>823.51</ele>
        <time>2025-09-16T08:15:59Z</time>
      </trkpt>
      <trkpt lat="44.31783" lon="2.82816">
        <ele>823.03</ele>
        <time>2025-09-16T08:16:00Z</time>
      </trkpt>
      <trkpt lat="44.31799" lon="2.82796">
        <ele>821.58</ele>
        <time>2025-09-16T08:16:16Z</time>
      </trkpt>
      <trkpt lat="44.31821" lon="2.82772">
        <ele>817.74</ele>
        <time>2025-09-16T08:16:36Z</time>
      </trkpt>
      <trkpt lat="44.31846" lon="2.82746">
        <ele>815.82</ele>
        <time>2025-09-16T08:16:56Z</time>
      </trkpt>
      <trkpt lat="44.31855" lon="2.82711">
        <ele>817.74</ele>
        <time>2025-09-16T08:17:14Z</time>
      </trkpt>
      <trkpt lat="44.31866" lon="2.82672">
        <ele>818.7</ele>
        <time>2025-09-16T08:17:35Z</time>
      </trkpt>
      <trkpt lat="44.31875" lon="2.82639">
        <ele>821.58</ele>
        <time>2025-09-16T08:17:53Z</time>
      </trkpt>
      <trkpt lat="44.31884" lon="2.82603">
        <ele>820.62</ele>
        <time>2025-09-16T08:18:12Z</time>
      </trkpt>
      <trkpt lat="44.31895" lon="2.82563">
        <ele>821.1</ele>
        <time>2025-09-16T08:18:32Z</time>
      </trkpt>
      <trkpt lat="44.31907" lon="2.82521">
        <ele>819.66</ele>
        <time>2025-09-16T08:18:52Z</time>
      </trkpt>
      <trkpt lat="44.3193" lon="2.82486">
        <ele>819.18</ele>
        <time>2025-09-16T08:19:12Z</time>
      </trkpt>
      <trkpt lat="44.31956" lon="2.82464">
        <ele>818.7</ele>
        <time>2025-09-16T08:19:32Z</time>
      </trkpt>
      <trkpt lat="44.31983" lon="2.82461">
        <ele>817.26</ele>
        <time>2025-09-16T08:19:50Z</time>
      </trkpt>
      <trkpt lat="44.32008" lon="2.82467">
        <ele>814.85</ele>
        <time>2025-09-16T08:20:07Z</time>
      </trkpt>
      <trkpt lat="44.32036" lon="2.82481">
        <ele>813.41</ele>
        <time>2025-09-16T08:20:25Z</time>
      </trkpt>
      <trkpt lat="44.32066" lon="2.82499">
        <ele>811.01</ele>
        <time>2025-09-16T08:20:44Z</time>
      </trkpt>
      <trkpt lat="44.32095" lon="2.82496">
        <ele>810.53</ele>
        <time>2025-09-16T08:21:02Z</time>
      </trkpt>
      <trkpt lat="44.32108" lon="2.82471">
        <ele>810.05</ele>
        <time>2025-09-16T08:21:17Z</time>
      </trkpt>
      <trkpt lat="44.32124" lon="2.82448">
        <ele>808.61</ele>
        <time>2025-09-16T08:21:32Z</time>
      </trkpt>
      <trkpt lat="44.32125" lon="2.82447">
        <ele>808.13</ele>
        <time>2025-09-16T08:21:33Z</time>
      </trkpt>
      <trkpt lat="44.3215" lon="2.82428">
        <ele>805.24</ele>
        <time>2025-09-16T08:21:51Z</time>
      </trkpt>
      <trkpt lat="44.32178" lon="2.82418">
        <ele>801.4</ele>
        <time>2025-09-16T08:22:11Z</time>
      </trkpt>
      <trkpt lat="44.32204" lon="2.82422">
        <ele>794.67</ele>
        <time>2025-09-16T08:22:30Z</time>
      </trkpt>
      <trkpt lat="44.32221" lon="2.8241">
        <ele>789.86</ele>
        <time>2025-09-16T08:22:45Z</time>
      </trkpt>
      <trkpt lat="44.3222" lon="2.82408">
        <ele>789.86</ele>
        <time>2025-09-16T08:22:46Z</time>
      </trkpt>
      <trkpt lat="44.32209" lon="2.82379">
        <ele>792.26</ele>
        <time>2025-09-16T08:23:03Z</time>
      </trkpt>
      <trkpt lat="44.32194" lon="2.82352">
        <ele>797.07</ele>
        <time>2025-09-16T08:23:21Z</time>
      </trkpt>
      <trkpt lat="44.32176" lon="2.82324">
        <ele>799.95</ele>
        <time>2025-09-16T08:23:40Z</time>
      </trkpt>
      <trkpt lat="44.32155" lon="2.82291">
        <ele>802.36</ele>
        <time>2025-09-16T08:24:01Z</time>
      </trkpt>
      <trkpt lat="44.32147" lon="2.82251">
        <ele>809.09</ele>
        <time>2025-09-16T08:24:21Z</time>
      </trkpt>
      <trkpt lat="44.32148" lon="2.82225">
        <ele>811.49</ele>
        <time>2025-09-16T08:24:34Z</time>
      </trkpt>
      <trkpt lat="44.32152" lon="2.82186">
        <ele>815.34</ele>
        <time>2025-09-16T08:24:53Z</time>
      </trkpt>
      <trkpt lat="44.32164" lon="2.82144">
        <ele>819.18</ele>
        <time>2025-09-16T08:25:14Z</time>
      </trkpt>
      <trkpt lat="44.32165" lon="2.82127">
        <ele>816.78</ele>
        <time>2025-09-16T08:25:25Z</time>
      </trkpt>
      <trkpt lat="44.32146" lon="2.82123">
        <ele>814.37</ele>
        <time>2025-09-16T08:25:42Z</time>
      </trkpt>
      <trkpt lat="44.32144" lon="2.82123">
        <ele>814.85</ele>
        <time>2025-09-16T08:25:43Z</time>
      </trkpt>
      <trkpt lat="44.32122" lon="2.82124">
        <ele>813.41</ele>
        <time>2025-09-16T08:26:02Z</time>
      </trkpt>
      <trkpt lat="44.32107" lon="2.82121">
        <ele>811.49</ele>
        <time>2025-09-16T08:26:15Z</time>
      </trkpt>
      <trkpt lat="44.32092" lon="2.82115">
        <ele>809.09</ele>
        <time>2025-09-16T08:26:25Z</time>
      </trkpt>
      <trkpt lat="44.32091" lon="2.82114">
        <ele>809.09</ele>
        <time>2025-09-16T08:26:26Z</time>
      </trkpt>
      <trkpt lat="44.32073" lon="2.82089">
        <ele>806.68</ele>
        <time>2025-09-16T08:26:44Z</time>
      </trkpt>
      <trkpt lat="44.32068" lon="2.82077">
        <ele>806.2</ele>
        <time>2025-09-16T08:26:52Z</time>
      </trkpt>
      <trkpt lat="44.32066" lon="2.82076">
        <ele>806.2</ele>
        <time>2025-09-16T08:26:53Z</time>
      </trkpt>
      <trkpt lat="44.32065" lon="2.82075">
        <ele>806.2</ele>
        <time>2025-09-16T08:26:54Z</time>
      </trkpt>
      <trkpt lat="44.32057" lon="2.8207">
        <ele>805.24</ele>
        <time>2025-09-16T08:27:01Z</time>
      </trkpt>
      <trkpt lat="44.32034" lon="2.82057">
        <ele>801.88</ele>
        <time>2025-09-16T08:27:19Z</time>
      </trkpt>
      <trkpt lat="44.32024" lon="2.82028">
        <ele>798.51</ele>
        <time>2025-09-16T08:27:35Z</time>
      </trkpt>
      <trkpt lat="44.32019" lon="2.81999">
        <ele>794.19</ele>
        <time>2025-09-16T08:27:50Z</time>
      </trkpt>
      <trkpt lat="44.32002" lon="2.81975">
        <ele>792.26</ele>
        <time>2025-09-16T08:28:08Z</time>
      </trkpt>
      <trkpt lat="44.31987" lon="2.81949">
        <ele>791.3</ele>
        <time>2025-09-16T08:28:24Z</time>
      </trkpt>
      <trkpt lat="44.31981" lon="2.81916">
        <ele>789.86</ele>
        <time>2025-09-16T08:28:42Z</time>
      </trkpt>
      <trkpt lat="44.31977" lon="2.81892">
        <ele>786.98</ele>
        <time>2025-09-16T08:28:54Z</time>
      </trkpt>
      <trkpt lat="44.31976" lon="2.8189">
        <ele>786.98</ele>
        <time>2025-09-16T08:28:55Z</time>
      </trkpt>
      <trkpt lat="44.31975" lon="2.81888">
        <ele>786.98</ele>
        <time>2025-09-16T08:28:56Z</time>
      </trkpt>
      <trkpt lat="44.31959" lon="2.81857">
        <ele>784.57</ele>
        <time>2025-09-16T08:29:14Z</time>
      </trkpt>
      <trkpt lat="44.31937" lon="2.81832">
        <ele>783.13</ele>
        <time>2025-09-16T08:29:33Z</time>
      </trkpt>
      <trkpt lat="44.31914" lon="2.81814">
        <ele>783.61</ele>
        <time>2025-09-16T08:29:51Z</time>
      </trkpt>
      <trkpt lat="44.31892" lon="2.81793">
        <ele>783.13</ele>
        <time>2025-09-16T08:30:10Z</time>
      </trkpt>
      <trkpt lat="44.31886" lon="2.81761">
        <ele>779.29</ele>
        <time>2025-09-16T08:30:24Z</time>
      </trkpt>
      <trkpt lat="44.319" lon="2.81732">
        <ele>774.96</ele>
        <time>2025-09-16T08:30:41Z</time>
      </trkpt>
      <trkpt lat="44.31906" lon="2.81717">
        <ele>774.48</ele>
        <time>2025-09-16T08:30:51Z</time>
      </trkpt>
      <trkpt lat="44.31905" lon="2.81716">
        <ele>774</ele>
        <time>2025-09-16T08:30:52Z</time>
      </trkpt>
      <trkpt lat="44.31904" lon="2.81714">
        <ele>774</ele>
        <time>2025-09-16T08:30:53Z</time>
      </trkpt>
      <trkpt lat="44.31895" lon="2.81713">
        <ele>773.04</ele>
        <time>2025-09-16T08:30:59Z</time>
      </trkpt>
      <trkpt lat="44.31879" lon="2.81722">
        <ele>770.63</ele>
        <time>2025-09-16T08:31:13Z</time>
      </trkpt>
      <trkpt lat="44.31862" lon="2.81744">
        <ele>767.27</ele>
        <time>2025-09-16T08:31:29Z</time>
      </trkpt>
      <trkpt lat="44.31837" lon="2.81765">
        <ele>765.35</ele>
        <time>2025-09-16T08:31:51Z</time>
      </trkpt>
      <trkpt lat="44.31813" lon="2.81768">
        <ele>763.9</ele>
        <time>2025-09-16T08:32:10Z</time>
      </trkpt>
      <trkpt lat="44.31786" lon="2.81757">
        <ele>761.98</ele>
        <time>2025-09-16T08:32:29Z</time>
      </trkpt>
      <trkpt lat="44.31771" lon="2.81749">
        <ele>761.02</ele>
        <time>2025-09-16T08:32:41Z</time>
      </trkpt>
      <trkpt lat="44.31764" lon="2.81742">
        <ele>760.06</ele>
        <time>2025-09-16T08:32:54Z</time>
      </trkpt>
      <trkpt lat="44.31763" lon="2.81743">
        <ele>759.1</ele>
        <time>2025-09-16T08:33:04Z</time>
      </trkpt>
      <trkpt lat="44.31763" lon="2.81743">
        <ele>756.21</ele>
        <time>2025-09-16T08:33:18Z</time>
      </trkpt>
      <trkpt lat="44.31763" lon="2.81736">
        <ele>754.29</ele>
        <time>2025-09-16T08:33:53Z</time>
      </trkpt>
      <trkpt lat="44.31765" lon="2.81742">
        <ele>754.29</ele>
        <time>2025-09-16T08:34:26Z</time>
      </trkpt>
      <trkpt lat="44.31761" lon="2.81744">
        <ele>759.1</ele>
        <time>2025-09-16T08:34:57Z</time>
      </trkpt>
      <trkpt lat="44.31763" lon="2.81744">
        <ele>761.02</ele>
        <time>2025-09-16T08:35:28Z</time>
      </trkpt>
      <trkpt lat="44.31759" lon="2.81745">
        <ele>764.39</ele>
        <time>2025-09-16T08:35:55Z</time>
      </trkpt>
      <trkpt lat="44.31761" lon="2.81743">
        <ele>763.9</ele>
        <time>2025-09-16T08:36:20Z</time>
      </trkpt>
      <trkpt lat="44.31759" lon="2.81751">
        <ele>764.87</ele>
        <time>2025-09-16T08:36:46Z</time>
      </trkpt>
      <trkpt lat="44.31757" lon="2.81745">
        <ele>763.9</ele>
        <time>2025-09-16T08:37:02Z</time>
      </trkpt>
      <trkpt lat="44.31756" lon="2.81744">
        <ele>764.39</ele>
        <time>2025-09-16T08:37:27Z</time>
      </trkpt>
      <trkpt lat="44.31753" lon="2.81741">
        <ele>761.98</ele>
        <time>2025-09-16T08:37:45Z</time>
      </trkpt>
      <trkpt lat="44.31732" lon="2.81739">
        <ele>764.87</ele>
        <time>2025-09-16T08:38:01Z</time>
      </trkpt>
      <trkpt lat="44.31712" lon="2.81753">
        <ele>763.9</ele>
        <time>2025-09-16T08:38:16Z</time>
      </trkpt>
      <trkpt lat="44.31685" lon="2.81765">
        <ele>763.42</ele>
        <time>2025-09-16T08:38:36Z</time>
      </trkpt>
      <trkpt lat="44.3166" lon="2.81779">
        <ele>763.9</ele>
        <time>2025-09-16T08:38:56Z</time>
      </trkpt>
      <trkpt lat="44.31641" lon="2.8179">
        <ele>764.39</ele>
        <time>2025-09-16T08:39:13Z</time>
      </trkpt>
      <trkpt lat="44.31613" lon="2.81801">
        <ele>766.31</ele>
        <time>2025-09-16T08:39:35Z</time>
      </trkpt>
      <trkpt lat="44.3159" lon="2.81798">
        <ele>768.71</ele>
        <time>2025-09-16T08:39:53Z</time>
      </trkpt>
      <trkpt lat="44.3159" lon="2.81788">
        <ele>768.71</ele>
        <time>2025-09-16T08:39:57Z</time>
      </trkpt>
      <trkpt lat="44.3159" lon="2.81777">
        <ele>769.19</ele>
        <time>2025-09-16T08:40:01Z</time>
      </trkpt>
      <trkpt lat="44.31594" lon="2.81742">
        <ele>771.11</ele>
        <time>2025-09-16T08:40:18Z</time>
      </trkpt>
      <trkpt lat="44.31598" lon="2.81727">
        <ele>773.52</ele>
        <time>2025-09-16T08:40:28Z</time>
      </trkpt>
      <trkpt lat="44.31618" lon="2.81699">
        <ele>773.52</ele>
        <time>2025-09-16T08:40:46Z</time>
      </trkpt>
      <trkpt lat="44.31629" lon="2.81679">
        <ele>775.44</ele>
        <time>2025-09-16T08:40:58Z</time>
      </trkpt>
      <trkpt lat="44.31629" lon="2.8167">
        <ele>776.88</ele>
        <time>2025-09-16T08:41:03Z</time>
      </trkpt>
      <trkpt lat="44.31626" lon="2.81669">
        <ele>777.84</ele>
        <time>2025-09-16T08:41:06Z</time>
      </trkpt>
      <trkpt lat="44.31609" lon="2.81686">
        <ele>779.77</ele>
        <time>2025-09-16T08:41:25Z</time>
      </trkpt>
      <trkpt lat="44.31594" lon="2.81701">
        <ele>780.25</ele>
        <time>2025-09-16T08:41:41Z</time>
      </trkpt>
      <trkpt lat="44.31575" lon="2.81707">
        <ele>779.77</ele>
        <time>2025-09-16T08:41:57Z</time>
      </trkpt>
      <trkpt lat="44.31555" lon="2.81699">
        <ele>781.21</ele>
        <time>2025-09-16T08:42:15Z</time>
      </trkpt>
      <trkpt lat="44.31549" lon="2.81695">
        <ele>781.21</ele>
        <time>2025-09-16T08:42:30Z</time>
      </trkpt>
      <trkpt lat="44.31533" lon="2.81678">
        <ele>779.29</ele>
        <time>2025-09-16T08:42:45Z</time>
      </trkpt>
      <trkpt lat="44.31513" lon="2.81675">
        <ele>776.88</ele>
        <time>2025-09-16T08:43:00Z</time>
      </trkpt>
      <trkpt lat="44.31505" lon="2.81674">
        <ele>775.92</ele>
        <time>2025-09-16T08:43:12Z</time>
      </trkpt>
      <trkpt lat="44.31504" lon="2.81674">
        <ele>776.4</ele>
        <time>2025-09-16T08:43:14Z</time>
      </trkpt>
      <trkpt lat="44.31491" lon="2.81679">
        <ele>775.92</ele>
        <time>2025-09-16T08:43:31Z</time>
      </trkpt>
      <trkpt lat="44.31471" lon="2.81688">
        <ele>774</ele>
        <time>2025-09-16T08:43:46Z</time>
      </trkpt>
      <trkpt lat="44.31454" lon="2.81711">
        <ele>773.52</ele>
        <time>2025-09-16T08:44:02Z</time>
      </trkpt>
      <trkpt lat="44.31438" lon="2.8174">
        <ele>772.08</ele>
        <time>2025-09-16T08:44:19Z</time>
      </trkpt>
      <trkpt lat="44.31419" lon="2.81759">
        <ele>772.08</ele>
        <time>2025-09-16T08:44:36Z</time>
      </trkpt>
      <trkpt lat="44.31412" lon="2.81765">
        <ele>771.6</ele>
        <time>2025-09-16T08:44:42Z</time>
      </trkpt>
      <trkpt lat="44.31385" lon="2.81767">
        <ele>772.08</ele>
        <time>2025-09-16T08:45:00Z</time>
      </trkpt>
      <trkpt lat="44.31355" lon="2.81757">
        <ele>773.52</ele>
        <time>2025-09-16T08:45:20Z</time>
      </trkpt>
      <trkpt lat="44.31325" lon="2.8173">
        <ele>773.52</ele>
        <time>2025-09-16T08:45:42Z</time>
      </trkpt>
      <trkpt lat="44.31305" lon="2.81713">
        <ele>773.52</ele>
        <time>2025-09-16T08:46:00Z</time>
      </trkpt>
      <trkpt lat="44.31294" lon="2.81706">
        <ele>774.48</ele>
        <time>2025-09-16T08:46:08Z</time>
      </trkpt>
      <trkpt lat="44.31284" lon="2.81707">
        <ele>776.4</ele>
        <time>2025-09-16T08:46:15Z</time>
      </trkpt>
      <trkpt lat="44.31252" lon="2.81706">
        <ele>780.25</ele>
        <time>2025-09-16T08:46:36Z</time>
      </trkpt>
      <trkpt lat="44.31235" lon="2.81685">
        <ele>782.65</ele>
        <time>2025-09-16T08:46:53Z</time>
      </trkpt>
      <trkpt lat="44.31219" lon="2.81659">
        <ele>784.57</ele>
        <time>2025-09-16T08:47:10Z</time>
      </trkpt>
      <trkpt lat="44.31205" lon="2.81643">
        <ele>785.05</ele>
        <time>2025-09-16T08:47:26Z</time>
      </trkpt>
      <trkpt lat="44.31186" lon="2.81624">
        <ele>785.05</ele>
        <time>2025-09-16T08:47:42Z</time>
      </trkpt>
      <trkpt lat="44.31166" lon="2.816">
        <ele>786.02</ele>
        <time>2025-09-16T08:47:59Z</time>
      </trkpt>
      <trkpt lat="44.31142" lon="2.81576">
        <ele>784.57</ele>
        <time>2025-09-16T08:48:18Z</time>
      </trkpt>
      <trkpt lat="44.31119" lon="2.81562">
        <ele>782.17</ele>
        <time>2025-09-16T08:48:35Z</time>
      </trkpt>
      <trkpt lat="44.31096" lon="2.8156">
        <ele>778.81</ele>
        <time>2025-09-16T08:48:50Z</time>
      </trkpt>
      <trkpt lat="44.31067" lon="2.81571">
        <ele>773.04</ele>
        <time>2025-09-16T08:49:06Z</time>
      </trkpt>
      <trkpt lat="44.31034" lon="2.81576">
        <ele>769.67</ele>
        <time>2025-09-16T08:49:25Z</time>
      </trkpt>
      <trkpt lat="44.31006" lon="2.81566">
        <ele>767.75</ele>
        <time>2025-09-16T08:49:44Z</time>
      </trkpt>
      <trkpt lat="44.30982" lon="2.81545">
        <ele>766.31</ele>
        <time>2025-09-16T08:50:01Z</time>
      </trkpt>
      <trkpt lat="44.30955" lon="2.81539">
        <ele>766.31</ele>
        <time>2025-09-16T08:50:19Z</time>
      </trkpt>
      <trkpt lat="44.30925" lon="2.81542">
        <ele>763.9</ele>
        <time>2025-09-16T08:50:37Z</time>
      </trkpt>
      <trkpt lat="44.30921" lon="2.81542">
        <ele>763.42</ele>
        <time>2025-09-16T08:50:40Z</time>
      </trkpt>
      <trkpt lat="44.309" lon="2.81559">
        <ele>759.58</ele>
        <time>2025-09-16T08:50:54Z</time>
      </trkpt>
      <trkpt lat="44.30877" lon="2.8157">
        <ele>755.73</ele>
        <time>2025-09-16T08:51:09Z</time>
      </trkpt>
      <trkpt lat="44.30851" lon="2.81575">
        <ele>753.33</ele>
        <time>2025-09-16T08:51:25Z</time>
      </trkpt>
      <trkpt lat="44.30849" lon="2.81574">
        <ele>752.85</ele>
        <time>2025-09-16T08:51:26Z</time>
      </trkpt>
      <trkpt lat="44.30825" lon="2.81548">
        <ele>750.93</ele>
        <time>2025-09-16T08:51:43Z</time>
      </trkpt>
      <trkpt lat="44.30805" lon="2.81527">
        <ele>753.81</ele>
        <time>2025-09-16T08:51:58Z</time>
      </trkpt>
      <trkpt lat="44.30779" lon="2.81509">
        <ele>753.81</ele>
        <time>2025-09-16T08:52:15Z</time>
      </trkpt>
      <trkpt lat="44.30753" lon="2.81496">
        <ele>751.41</ele>
        <time>2025-09-16T08:52:31Z</time>
      </trkpt>
      <trkpt lat="44.30728" lon="2.81484">
        <ele>748.52</ele>
        <time>2025-09-16T08:52:47Z</time>
      </trkpt>
      <trkpt lat="44.30699" lon="2.81482">
        <ele>747.08</ele>
        <time>2025-09-16T08:53:05Z</time>
      </trkpt>
      <trkpt lat="44.30674" lon="2.81485">
        <ele>749.97</ele>
        <time>2025-09-16T08:53:19Z</time>
      </trkpt>
      <trkpt lat="44.30647" lon="2.81497">
        <ele>750.45</ele>
        <time>2025-09-16T08:53:37Z</time>
      </trkpt>
      <trkpt lat="44.30619" lon="2.81517">
        <ele>749</ele>
        <time>2025-09-16T08:53:56Z</time>
      </trkpt>
      <trkpt lat="44.30598" lon="2.81534">
        <ele>747.08</ele>
        <time>2025-09-16T08:54:12Z</time>
      </trkpt>
      <trkpt lat="44.30579" lon="2.81567">
        <ele>743.24</ele>
        <time>2025-09-16T08:54:30Z</time>
      </trkpt>
      <trkpt lat="44.30557" lon="2.81601">
        <ele>740.35</ele>
        <time>2025-09-16T08:54:48Z</time>
      </trkpt>
      <trkpt lat="44.3055" lon="2.81601">
        <ele>735.55</ele>
        <time>2025-09-16T08:55:05Z</time>
      </trkpt>
      <trkpt lat="44.30549" lon="2.81604">
        <ele>735.07</ele>
        <time>2025-09-16T08:55:29Z</time>
      </trkpt>
      <trkpt lat="44.30548" lon="2.81606">
        <ele>733.62</ele>
        <time>2025-09-16T08:55:44Z</time>
      </trkpt>
      <trkpt lat="44.30546" lon="2.81606">
        <ele>734.1</ele>
        <time>2025-09-16T08:55:45Z</time>
      </trkpt>
      <trkpt lat="44.30545" lon="2.81607">
        <ele>734.1</ele>
        <time>2025-09-16T08:55:46Z</time>
      </trkpt>
      <trkpt lat="44.30543" lon="2.81608">
        <ele>734.58</ele>
        <time>2025-09-16T08:55:47Z</time>
      </trkpt>
      <trkpt lat="44.30542" lon="2.81609">
        <ele>734.58</ele>
        <time>2025-09-16T08:55:48Z</time>
      </trkpt>
      <trkpt lat="44.30544" lon="2.81599">
        <ele>734.58</ele>
        <time>2025-09-16T08:56:02Z</time>
      </trkpt>
      <trkpt lat="44.30545" lon="2.81597">
        <ele>734.58</ele>
        <time>2025-09-16T08:56:03Z</time>
      </trkpt>
      <trkpt lat="44.30558" lon="2.81571">
        <ele>734.1</ele>
        <time>2025-09-16T08:56:17Z</time>
      </trkpt>
      <trkpt lat="44.3057" lon="2.81541">
        <ele>732.66</ele>
        <time>2025-09-16T08:56:33Z</time>
      </trkpt>
      <trkpt lat="44.30585" lon="2.8151">
        <ele>732.66</ele>
        <time>2025-09-16T08:56:50Z</time>
      </trkpt>
      <trkpt lat="44.30598" lon="2.81483">
        <ele>728.82</ele>
        <time>2025-09-16T08:57:06Z</time>
      </trkpt>
      <trkpt lat="44.30612" lon="2.81459">
        <ele>729.78</ele>
        <time>2025-09-16T08:57:20Z</time>
      </trkpt>
      <trkpt lat="44.30633" lon="2.81433">
        <ele>731.7</ele>
        <time>2025-09-16T08:57:37Z</time>
      </trkpt>
      <trkpt lat="44.30657" lon="2.81415">
        <ele>734.1</ele>
        <time>2025-09-16T08:57:56Z</time>
      </trkpt>
      <trkpt lat="44.30679" lon="2.81403">
        <ele>734.58</ele>
        <time>2025-09-16T08:58:12Z</time>
      </trkpt>
      <trkpt lat="44.3071" lon="2.81386">
        <ele>734.1</ele>
        <time>2025-09-16T08:58:34Z</time>
      </trkpt>
      <trkpt lat="44.30738" lon="2.8137">
        <ele>735.55</ele>
        <time>2025-09-16T08:58:53Z</time>
      </trkpt>
      <trkpt lat="44.30765" lon="2.81356">
        <ele>742.28</ele>
        <time>2025-09-16T08:59:11Z</time>
      </trkpt>
      <trkpt lat="44.30793" lon="2.81344">
        <ele>740.83</ele>
        <time>2025-09-16T08:59:28Z</time>
      </trkpt>
      <trkpt lat="44.30818" lon="2.81327">
        <ele>738.43</ele>
        <time>2025-09-16T08:59:43Z</time>
      </trkpt>
      <trkpt lat="44.3084" lon="2.81303">
        <ele>736.51</ele>
        <time>2025-09-16T09:00:00Z</time>
      </trkpt>
      <trkpt lat="44.30861" lon="2.81283">
        <ele>736.03</ele>
        <time>2025-09-16T09:00:17Z</time>
      </trkpt>
      <trkpt lat="44.30885" lon="2.81259">
        <ele>736.51</ele>
        <time>2025-09-16T09:00:35Z</time>
      </trkpt>
      <trkpt lat="44.3091" lon="2.81235">
        <ele>736.99</ele>
        <time>2025-09-16T09:00:54Z</time>
      </trkpt>
      <trkpt lat="44.30935" lon="2.81211">
        <ele>736.03</ele>
        <time>2025-09-16T09:01:16Z</time>
      </trkpt>
      <trkpt lat="44.30961" lon="2.81183">
        <ele>737.47</ele>
        <time>2025-09-16T09:01:38Z</time>
      </trkpt>
      <trkpt lat="44.30986" lon="2.81153">
        <ele>738.91</ele>
        <time>2025-09-16T09:01:59Z</time>
      </trkpt>
      <trkpt lat="44.31008" lon="2.81128">
        <ele>740.35</ele>
        <time>2025-09-16T09:02:19Z</time>
      </trkpt>
      <trkpt lat="44.31034" lon="2.81097">
        <ele>738.91</ele>
        <time>2025-09-16T09:02:40Z</time>
      </trkpt>
      <trkpt lat="44.31052" lon="2.81068">
        <ele>737.95</ele>
        <time>2025-09-16T09:02:58Z</time>
      </trkpt>
      <trkpt lat="44.31069" lon="2.81034">
        <ele>735.55</ele>
        <time>2025-09-16T09:03:18Z</time>
      </trkpt>
      <trkpt lat="44.31081" lon="2.80996">
        <ele>734.58</ele>
        <time>2025-09-16T09:03:37Z</time>
      </trkpt>
      <trkpt lat="44.31089" lon="2.80955">
        <ele>734.1</ele>
        <time>2025-09-16T09:03:56Z</time>
      </trkpt>
      <trkpt lat="44.31093" lon="2.80923">
        <ele>734.58</ele>
        <time>2025-09-16T09:04:14Z</time>
      </trkpt>
      <trkpt lat="44.31093" lon="2.80918">
        <ele>735.07</ele>
        <time>2025-09-16T09:04:16Z</time>
      </trkpt>
      <trkpt lat="44.31091" lon="2.80915">
        <ele>735.07</ele>
        <time>2025-09-16T09:04:17Z</time>
      </trkpt>
      <trkpt lat="44.3109" lon="2.80913">
        <ele>735.07</ele>
        <time>2025-09-16T09:04:18Z</time>
      </trkpt>
      <trkpt lat="44.31068" lon="2.80901">
        <ele>734.1</ele>
        <time>2025-09-16T09:04:33Z</time>
      </trkpt>
      <trkpt lat="44.31046" lon="2.80897">
        <ele>733.62</ele>
        <time>2025-09-16T09:04:51Z</time>
      </trkpt>
      <trkpt lat="44.31023" lon="2.80899">
        <ele>732.66</ele>
        <time>2025-09-16T09:05:06Z</time>
      </trkpt>
      <trkpt lat="44.30998" lon="2.80903">
        <ele>732.66</ele>
        <time>2025-09-16T09:05:24Z</time>
      </trkpt>
      <trkpt lat="44.3099" lon="2.80907">
        <ele>733.14</ele>
        <time>2025-09-16T09:05:40Z</time>
      </trkpt>
      <trkpt lat="44.30985" lon="2.809">
        <ele>733.62</ele>
        <time>2025-09-16T09:05:48Z</time>
      </trkpt>
      <trkpt lat="44.30953" lon="2.80903">
        <ele>735.55</ele>
        <time>2025-09-16T09:06:06Z</time>
      </trkpt>
      <trkpt lat="44.30938" lon="2.80907">
        <ele>735.55</ele>
        <time>2025-09-16T09:06:24Z</time>
      </trkpt>
      <trkpt lat="44.30946" lon="2.80904">
        <ele>738.91</ele>
        <time>2025-09-16T09:06:47Z</time>
      </trkpt>
      <trkpt lat="44.30949" lon="2.80904">
        <ele>738.91</ele>
        <time>2025-09-16T09:06:49Z</time>
      </trkpt>
      <trkpt lat="44.30951" lon="2.80904">
        <ele>738.91</ele>
        <time>2025-09-16T09:06:50Z</time>
      </trkpt>
      <trkpt lat="44.30953" lon="2.80903">
        <ele>739.39</ele>
        <time>2025-09-16T09:06:51Z</time>
      </trkpt>
      <trkpt lat="44.30981" lon="2.80902">
        <ele>736.99</ele>
        <time>2025-09-16T09:07:09Z</time>
      </trkpt>
      <trkpt lat="44.30996" lon="2.80899">
        <ele>735.55</ele>
        <time>2025-09-16T09:07:27Z</time>
      </trkpt>
      <trkpt lat="44.30998" lon="2.80897">
        <ele>736.03</ele>
        <time>2025-09-16T09:07:54Z</time>
      </trkpt>
      <trkpt lat="44.30997" lon="2.80899">
        <ele>735.07</ele>
        <time>2025-09-16T09:08:26Z</time>
      </trkpt>
      <trkpt lat="44.30991" lon="2.80896">
        <ele>734.58</ele>
        <time>2025-09-16T09:08:46Z</time>
      </trkpt>
      <trkpt lat="44.30992" lon="2.809">
        <ele>734.1</ele>
        <time>2025-09-16T09:09:01Z</time>
      </trkpt>
      <trkpt lat="44.30993" lon="2.80898">
        <ele>732.66</ele>
        <time>2025-09-16T09:09:25Z</time>
      </trkpt>
      <trkpt lat="44.30994" lon="2.80896">
        <ele>737.47</ele>
        <time>2025-09-16T09:09:57Z</time>
      </trkpt>
      <trkpt lat="44.30998" lon="2.80893">
        <ele>736.03</ele>
        <time>2025-09-16T09:10:25Z</time>
      </trkpt>
      <trkpt lat="44.30999" lon="2.80897">
        <ele>737.47</ele>
        <time>2025-09-16T09:10:52Z</time>
      </trkpt>
      <trkpt lat="44.31002" lon="2.80897">
        <ele>737.95</ele>
        <time>2025-09-16T09:11:20Z</time>
      </trkpt>
      <trkpt lat="44.30997" lon="2.80899">
        <ele>735.07</ele>
        <time>2025-09-16T09:11:45Z</time>
      </trkpt>
      <trkpt lat="44.30983" lon="2.80903">
        <ele>735.07</ele>
        <time>2025-09-16T09:12:06Z</time>
      </trkpt>
      <trkpt lat="44.30976" lon="2.80904">
        <ele>735.55</ele>
        <time>2025-09-16T09:12:25Z</time>
      </trkpt>
      <trkpt lat="44.30965" lon="2.80904">
        <ele>735.07</ele>
        <time>2025-09-16T09:12:44Z</time>
      </trkpt>
      <trkpt lat="44.30961" lon="2.80904">
        <ele>735.55</ele>
        <time>2025-09-16T09:12:58Z</time>
      </trkpt>
      <trkpt lat="44.30936" lon="2.80902">
        <ele>741.79</ele>
        <time>2025-09-16T09:13:16Z</time>
      </trkpt>
      <trkpt lat="44.30908" lon="2.80905">
        <ele>744.2</ele>
        <time>2025-09-16T09:13:37Z</time>
      </trkpt>
      <trkpt lat="44.30877" lon="2.80905">
        <ele>746.12</ele>
        <time>2025-09-16T09:13:59Z</time>
      </trkpt>
      <trkpt lat="44.30871" lon="2.80901">
        <ele>745.64</ele>
        <time>2025-09-16T09:14:04Z</time>
      </trkpt>
      <trkpt lat="44.3087" lon="2.809">
        <ele>745.64</ele>
        <time>2025-09-16T09:14:05Z</time>
      </trkpt>
      <trkpt lat="44.30853" lon="2.80866">
        <ele>747.56</ele>
        <time>2025-09-16T09:14:25Z</time>
      </trkpt>
      <trkpt lat="44.30844" lon="2.80828">
        <ele>750.45</ele>
        <time>2025-09-16T09:14:45Z</time>
      </trkpt>
      <trkpt lat="44.30854" lon="2.80789">
        <ele>756.69</ele>
        <time>2025-09-16T09:15:03Z</time>
      </trkpt>
      <trkpt lat="44.30861" lon="2.8076">
        <ele>758.14</ele>
        <time>2025-09-16T09:15:20Z</time>
      </trkpt>
      <trkpt lat="44.3087" lon="2.80723">
        <ele>758.14</ele>
        <time>2025-09-16T09:15:38Z</time>
      </trkpt>
      <trkpt lat="44.30871" lon="2.80712">
        <ele>757.66</ele>
        <time>2025-09-16T09:15:52Z</time>
      </trkpt>
      <trkpt lat="44.30872" lon="2.80709">
        <ele>757.18</ele>
        <time>2025-09-16T09:15:54Z</time>
      </trkpt>
      <trkpt lat="44.30872" lon="2.80707">
        <ele>757.18</ele>
        <time>2025-09-16T09:15:55Z</time>
      </trkpt>
      <trkpt lat="44.30865" lon="2.80681">
        <ele>756.21</ele>
        <time>2025-09-16T09:16:13Z</time>
      </trkpt>
      <trkpt lat="44.30863" lon="2.80682">
        <ele>756.21</ele>
        <time>2025-09-16T09:16:14Z</time>
      </trkpt>
      <trkpt lat="44.30843" lon="2.80693">
        <ele>756.69</ele>
        <time>2025-09-16T09:16:30Z</time>
      </trkpt>
      <trkpt lat="44.30835" lon="2.80701">
        <ele>755.73</ele>
        <time>2025-09-16T09:16:44Z</time>
      </trkpt>
      <trkpt lat="44.30836" lon="2.80698">
        <ele>755.73</ele>
        <time>2025-09-16T09:17:06Z</time>
      </trkpt>
      <trkpt lat="44.30839" lon="2.80691">
        <ele>756.21</ele>
        <time>2025-09-16T09:17:20Z</time>
      </trkpt>
      <trkpt lat="44.30837" lon="2.80698">
        <ele>757.66</ele>
        <time>2025-09-16T09:17:44Z</time>
      </trkpt>
      <trkpt lat="44.30836" lon="2.807">
        <ele>756.69</ele>
        <time>2025-09-16T09:18:00Z</time>
      </trkpt>
      <trkpt lat="44.30829" lon="2.80707">
        <ele>755.73</ele>
        <time>2025-09-16T09:18:14Z</time>
      </trkpt>
      <trkpt lat="44.30828" lon="2.80709">
        <ele>755.73</ele>
        <time>2025-09-16T09:18:15Z</time>
      </trkpt>
      <trkpt lat="44.30809" lon="2.8072">
        <ele>755.73</ele>
        <time>2025-09-16T09:18:29Z</time>
      </trkpt>
      <trkpt lat="44.30798" lon="2.8073">
        <ele>756.69</ele>
        <time>2025-09-16T09:18:43Z</time>
      </trkpt>
      <trkpt lat="44.3079" lon="2.80734">
        <ele>757.18</ele>
        <time>2025-09-16T09:18:56Z</time>
      </trkpt>
      <trkpt lat="44.30786" lon="2.80736">
        <ele>757.18</ele>
        <time>2025-09-16T09:19:00Z</time>
      </trkpt>
      <trkpt lat="44.30785" lon="2.80736">
        <ele>757.18</ele>
        <time>2025-09-16T09:19:01Z</time>
      </trkpt>
      <trkpt lat="44.30784" lon="2.80737">
        <ele>756.69</ele>
        <time>2025-09-16T09:19:02Z</time>
      </trkpt>
      <trkpt lat="44.30783" lon="2.80738">
        <ele>756.69</ele>
        <time>2025-09-16T09:19:03Z</time>
      </trkpt>
      <trkpt lat="44.30767" lon="2.80755">
        <ele>755.73</ele>
        <time>2025-09-16T09:19:21Z</time>
      </trkpt>
      <trkpt lat="44.30743" lon="2.80777">
        <ele>759.58</ele>
        <time>2025-09-16T09:19:42Z</time>
      </trkpt>
      <trkpt lat="44.30729" lon="2.80795">
        <ele>761.02</ele>
        <time>2025-09-16T09:20:01Z</time>
      </trkpt>
      <trkpt lat="44.30715" lon="2.80819">
        <ele>759.58</ele>
        <time>2025-09-16T09:20:19Z</time>
      </trkpt>
      <trkpt lat="44.30707" lon="2.80844">
        <ele>760.06</ele>
        <time>2025-09-16T09:20:39Z</time>
      </trkpt>
      <trkpt lat="44.307" lon="2.80861">
        <ele>762.46</ele>
        <time>2025-09-16T09:20:57Z</time>
      </trkpt>
      <trkpt lat="44.30699" lon="2.80869">
        <ele>764.39</ele>
        <time>2025-09-16T09:21:13Z</time>
      </trkpt>
      <trkpt lat="44.30698" lon="2.80857">
        <ele>765.83</ele>
        <time>2025-09-16T09:21:30Z</time>
      </trkpt>
      <trkpt lat="44.30705" lon="2.80846">
        <ele>767.27</ele>
        <time>2025-09-16T09:21:49Z</time>
      </trkpt>
      <trkpt lat="44.30701" lon="2.80845">
        <ele>764.87</ele>
        <time>2025-09-16T09:22:14Z</time>
      </trkpt>
      <trkpt lat="44.30705" lon="2.80846">
        <ele>765.35</ele>
        <time>2025-09-16T09:22:34Z</time>
      </trkpt>
      <trkpt lat="44.30695" lon="2.80869">
        <ele>765.35</ele>
        <time>2025-09-16T09:22:52Z</time>
      </trkpt>
      <trkpt lat="44.30691" lon="2.80881">
        <ele>766.79</ele>
        <time>2025-09-16T09:23:08Z</time>
      </trkpt>
      <trkpt lat="44.30684" lon="2.80886">
        <ele>767.27</ele>
        <time>2025-09-16T09:23:23Z</time>
      </trkpt>
      <trkpt lat="44.30676" lon="2.80897">
        <ele>766.31</ele>
        <time>2025-09-16T09:23:36Z</time>
      </trkpt>
      <trkpt lat="44.30674" lon="2.80895">
        <ele>766.79</ele>
        <time>2025-09-16T09:23:54Z</time>
      </trkpt>
      <trkpt lat="44.30676" lon="2.80896">
        <ele>766.79</ele>
        <time>2025-09-16T09:24:07Z</time>
      </trkpt>
      <trkpt lat="44.30676" lon="2.80894">
        <ele>764.87</ele>
        <time>2025-09-16T09:24:21Z</time>
      </trkpt>
      <trkpt lat="44.30678" lon="2.8089">
        <ele>764.87</ele>
        <time>2025-09-16T09:24:42Z</time>
      </trkpt>
      <trkpt lat="44.30678" lon="2.80888">
        <ele>764.87</ele>
        <time>2025-09-16T09:25:05Z</time>
      </trkpt>
      <trkpt lat="44.30671" lon="2.80902">
        <ele>767.75</ele>
        <time>2025-09-16T09:25:26Z</time>
      </trkpt>
      <trkpt lat="44.30666" lon="2.80906">
        <ele>769.67</ele>
        <time>2025-09-16T09:25:40Z</time>
      </trkpt>
      <trkpt lat="44.30665" lon="2.80907">
        <ele>770.15</ele>
        <time>2025-09-16T09:25:41Z</time>
      </trkpt>
      <trkpt lat="44.30663" lon="2.80908">
        <ele>770.15</ele>
        <time>2025-09-16T09:25:42Z</time>
      </trkpt>
      <trkpt lat="44.30637" lon="2.80919">
        <ele>773.52</ele>
        <time>2025-09-16T09:26:03Z</time>
      </trkpt>
      <trkpt lat="44.30631" lon="2.80919">
        <ele>774</ele>
        <time>2025-09-16T09:26:07Z</time>
      </trkpt>
      <trkpt lat="44.30602" lon="2.80903">
        <ele>774</ele>
        <time>2025-09-16T09:26:26Z</time>
      </trkpt>
      <trkpt lat="44.30598" lon="2.80902">
        <ele>774</ele>
        <time>2025-09-16T09:26:28Z</time>
      </trkpt>
      <trkpt lat="44.30579" lon="2.80906">
        <ele>774.96</ele>
        <time>2025-09-16T09:26:41Z</time>
      </trkpt>
      <trkpt lat="44.30576" lon="2.80907">
        <ele>774.96</ele>
        <time>2025-09-16T09:26:43Z</time>
      </trkpt>
      <trkpt lat="44.30574" lon="2.80908">
        <ele>775.92</ele>
        <time>2025-09-16T09:26:44Z</time>
      </trkpt>
      <trkpt lat="44.30572" lon="2.80909">
        <ele>776.4</ele>
        <time>2025-09-16T09:26:45Z</time>
      </trkpt>
      <trkpt lat="44.30553" lon="2.80925">
        <ele>777.36</ele>
        <time>2025-09-16T09:27:00Z</time>
      </trkpt>
      <trkpt lat="44.30518" lon="2.80944">
        <ele>777.36</ele>
        <time>2025-09-16T09:27:22Z</time>
      </trkpt>
      <trkpt lat="44.30494" lon="2.80956">
        <ele>777.36</ele>
        <time>2025-09-16T09:27:40Z</time>
      </trkpt>
      <trkpt lat="44.3046" lon="2.80967">
        <ele>779.77</ele>
        <time>2025-09-16T09:28:03Z</time>
      </trkpt>
      <trkpt lat="44.30424" lon="2.80977">
        <ele>780.25</ele>
        <time>2025-09-16T09:28:25Z</time>
      </trkpt>
      <trkpt lat="44.30401" lon="2.8098">
        <ele>781.21</ele>
        <time>2025-09-16T09:28:42Z</time>
      </trkpt>
      <trkpt lat="44.304" lon="2.80979">
        <ele>781.69</ele>
        <time>2025-09-16T09:28:43Z</time>
      </trkpt>
      <trkpt lat="44.3037" lon="2.80963">
        <ele>786.98</ele>
        <time>2025-09-16T09:29:04Z</time>
      </trkpt>
      <trkpt lat="44.3035" lon="2.80939">
        <ele>790.34</ele>
        <time>2025-09-16T09:29:21Z</time>
      </trkpt>
      <trkpt lat="44.30323" lon="2.80908">
        <ele>792.26</ele>
        <time>2025-09-16T09:29:42Z</time>
      </trkpt>
      <trkpt lat="44.30299" lon="2.80883">
        <ele>794.67</ele>
        <time>2025-09-16T09:30:02Z</time>
      </trkpt>
      <trkpt lat="44.30276" lon="2.80866">
        <ele>795.63</ele>
        <time>2025-09-16T09:30:19Z</time>
      </trkpt>
      <trkpt lat="44.30251" lon="2.80844">
        <ele>799.47</ele>
        <time>2025-09-16T09:30:38Z</time>
      </trkpt>
      <trkpt lat="44.30227" lon="2.80818">
        <ele>798.99</ele>
        <time>2025-09-16T09:30:58Z</time>
      </trkpt>
      <trkpt lat="44.30209" lon="2.80793">
        <ele>798.51</ele>
        <time>2025-09-16T09:31:15Z</time>
      </trkpt>
      <trkpt lat="44.30192" lon="2.80766">
        <ele>799.95</ele>
        <time>2025-09-16T09:31:32Z</time>
      </trkpt>
      <trkpt lat="44.30172" lon="2.80742">
        <ele>798.51</ele>
        <time>2025-09-16T09:31:49Z</time>
      </trkpt>
      <trkpt lat="44.30153" lon="2.80726">
        <ele>797.55</ele>
        <time>2025-09-16T09:32:03Z</time>
      </trkpt>
      <trkpt lat="44.30134" lon="2.8071">
        <ele>796.59</ele>
        <time>2025-09-16T09:32:18Z</time>
      </trkpt>
      <trkpt lat="44.30117" lon="2.80679">
        <ele>794.67</ele>
        <time>2025-09-16T09:32:36Z</time>
      </trkpt>
      <trkpt lat="44.30108" lon="2.8065">
        <ele>794.19</ele>
        <time>2025-09-16T09:32:50Z</time>
      </trkpt>
      <trkpt lat="44.301" lon="2.80619">
        <ele>794.19</ele>
        <time>2025-09-16T09:33:06Z</time>
      </trkpt>
      <trkpt lat="44.30089" lon="2.80588">
        <ele>792.74</ele>
        <time>2025-09-16T09:33:20Z</time>
      </trkpt>
      <trkpt lat="44.30087" lon="2.80586">
        <ele>792.74</ele>
        <time>2025-09-16T09:33:21Z</time>
      </trkpt>
      <trkpt lat="44.30075" lon="2.80563">
        <ele>793.22</ele>
        <time>2025-09-16T09:33:35Z</time>
      </trkpt>
      <trkpt lat="44.3006" lon="2.80531">
        <ele>791.78</ele>
        <time>2025-09-16T09:33:52Z</time>
      </trkpt>
      <trkpt lat="44.3005" lon="2.805">
        <ele>792.74</ele>
        <time>2025-09-16T09:34:08Z</time>
      </trkpt>
      <trkpt lat="44.30046" lon="2.80468">
        <ele>794.19</ele>
        <time>2025-09-16T09:34:23Z</time>
      </trkpt>
      <trkpt lat="44.3005" lon="2.80434">
        <ele>796.59</ele>
        <time>2025-09-16T09:34:40Z</time>
      </trkpt>
      <trkpt lat="44.30036" lon="2.80402">
        <ele>799.47</ele>
        <time>2025-09-16T09:34:58Z</time>
      </trkpt>
      <trkpt lat="44.30014" lon="2.80371">
        <ele>799.47</ele>
        <time>2025-09-16T09:35:18Z</time>
      </trkpt>
      <trkpt lat="44.3001" lon="2.80333">
        <ele>796.11</ele>
        <time>2025-09-16T09:35:38Z</time>
      </trkpt>
      <trkpt lat="44.30006" lon="2.80289">
        <ele>797.55</ele>
        <time>2025-09-16T09:35:59Z</time>
      </trkpt>
      <trkpt lat="44.29989" lon="2.80255">
        <ele>803.32</ele>
        <time>2025-09-16T09:36:19Z</time>
      </trkpt>
      <trkpt lat="44.2999" lon="2.80228">
        <ele>806.2</ele>
        <time>2025-09-16T09:36:33Z</time>
      </trkpt>
      <trkpt lat="44.30012" lon="2.80209">
        <ele>807.16</ele>
        <time>2025-09-16T09:36:50Z</time>
      </trkpt>
      <trkpt lat="44.30041" lon="2.80185">
        <ele>805.72</ele>
        <time>2025-09-16T09:37:10Z</time>
      </trkpt>
      <trkpt lat="44.30063" lon="2.80164">
        <ele>804.28</ele>
        <time>2025-09-16T09:37:27Z</time>
      </trkpt>
      <trkpt lat="44.30089" lon="2.8013">
        <ele>803.32</ele>
        <time>2025-09-16T09:37:50Z</time>
      </trkpt>
      <trkpt lat="44.301" lon="2.801">
        <ele>803.32</ele>
        <time>2025-09-16T09:38:06Z</time>
      </trkpt>
      <trkpt lat="44.30109" lon="2.80066">
        <ele>803.8</ele>
        <time>2025-09-16T09:38:24Z</time>
      </trkpt>
      <trkpt lat="44.30117" lon="2.80023">
        <ele>804.28</ele>
        <time>2025-09-16T09:38:45Z</time>
      </trkpt>
      <trkpt lat="44.30123" lon="2.79991">
        <ele>805.24</ele>
        <time>2025-09-16T09:39:02Z</time>
      </trkpt>
      <trkpt lat="44.30129" lon="2.79956">
        <ele>803.8</ele>
        <time>2025-09-16T09:39:21Z</time>
      </trkpt>
      <trkpt lat="44.30133" lon="2.79911">
        <ele>803.32</ele>
        <time>2025-09-16T09:39:41Z</time>
      </trkpt>
      <trkpt lat="44.3014" lon="2.79872">
        <ele>803.8</ele>
        <time>2025-09-16T09:40:00Z</time>
      </trkpt>
      <trkpt lat="44.3015" lon="2.79838">
        <ele>805.24</ele>
        <time>2025-09-16T09:40:17Z</time>
      </trkpt>
      <trkpt lat="44.30159" lon="2.79801">
        <ele>807.64</ele>
        <time>2025-09-16T09:40:37Z</time>
      </trkpt>
      <trkpt lat="44.3016" lon="2.79799">
        <ele>807.64</ele>
        <time>2025-09-16T09:40:38Z</time>
      </trkpt>
      <trkpt lat="44.30172" lon="2.7976">
        <ele>807.16</ele>
        <time>2025-09-16T09:40:58Z</time>
      </trkpt>
      <trkpt lat="44.30185" lon="2.79739">
        <ele>804.28</ele>
        <time>2025-09-16T09:41:13Z</time>
      </trkpt>
      <trkpt lat="44.30197" lon="2.79709">
        <ele>804.76</ele>
        <time>2025-09-16T09:41:31Z</time>
      </trkpt>
      <trkpt lat="44.30198" lon="2.79707">
        <ele>805.24</ele>
        <time>2025-09-16T09:41:32Z</time>
      </trkpt>
      <trkpt lat="44.30198" lon="2.79705">
        <ele>805.24</ele>
        <time>2025-09-16T09:41:33Z</time>
      </trkpt>
      <trkpt lat="44.30199" lon="2.79704">
        <ele>805.24</ele>
        <time>2025-09-16T09:41:34Z</time>
      </trkpt>
      <trkpt lat="44.30199" lon="2.79696">
        <ele>805.24</ele>
        <time>2025-09-16T09:41:40Z</time>
      </trkpt>
      <trkpt lat="44.30198" lon="2.79695">
        <ele>805.24</ele>
        <time>2025-09-16T09:41:41Z</time>
      </trkpt>
      <trkpt lat="44.30194" lon="2.79691">
        <ele>804.28</ele>
        <time>2025-09-16T09:41:47Z</time>
      </trkpt>
      <trkpt lat="44.30183" lon="2.79673">
        <ele>803.32</ele>
        <time>2025-09-16T09:42:01Z</time>
      </trkpt>
      <trkpt lat="44.30164" lon="2.79662">
        <ele>800.92</ele>
        <time>2025-09-16T09:42:16Z</time>
      </trkpt>
      <trkpt lat="44.30144" lon="2.7967">
        <ele>798.03</ele>
        <time>2025-09-16T09:42:30Z</time>
      </trkpt>
      <trkpt lat="44.30126" lon="2.79686">
        <ele>795.15</ele>
        <time>2025-09-16T09:42:44Z</time>
      </trkpt>
      <trkpt lat="44.30103" lon="2.79705">
        <ele>793.22</ele>
        <time>2025-09-16T09:43:02Z</time>
      </trkpt>
      <trkpt lat="44.3008" lon="2.79721">
        <ele>788.42</ele>
        <time>2025-09-16T09:43:21Z</time>
      </trkpt>
      <trkpt lat="44.30061" lon="2.79727">
        <ele>784.57</ele>
        <time>2025-09-16T09:43:35Z</time>
      </trkpt>
      <trkpt lat="44.30037" lon="2.79722">
        <ele>777.84</ele>
        <time>2025-09-16T09:43:54Z</time>
      </trkpt>
      <trkpt lat="44.30006" lon="2.79696">
        <ele>775.92</ele>
        <time>2025-09-16T09:44:18Z</time>
      </trkpt>
      <trkpt lat="44.29976" lon="2.7968">
        <ele>773.52</ele>
        <time>2025-09-16T09:44:39Z</time>
      </trkpt>
      <trkpt lat="44.29946" lon="2.79676">
        <ele>773.52</ele>
        <time>2025-09-16T09:44:58Z</time>
      </trkpt>
      <trkpt lat="44.29923" lon="2.79671">
        <ele>775.92</ele>
        <time>2025-09-16T09:45:15Z</time>
      </trkpt>
      <trkpt lat="44.29898" lon="2.79657">
        <ele>779.29</ele>
        <time>2025-09-16T09:45:33Z</time>
      </trkpt>
      <trkpt lat="44.29876" lon="2.79646">
        <ele>783.61</ele>
        <time>2025-09-16T09:45:50Z</time>
      </trkpt>
      <trkpt lat="44.29845" lon="2.79638">
        <ele>786.02</ele>
        <time>2025-09-16T09:46:15Z</time>
      </trkpt>
      <trkpt lat="44.29811" lon="2.79634">
        <ele>789.86</ele>
        <time>2025-09-16T09:46:36Z</time>
      </trkpt>
      <trkpt lat="44.29786" lon="2.79627">
        <ele>794.19</ele>
        <time>2025-09-16T09:46:54Z</time>
      </trkpt>
      <trkpt lat="44.2976" lon="2.7962">
        <ele>798.99</ele>
        <time>2025-09-16T09:47:12Z</time>
      </trkpt>
      <trkpt lat="44.2973" lon="2.79611">
        <ele>804.76</ele>
        <time>2025-09-16T09:47:32Z</time>
      </trkpt>
      <trkpt lat="44.297" lon="2.79597">
        <ele>802.84</ele>
        <time>2025-09-16T09:47:55Z</time>
      </trkpt>
      <trkpt lat="44.29674" lon="2.79582">
        <ele>801.88</ele>
        <time>2025-09-16T09:48:13Z</time>
      </trkpt>
      <trkpt lat="44.29653" lon="2.79565">
        <ele>800.44</ele>
        <time>2025-09-16T09:48:30Z</time>
      </trkpt>
      <trkpt lat="44.29625" lon="2.79538">
        <ele>799.95</ele>
        <time>2025-09-16T09:48:50Z</time>
      </trkpt>
      <trkpt lat="44.29605" lon="2.7952">
        <ele>798.51</ele>
        <time>2025-09-16T09:49:09Z</time>
      </trkpt>
      <trkpt lat="44.29598" lon="2.79507">
        <ele>797.07</ele>
        <time>2025-09-16T09:49:28Z</time>
      </trkpt>
      <trkpt lat="44.29595" lon="2.79504">
        <ele>797.07</ele>
        <time>2025-09-16T09:50:01Z</time>
      </trkpt>
      <trkpt lat="44.29596" lon="2.79506">
        <ele>798.51</ele>
        <time>2025-09-16T09:50:19Z</time>
      </trkpt>
      <trkpt lat="44.29585" lon="2.79474">
        <ele>798.51</ele>
        <time>2025-09-16T09:50:38Z</time>
      </trkpt>
      <trkpt lat="44.29581" lon="2.79451">
        <ele>798.03</ele>
        <time>2025-09-16T09:50:59Z</time>
      </trkpt>
      <trkpt lat="44.29586" lon="2.79421">
        <ele>798.03</ele>
        <time>2025-09-16T09:51:18Z</time>
      </trkpt>
      <trkpt lat="44.29588" lon="2.79392">
        <ele>799.95</ele>
        <time>2025-09-16T09:51:32Z</time>
      </trkpt>
      <trkpt lat="44.29584" lon="2.79385">
        <ele>800.44</ele>
        <time>2025-09-16T09:51:39Z</time>
      </trkpt>
      <trkpt lat="44.29583" lon="2.79385">
        <ele>800.44</ele>
        <time>2025-09-16T09:51:40Z</time>
      </trkpt>
      <trkpt lat="44.29566" lon="2.79395">
        <ele>800.92</ele>
        <time>2025-09-16T09:51:57Z</time>
      </trkpt>
      <trkpt lat="44.29544" lon="2.79413">
        <ele>801.4</ele>
        <time>2025-09-16T09:52:17Z</time>
      </trkpt>
      <trkpt lat="44.29525" lon="2.79421">
        <ele>805.24</ele>
        <time>2025-09-16T09:52:35Z</time>
      </trkpt>
      <trkpt lat="44.29492" lon="2.79433">
        <ele>809.09</ele>
        <time>2025-09-16T09:52:56Z</time>
      </trkpt>
      <trkpt lat="44.29468" lon="2.79439">
        <ele>812.45</ele>
        <time>2025-09-16T09:53:12Z</time>
      </trkpt>
      <trkpt lat="44.29444" lon="2.79446">
        <ele>815.34</ele>
        <time>2025-09-16T09:53:28Z</time>
      </trkpt>
      <trkpt lat="44.29421" lon="2.79446">
        <ele>816.78</ele>
        <time>2025-09-16T09:53:44Z</time>
      </trkpt>
      <trkpt lat="44.29392" lon="2.79444">
        <ele>820.62</ele>
        <time>2025-09-16T09:54:00Z</time>
      </trkpt>
      <trkpt lat="44.29368" lon="2.79446">
        <ele>822.06</ele>
        <time>2025-09-16T09:54:14Z</time>
      </trkpt>
      <trkpt lat="44.29347" lon="2.79446">
        <ele>822.06</ele>
        <time>2025-09-16T09:54:29Z</time>
      </trkpt>
      <trkpt lat="44.29342" lon="2.79444">
        <ele>823.03</ele>
        <time>2025-09-16T09:54:41Z</time>
      </trkpt>
      <trkpt lat="44.29339" lon="2.79442">
        <ele>823.99</ele>
        <time>2025-09-16T09:54:45Z</time>
      </trkpt>
      <trkpt lat="44.29338" lon="2.79414">
        <ele>823.99</ele>
        <time>2025-09-16T09:55:02Z</time>
      </trkpt>
      <trkpt lat="44.29334" lon="2.79389">
        <ele>822.55</ele>
        <time>2025-09-16T09:55:17Z</time>
      </trkpt>
      <trkpt lat="44.29334" lon="2.79386">
        <ele>822.55</ele>
        <time>2025-09-16T09:55:20Z</time>
      </trkpt>
      <trkpt lat="44.29336" lon="2.79384">
        <ele>822.06</ele>
        <time>2025-09-16T09:55:22Z</time>
      </trkpt>
      <trkpt lat="44.29347" lon="2.79388">
        <ele>821.1</ele>
        <time>2025-09-16T09:55:37Z</time>
      </trkpt>
      <trkpt lat="44.29345" lon="2.79389">
        <ele>819.18</ele>
        <time>2025-09-16T09:56:00Z</time>
      </trkpt>
      <trkpt lat="44.29344" lon="2.79392">
        <ele>820.14</ele>
        <time>2025-09-16T09:56:26Z</time>
      </trkpt>
      <trkpt lat="44.29343" lon="2.79395">
        <ele>823.51</ele>
        <time>2025-09-16T09:56:48Z</time>
      </trkpt>
      <trkpt lat="44.29343" lon="2.79394">
        <ele>823.51</ele>
        <time>2025-09-16T09:57:13Z</time>
      </trkpt>
      <trkpt lat="44.29342" lon="2.79393">
        <ele>824.47</ele>
        <time>2025-09-16T09:57:36Z</time>
      </trkpt>
      <trkpt lat="44.29339" lon="2.79393">
        <ele>825.43</ele>
        <time>2025-09-16T09:58:08Z</time>
      </trkpt>
      <trkpt lat="44.29341" lon="2.79387">
        <ele>824.47</ele>
        <time>2025-09-16T09:58:20Z</time>
      </trkpt>
      <trkpt lat="44.2934" lon="2.79383">
        <ele>823.03</ele>
        <time>2025-09-16T09:58:23Z</time>
      </trkpt>
      <trkpt lat="44.29329" lon="2.79386">
        <ele>823.51</ele>
        <time>2025-09-16T09:58:38Z</time>
      </trkpt>
      <trkpt lat="44.2933" lon="2.79385">
        <ele>823.51</ele>
        <time>2025-09-16T09:59:05Z</time>
      </trkpt>
      <trkpt lat="44.29333" lon="2.7939">
        <ele>823.03</ele>
        <time>2025-09-16T09:59:30Z</time>
      </trkpt>
      <trkpt lat="44.29339" lon="2.7939">
        <ele>822.06</ele>
        <time>2025-09-16T09:59:52Z</time>
      </trkpt>
      <trkpt lat="44.29339" lon="2.7939">
        <ele>823.51</ele>
        <time>2025-09-16T10:00:10Z</time>
      </trkpt>
      <trkpt lat="44.2934" lon="2.79391">
        <ele>821.1</ele>
        <time>2025-09-16T10:00:30Z</time>
      </trkpt>
      <trkpt lat="44.29341" lon="2.79391">
        <ele>820.62</ele>
        <time>2025-09-16T10:00:54Z</time>
      </trkpt>
      <trkpt lat="44.29341" lon="2.79393">
        <ele>821.1</ele>
        <time>2025-09-16T10:01:25Z</time>
      </trkpt>
      <trkpt lat="44.29343" lon="2.79398">
        <ele>821.58</ele>
        <time>2025-09-16T10:01:33Z</time>
      </trkpt>
      <trkpt lat="44.29344" lon="2.79405">
        <ele>820.14</ele>
        <time>2025-09-16T10:01:52Z</time>
      </trkpt>
      <trkpt lat="44.29338" lon="2.79397">
        <ele>820.62</ele>
        <time>2025-09-16T10:01:59Z</time>
      </trkpt>
      <trkpt lat="44.29317" lon="2.79374">
        <ele>821.1</ele>
        <time>2025-09-16T10:02:15Z</time>
      </trkpt>
      <trkpt lat="44.29293" lon="2.79358">
        <ele>824.95</ele>
        <time>2025-09-16T10:02:34Z</time>
      </trkpt>
      <trkpt lat="44.29268" lon="2.79334">
        <ele>827.83</ele>
        <time>2025-09-16T10:02:55Z</time>
      </trkpt>
      <trkpt lat="44.29248" lon="2.79317">
        <ele>828.31</ele>
        <time>2025-09-16T10:03:11Z</time>
      </trkpt>
      <trkpt lat="44.29226" lon="2.793">
        <ele>829.76</ele>
        <time>2025-09-16T10:03:29Z</time>
      </trkpt>
      <trkpt lat="44.292" lon="2.79278">
        <ele>833.12</ele>
        <time>2025-09-16T10:03:49Z</time>
      </trkpt>
      <trkpt lat="44.29179" lon="2.7926">
        <ele>835.52</ele>
        <time>2025-09-16T10:04:07Z</time>
      </trkpt>
      <trkpt lat="44.29157" lon="2.79239">
        <ele>837.45</ele>
        <time>2025-09-16T10:04:25Z</time>
      </trkpt>
      <trkpt lat="44.29145" lon="2.79209">
        <ele>839.37</ele>
        <time>2025-09-16T10:04:44Z</time>
      </trkpt>
      <trkpt lat="44.29122" lon="2.79172">
        <ele>837.93</ele>
        <time>2025-09-16T10:05:05Z</time>
      </trkpt>
      <trkpt lat="44.29115" lon="2.7913">
        <ele>838.89</ele>
        <time>2025-09-16T10:05:28Z</time>
      </trkpt>
      <trkpt lat="44.29101" lon="2.79084">
        <ele>842.73</ele>
        <time>2025-09-16T10:05:50Z</time>
      </trkpt>
      <trkpt lat="44.29096" lon="2.79065">
        <ele>843.21</ele>
        <time>2025-09-16T10:06:13Z</time>
      </trkpt>
      <trkpt lat="44.29079" lon="2.79021">
        <ele>850.42</ele>
        <time>2025-09-16T10:06:31Z</time>
      </trkpt>
      <trkpt lat="44.29065" lon="2.78981">
        <ele>856.67</ele>
        <time>2025-09-16T10:06:53Z</time>
      </trkpt>
      <trkpt lat="44.29049" lon="2.78939">
        <ele>857.15</ele>
        <time>2025-09-16T10:07:14Z</time>
      </trkpt>
      <trkpt lat="44.29044" lon="2.78909">
        <ele>867.73</ele>
        <time>2025-09-16T10:07:28Z</time>
      </trkpt>
      <trkpt lat="44.29036" lon="2.78869">
        <ele>868.69</ele>
        <time>2025-09-16T10:07:47Z</time>
      </trkpt>
      <trkpt lat="44.29039" lon="2.7884">
        <ele>870.13</ele>
        <time>2025-09-16T10:08:06Z</time>
      </trkpt>
      <trkpt lat="44.29039" lon="2.78838">
        <ele>870.13</ele>
        <time>2025-09-16T10:08:07Z</time>
      </trkpt>
      <trkpt lat="44.29039" lon="2.78836">
        <ele>870.13</ele>
        <time>2025-09-16T10:08:08Z</time>
      </trkpt>
      <trkpt lat="44.29039" lon="2.78834">
        <ele>869.65</ele>
        <time>2025-09-16T10:08:09Z</time>
      </trkpt>
      <trkpt lat="44.29039" lon="2.78832">
        <ele>869.65</ele>
        <time>2025-09-16T10:08:10Z</time>
      </trkpt>
      <trkpt lat="44.29028" lon="2.78815">
        <ele>869.65</ele>
        <time>2025-09-16T10:08:26Z</time>
      </trkpt>
      <trkpt lat="44.29024" lon="2.78762">
        <ele>865.8</ele>
        <time>2025-09-16T10:08:45Z</time>
      </trkpt>
      <trkpt lat="44.29041" lon="2.78733">
        <ele>873.98</ele>
        <time>2025-09-16T10:08:55Z</time>
      </trkpt>
      <trkpt lat="44.29041" lon="2.7873">
        <ele>873.98</ele>
        <time>2025-09-16T10:08:56Z</time>
      </trkpt>
      <trkpt lat="44.29042" lon="2.78728">
        <ele>874.46</ele>
        <time>2025-09-16T10:08:57Z</time>
      </trkpt>
      <trkpt lat="44.29046" lon="2.78713">
        <ele>878.78</ele>
        <time>2025-09-16T10:09:05Z</time>
      </trkpt>
      <trkpt lat="44.29046" lon="2.78711">
        <ele>879.26</ele>
        <time>2025-09-16T10:09:06Z</time>
      </trkpt>
      <trkpt lat="44.29048" lon="2.78678">
        <ele>880.71</ele>
        <time>2025-09-16T10:09:21Z</time>
      </trkpt>
      <trkpt lat="44.2905" lon="2.78642">
        <ele>879.26</ele>
        <time>2025-09-16T10:09:37Z</time>
      </trkpt>
      <trkpt lat="44.29053" lon="2.78588">
        <ele>871.57</ele>
        <time>2025-09-16T10:09:57Z</time>
      </trkpt>
      <trkpt lat="44.29058" lon="2.78572">
        <ele>870.61</ele>
        <time>2025-09-16T10:10:05Z</time>
      </trkpt>
      <trkpt lat="44.29061" lon="2.78535">
        <ele>865.32</ele>
        <time>2025-09-16T10:10:23Z</time>
      </trkpt>
      <trkpt lat="44.29069" lon="2.78499">
        <ele>863.4</ele>
        <time>2025-09-16T10:10:42Z</time>
      </trkpt>
      <trkpt lat="44.29073" lon="2.78454">
        <ele>863.88</ele>
        <time>2025-09-16T10:11:02Z</time>
      </trkpt>
      <trkpt lat="44.29076" lon="2.78423">
        <ele>861</ele>
        <time>2025-09-16T10:11:17Z</time>
      </trkpt>
      <trkpt lat="44.29088" lon="2.78376">
        <ele>859.08</ele>
        <time>2025-09-16T10:11:39Z</time>
      </trkpt>
      <trkpt lat="44.29102" lon="2.78342">
        <ele>858.59</ele>
        <time>2025-09-16T10:11:59Z</time>
      </trkpt>
      <trkpt lat="44.29112" lon="2.78303">
        <ele>859.08</ele>
        <time>2025-09-16T10:12:20Z</time>
      </trkpt>
      <trkpt lat="44.28536" lon="2.77502">
        <ele>841.77</ele>
        <time>2025-09-16T10:47:00Z</time>
      </trkpt>
      <trkpt lat="44.28536" lon="2.77503">
        <ele>841.29</ele>
        <time>2025-09-16T10:47:06Z</time>
      </trkpt>
      <trkpt lat="44.28509" lon="2.77498">
        <ele>839.85</ele>
        <time>2025-09-16T12:48:52Z</time>
      </trkpt>
      <trkpt lat="44.2851" lon="2.77498">
        <ele>841.29</ele>
        <time>2025-09-16T12:49:08Z</time>
      </trkpt>
      <trkpt lat="44.28517" lon="2.77499">
        <ele>829.76</ele>
        <time>2025-09-16T12:49:21Z</time>
      </trkpt>
      <trkpt lat="44.28521" lon="2.775">
        <ele>829.27</ele>
        <time>2025-09-16T12:49:37Z</time>
      </trkpt>
      <trkpt lat="44.28522" lon="2.77499">
        <ele>828.31</ele>
        <time>2025-09-16T12:49:51Z</time>
      </trkpt>
      <trkpt lat="44.28528" lon="2.77504">
        <ele>828.31</ele>
        <time>2025-09-16T12:50:06Z</time>
      </trkpt>
      <trkpt lat="44.2853" lon="2.77504">
        <ele>830.72</ele>
        <time>2025-09-16T12:50:23Z</time>
      </trkpt>
      <trkpt lat="44.28529" lon="2.77508">
        <ele>836.96</ele>
        <time>2025-09-16T12:50:40Z</time>
      </trkpt>
      <trkpt lat="44.28529" lon="2.7751">
        <ele>840.33</ele>
        <time>2025-09-16T12:51:01Z</time>
      </trkpt>
      <trkpt lat="44.28525" lon="2.77514">
        <ele>845.14</ele>
        <time>2025-09-16T12:51:27Z</time>
      </trkpt>
      <trkpt lat="44.28526" lon="2.77517">
        <ele>846.1</ele>
        <time>2025-09-16T12:51:51Z</time>
      </trkpt>
      <trkpt lat="44.28529" lon="2.77522">
        <ele>846.58</ele>
        <time>2025-09-16T12:52:09Z</time>
      </trkpt>
      <trkpt lat="44.28531" lon="2.77525">
        <ele>846.58</ele>
        <time>2025-09-16T12:52:14Z</time>
      </trkpt>
      <trkpt lat="44.28534" lon="2.77532">
        <ele>846.1</ele>
        <time>2025-09-16T12:52:20Z</time>
      </trkpt>
      <trkpt lat="44.28544" lon="2.77548">
        <ele>845.62</ele>
        <time>2025-09-16T12:52:32Z</time>
      </trkpt>
      <trkpt lat="44.28556" lon="2.77551">
        <ele>844.66</ele>
        <time>2025-09-16T12:52:46Z</time>
      </trkpt>
      <trkpt lat="44.28567" lon="2.77553">
        <ele>846.58</ele>
        <time>2025-09-16T12:53:03Z</time>
      </trkpt>
      <trkpt lat="44.2857" lon="2.77558">
        <ele>846.1</ele>
        <time>2025-09-16T12:53:20Z</time>
      </trkpt>
      <trkpt lat="44.28575" lon="2.77554">
        <ele>846.58</ele>
        <time>2025-09-16T12:53:36Z</time>
      </trkpt>
      <trkpt lat="44.28576" lon="2.77552">
        <ele>846.58</ele>
        <time>2025-09-16T12:53:38Z</time>
      </trkpt>
      <trkpt lat="44.28584" lon="2.77539">
        <ele>846.58</ele>
        <time>2025-09-16T12:53:54Z</time>
      </trkpt>
      <trkpt lat="44.28587" lon="2.77533">
        <ele>846.58</ele>
        <time>2025-09-16T12:54:07Z</time>
      </trkpt>
      <trkpt lat="44.28591" lon="2.7753">
        <ele>848.02</ele>
        <time>2025-09-16T12:54:14Z</time>
      </trkpt>
      <trkpt lat="44.28598" lon="2.77528">
        <ele>848.98</ele>
        <time>2025-09-16T12:54:30Z</time>
      </trkpt>
      <trkpt lat="44.28597" lon="2.77529">
        <ele>849.94</ele>
        <time>2025-09-16T12:54:44Z</time>
      </trkpt>
      <trkpt lat="44.28593" lon="2.77528">
        <ele>852.83</ele>
        <time>2025-09-16T12:55:01Z</time>
      </trkpt>
      <trkpt lat="44.28588" lon="2.77529">
        <ele>859.56</ele>
        <time>2025-09-16T12:55:29Z</time>
      </trkpt>
      <trkpt lat="44.28586" lon="2.77529">
        <ele>863.88</ele>
        <time>2025-09-16T12:55:51Z</time>
      </trkpt>
      <trkpt lat="44.28594" lon="2.77526">
        <ele>861.48</ele>
        <time>2025-09-16T12:55:58Z</time>
      </trkpt>
      <trkpt lat="44.28604" lon="2.77515">
        <ele>860.52</ele>
        <time>2025-09-16T12:56:07Z</time>
      </trkpt>
      <trkpt lat="44.28623" lon="2.77492">
        <ele>861.48</ele>
        <time>2025-09-16T12:56:25Z</time>
      </trkpt>
      <trkpt lat="44.28639" lon="2.77476">
        <ele>860.04</ele>
        <time>2025-09-16T12:56:39Z</time>
      </trkpt>
      <trkpt lat="44.28658" lon="2.77454">
        <ele>855.23</ele>
        <time>2025-09-16T12:56:55Z</time>
      </trkpt>
      <trkpt lat="44.28661" lon="2.77433">
        <ele>853.31</ele>
        <time>2025-09-16T12:57:07Z</time>
      </trkpt>
      <trkpt lat="44.28658" lon="2.77395">
        <ele>849.94</ele>
        <time>2025-09-16T12:57:25Z</time>
      </trkpt>
      <trkpt lat="44.28656" lon="2.77357">
        <ele>844.66</ele>
        <time>2025-09-16T12:57:43Z</time>
      </trkpt>
      <trkpt lat="44.28653" lon="2.77321">
        <ele>842.25</ele>
        <time>2025-09-16T12:58:00Z</time>
      </trkpt>
      <trkpt lat="44.2865" lon="2.77284">
        <ele>840.33</ele>
        <time>2025-09-16T12:58:18Z</time>
      </trkpt>
      <trkpt lat="44.28643" lon="2.77245">
        <ele>840.81</ele>
        <time>2025-09-16T12:58:35Z</time>
      </trkpt>
      <trkpt lat="44.28638" lon="2.77211">
        <ele>839.37</ele>
        <time>2025-09-16T12:58:51Z</time>
      </trkpt>
      <trkpt lat="44.28638" lon="2.77209">
        <ele>838.89</ele>
        <time>2025-09-16T12:58:53Z</time>
      </trkpt>
      <trkpt lat="44.28625" lon="2.77182">
        <ele>835.52</ele>
        <time>2025-09-16T12:59:11Z</time>
      </trkpt>
      <trkpt lat="44.28616" lon="2.77166">
        <ele>833.12</ele>
        <time>2025-09-16T12:59:24Z</time>
      </trkpt>
      <trkpt lat="44.28607" lon="2.77141">
        <ele>833.12</ele>
        <time>2025-09-16T12:59:40Z</time>
      </trkpt>
      <trkpt lat="44.28603" lon="2.77135">
        <ele>833.6</ele>
        <time>2025-09-16T12:59:46Z</time>
      </trkpt>
      <trkpt lat="44.28585" lon="2.77114">
        <ele>839.37</ele>
        <time>2025-09-16T13:00:02Z</time>
      </trkpt>
      <trkpt lat="44.28568" lon="2.77096">
        <ele>844.18</ele>
        <time>2025-09-16T13:00:16Z</time>
      </trkpt>
      <trkpt lat="44.28546" lon="2.77086">
        <ele>848.5</ele>
        <time>2025-09-16T13:00:30Z</time>
      </trkpt>
      <trkpt lat="44.2853" lon="2.77075">
        <ele>853.31</ele>
        <time>2025-09-16T13:00:42Z</time>
      </trkpt>
      <trkpt lat="44.28515" lon="2.77052">
        <ele>850.9</ele>
        <time>2025-09-16T13:00:57Z</time>
      </trkpt>
      <trkpt lat="44.28505" lon="2.77022">
        <ele>849.94</ele>
        <time>2025-09-16T13:01:11Z</time>
      </trkpt>
      <trkpt lat="44.28494" lon="2.77001">
        <ele>850.9</ele>
        <time>2025-09-16T13:01:24Z</time>
      </trkpt>
      <trkpt lat="44.28485" lon="2.76978">
        <ele>848.5</ele>
        <time>2025-09-16T13:01:39Z</time>
      </trkpt>
      <trkpt lat="44.28475" lon="2.76951">
        <ele>848.02</ele>
        <time>2025-09-16T13:01:54Z</time>
      </trkpt>
      <trkpt lat="44.28469" lon="2.76934">
        <ele>846.1</ele>
        <time>2025-09-16T13:02:03Z</time>
      </trkpt>
      <trkpt lat="44.2846" lon="2.7691">
        <ele>841.77</ele>
        <time>2025-09-16T13:02:18Z</time>
      </trkpt>
      <trkpt lat="44.28451" lon="2.76894">
        <ele>838.89</ele>
        <time>2025-09-16T13:02:32Z</time>
      </trkpt>
      <trkpt lat="44.28451" lon="2.76893">
        <ele>838.89</ele>
        <time>2025-09-16T13:02:33Z</time>
      </trkpt>
      <trkpt lat="44.2844" lon="2.76858">
        <ele>837.45</ele>
        <time>2025-09-16T13:02:49Z</time>
      </trkpt>
      <trkpt lat="44.28427" lon="2.76825">
        <ele>831.68</ele>
        <time>2025-09-16T13:03:03Z</time>
      </trkpt>
      <trkpt lat="44.28428" lon="2.76813">
        <ele>830.72</ele>
        <time>2025-09-16T13:03:08Z</time>
      </trkpt>
      <trkpt lat="44.28445" lon="2.76791">
        <ele>830.72</ele>
        <time>2025-09-16T13:03:24Z</time>
      </trkpt>
      <trkpt lat="44.28468" lon="2.7678">
        <ele>827.35</ele>
        <time>2025-09-16T13:03:40Z</time>
      </trkpt>
      <trkpt lat="44.28486" lon="2.76757">
        <ele>822.06</ele>
        <time>2025-09-16T13:03:56Z</time>
      </trkpt>
      <trkpt lat="44.28506" lon="2.76734">
        <ele>816.3</ele>
        <time>2025-09-16T13:04:13Z</time>
      </trkpt>
      <trkpt lat="44.28525" lon="2.76729">
        <ele>811.01</ele>
        <time>2025-09-16T13:04:26Z</time>
      </trkpt>
      <trkpt lat="44.28548" lon="2.76723">
        <ele>805.72</ele>
        <time>2025-09-16T13:04:41Z</time>
      </trkpt>
      <trkpt lat="44.28566" lon="2.76716">
        <ele>803.32</ele>
        <time>2025-09-16T13:04:55Z</time>
      </trkpt>
      <trkpt lat="44.28571" lon="2.76716">
        <ele>802.84</ele>
        <time>2025-09-16T13:05:15Z</time>
      </trkpt>
      <trkpt lat="44.28574" lon="2.76716">
        <ele>802.36</ele>
        <time>2025-09-16T13:05:17Z</time>
      </trkpt>
      <trkpt lat="44.28599" lon="2.76716">
        <ele>800.92</ele>
        <time>2025-09-16T13:05:35Z</time>
      </trkpt>
      <trkpt lat="44.28624" lon="2.76716">
        <ele>800.92</ele>
        <time>2025-09-16T13:05:51Z</time>
      </trkpt>
      <trkpt lat="44.28643" lon="2.76702">
        <ele>802.36</ele>
        <time>2025-09-16T13:06:06Z</time>
      </trkpt>
      <trkpt lat="44.28659" lon="2.76682">
        <ele>805.24</ele>
        <time>2025-09-16T13:06:23Z</time>
      </trkpt>
      <trkpt lat="44.28674" lon="2.76663">
        <ele>806.68</ele>
        <time>2025-09-16T13:06:39Z</time>
      </trkpt>
      <trkpt lat="44.28688" lon="2.76636">
        <ele>808.13</ele>
        <time>2025-09-16T13:06:55Z</time>
      </trkpt>
      <trkpt lat="44.28707" lon="2.76604">
        <ele>810.05</ele>
        <time>2025-09-16T13:07:12Z</time>
      </trkpt>
      <trkpt lat="44.28721" lon="2.76581">
        <ele>812.45</ele>
        <time>2025-09-16T13:07:27Z</time>
      </trkpt>
      <trkpt lat="44.28723" lon="2.76548">
        <ele>812.93</ele>
        <time>2025-09-16T13:07:43Z</time>
      </trkpt>
      <trkpt lat="44.2872" lon="2.76519">
        <ele>810.53</ele>
        <time>2025-09-16T13:07:59Z</time>
      </trkpt>
      <trkpt lat="44.28717" lon="2.76487">
        <ele>810.05</ele>
        <time>2025-09-16T13:08:14Z</time>
      </trkpt>
      <trkpt lat="44.28709" lon="2.76454">
        <ele>808.61</ele>
        <time>2025-09-16T13:08:31Z</time>
      </trkpt>
      <trkpt lat="44.28703" lon="2.76419">
        <ele>808.61</ele>
        <time>2025-09-16T13:08:49Z</time>
      </trkpt>
      <trkpt lat="44.28698" lon="2.76387">
        <ele>809.57</ele>
        <time>2025-09-16T13:09:04Z</time>
      </trkpt>
      <trkpt lat="44.28698" lon="2.76377">
        <ele>810.05</ele>
        <time>2025-09-16T13:09:09Z</time>
      </trkpt>
      <trkpt lat="44.28698" lon="2.76375">
        <ele>810.05</ele>
        <time>2025-09-16T13:09:10Z</time>
      </trkpt>
      <trkpt lat="44.28698" lon="2.76373">
        <ele>810.05</ele>
        <time>2025-09-16T13:09:11Z</time>
      </trkpt>
      <trkpt lat="44.28702" lon="2.76329">
        <ele>811.01</ele>
        <time>2025-09-16T13:09:31Z</time>
      </trkpt>
      <trkpt lat="44.2871" lon="2.76296">
        <ele>812.93</ele>
        <time>2025-09-16T13:09:46Z</time>
      </trkpt>
      <trkpt lat="44.28719" lon="2.76268">
        <ele>813.41</ele>
        <time>2025-09-16T13:10:00Z</time>
      </trkpt>
      <trkpt lat="44.28726" lon="2.76233">
        <ele>812.93</ele>
        <time>2025-09-16T13:10:17Z</time>
      </trkpt>
      <trkpt lat="44.28728" lon="2.76191">
        <ele>811.49</ele>
        <time>2025-09-16T13:10:37Z</time>
      </trkpt>
      <trkpt lat="44.2873" lon="2.76154">
        <ele>810.53</ele>
        <time>2025-09-16T13:10:57Z</time>
      </trkpt>
      <trkpt lat="44.28731" lon="2.76119">
        <ele>809.57</ele>
        <time>2025-09-16T13:11:16Z</time>
      </trkpt>
      <trkpt lat="44.28733" lon="2.76082">
        <ele>810.05</ele>
        <time>2025-09-16T13:11:35Z</time>
      </trkpt>
      <trkpt lat="44.28734" lon="2.76075">
        <ele>809.57</ele>
        <time>2025-09-16T13:11:40Z</time>
      </trkpt>
      <trkpt lat="44.28734" lon="2.76073">
        <ele>809.57</ele>
        <time>2025-09-16T13:11:41Z</time>
      </trkpt>
      <trkpt lat="44.28734" lon="2.76072">
        <ele>809.57</ele>
        <time>2025-09-16T13:11:42Z</time>
      </trkpt>
      <trkpt lat="44.28735" lon="2.7607">
        <ele>809.57</ele>
        <time>2025-09-16T13:11:43Z</time>
      </trkpt>
      <trkpt lat="44.28735" lon="2.76068">
        <ele>809.57</ele>
        <time>2025-09-16T13:11:44Z</time>
      </trkpt>
      <trkpt lat="44.28735" lon="2.76066">
        <ele>809.57</ele>
        <time>2025-09-16T13:11:45Z</time>
      </trkpt>
      <trkpt lat="44.28736" lon="2.76035">
        <ele>808.61</ele>
        <time>2025-09-16T13:12:01Z</time>
      </trkpt>
      <trkpt lat="44.28738" lon="2.75996">
        <ele>806.68</ele>
        <time>2025-09-16T13:12:20Z</time>
      </trkpt>
      <trkpt lat="44.28743" lon="2.75955">
        <ele>802.36</ele>
        <time>2025-09-16T13:12:39Z</time>
      </trkpt>
      <trkpt lat="44.2875" lon="2.75914">
        <ele>801.88</ele>
        <time>2025-09-16T13:13:00Z</time>
      </trkpt>
      <trkpt lat="44.28755" lon="2.75879">
        <ele>801.4</ele>
        <time>2025-09-16T13:13:19Z</time>
      </trkpt>
      <trkpt lat="44.28755" lon="2.75839">
        <ele>800.44</ele>
        <time>2025-09-16T13:13:39Z</time>
      </trkpt>
      <trkpt lat="44.28753" lon="2.75805">
        <ele>799.47</ele>
        <time>2025-09-16T13:13:57Z</time>
      </trkpt>
      <trkpt lat="44.28749" lon="2.75773">
        <ele>799.47</ele>
        <time>2025-09-16T13:14:14Z</time>
      </trkpt>
      <trkpt lat="44.28743" lon="2.75739">
        <ele>799.95</ele>
        <time>2025-09-16T13:14:33Z</time>
      </trkpt>
      <trkpt lat="44.28738" lon="2.75704">
        <ele>799.95</ele>
        <time>2025-09-16T13:14:52Z</time>
      </trkpt>
      <trkpt lat="44.28738" lon="2.75699">
        <ele>799.95</ele>
        <time>2025-09-16T13:14:55Z</time>
      </trkpt>
      <trkpt lat="44.28738" lon="2.75697">
        <ele>799.47</ele>
        <time>2025-09-16T13:14:56Z</time>
      </trkpt>
      <trkpt lat="44.28737" lon="2.75695">
        <ele>799.47</ele>
        <time>2025-09-16T13:14:57Z</time>
      </trkpt>
      <trkpt lat="44.28737" lon="2.75694">
        <ele>799.47</ele>
        <time>2025-09-16T13:14:58Z</time>
      </trkpt>
      <trkpt lat="44.28736" lon="2.75692">
        <ele>799.47</ele>
        <time>2025-09-16T13:14:59Z</time>
      </trkpt>
      <trkpt lat="44.28728" lon="2.75667">
        <ele>798.99</ele>
        <time>2025-09-16T13:15:15Z</time>
      </trkpt>
      <trkpt lat="44.28718" lon="2.75643">
        <ele>797.07</ele>
        <time>2025-09-16T13:15:31Z</time>
      </trkpt>
      <trkpt lat="44.28717" lon="2.7564">
        <ele>797.07</ele>
        <time>2025-09-16T13:15:33Z</time>
      </trkpt>
      <trkpt lat="44.28716" lon="2.75637">
        <ele>796.59</ele>
        <time>2025-09-16T13:15:35Z</time>
      </trkpt>
      <trkpt lat="44.28715" lon="2.75635">
        <ele>796.59</ele>
        <time>2025-09-16T13:15:36Z</time>
      </trkpt>
      <trkpt lat="44.28712" lon="2.75628">
        <ele>796.59</ele>
        <time>2025-09-16T13:15:42Z</time>
      </trkpt>
      <trkpt lat="44.28711" lon="2.75627">
        <ele>796.59</ele>
        <time>2025-09-16T13:15:43Z</time>
      </trkpt>
      <trkpt lat="44.28702" lon="2.75609">
        <ele>799.47</ele>
        <time>2025-09-16T13:15:57Z</time>
      </trkpt>
      <trkpt lat="44.28688" lon="2.75592">
        <ele>801.88</ele>
        <time>2025-09-16T13:16:12Z</time>
      </trkpt>
      <trkpt lat="44.28677" lon="2.75578">
        <ele>806.2</ele>
        <time>2025-09-16T13:16:26Z</time>
      </trkpt>
      <trkpt lat="44.28672" lon="2.75571">
        <ele>806.68</ele>
        <time>2025-09-16T13:16:31Z</time>
      </trkpt>
      <trkpt lat="44.28668" lon="2.75564">
        <ele>808.13</ele>
        <time>2025-09-16T13:16:37Z</time>
      </trkpt>
      <trkpt lat="44.28667" lon="2.75563">
        <ele>808.61</ele>
        <time>2025-09-16T13:16:38Z</time>
      </trkpt>
      <trkpt lat="44.28666" lon="2.75562">
        <ele>808.61</ele>
        <time>2025-09-16T13:16:39Z</time>
      </trkpt>
      <trkpt lat="44.28665" lon="2.75561">
        <ele>808.61</ele>
        <time>2025-09-16T13:16:40Z</time>
      </trkpt>
      <trkpt lat="44.28664" lon="2.75559">
        <ele>808.61</ele>
        <time>2025-09-16T13:16:41Z</time>
      </trkpt>
      <trkpt lat="44.28648" lon="2.75541">
        <ele>811.97</ele>
        <time>2025-09-16T13:16:57Z</time>
      </trkpt>
      <trkpt lat="44.28636" lon="2.75523">
        <ele>814.37</ele>
        <time>2025-09-16T13:17:11Z</time>
      </trkpt>
      <trkpt lat="44.28635" lon="2.75521">
        <ele>814.85</ele>
        <time>2025-09-16T13:17:12Z</time>
      </trkpt>
      <trkpt lat="44.28625" lon="2.75505">
        <ele>813.89</ele>
        <time>2025-09-16T13:17:25Z</time>
      </trkpt>
      <trkpt lat="44.28622" lon="2.75501">
        <ele>813.89</ele>
        <time>2025-09-16T13:17:28Z</time>
      </trkpt>
      <trkpt lat="44.2861" lon="2.75478">
        <ele>813.41</ele>
        <time>2025-09-16T13:17:42Z</time>
      </trkpt>
      <trkpt lat="44.28609" lon="2.75477">
        <ele>813.41</ele>
        <time>2025-09-16T13:17:43Z</time>
      </trkpt>
      <trkpt lat="44.28608" lon="2.75476">
        <ele>813.41</ele>
        <time>2025-09-16T13:17:44Z</time>
      </trkpt>
      <trkpt lat="44.28596" lon="2.75455">
        <ele>810.05</ele>
        <time>2025-09-16T13:17:58Z</time>
      </trkpt>
      <trkpt lat="44.28586" lon="2.75431">
        <ele>803.8</ele>
        <time>2025-09-16T13:18:10Z</time>
      </trkpt>
      <trkpt lat="44.28586" lon="2.75413">
        <ele>795.15</ele>
        <time>2025-09-16T13:18:13Z</time>
      </trkpt>
      <trkpt lat="44.28583" lon="2.75409">
        <ele>793.71</ele>
        <time>2025-09-16T13:18:17Z</time>
      </trkpt>
      <trkpt lat="44.28582" lon="2.75408">
        <ele>793.22</ele>
        <time>2025-09-16T13:18:18Z</time>
      </trkpt>
      <trkpt lat="44.2858" lon="2.75407">
        <ele>792.74</ele>
        <time>2025-09-16T13:18:19Z</time>
      </trkpt>
      <trkpt lat="44.28566" lon="2.75385">
        <ele>785.53</ele>
        <time>2025-09-16T13:18:34Z</time>
      </trkpt>
      <trkpt lat="44.28565" lon="2.75383">
        <ele>785.05</ele>
        <time>2025-09-16T13:18:36Z</time>
      </trkpt>
      <trkpt lat="44.28563" lon="2.75382">
        <ele>784.57</ele>
        <time>2025-09-16T13:18:37Z</time>
      </trkpt>
      <trkpt lat="44.28562" lon="2.75381">
        <ele>784.57</ele>
        <time>2025-09-16T13:18:38Z</time>
      </trkpt>
      <trkpt lat="44.28562" lon="2.7538">
        <ele>784.57</ele>
        <time>2025-09-16T13:18:39Z</time>
      </trkpt>
      <trkpt lat="44.28561" lon="2.75378">
        <ele>784.09</ele>
        <time>2025-09-16T13:18:40Z</time>
      </trkpt>
      <trkpt lat="44.2856" lon="2.75376">
        <ele>783.61</ele>
        <time>2025-09-16T13:18:41Z</time>
      </trkpt>
      <trkpt lat="44.28548" lon="2.75351">
        <ele>777.84</ele>
        <time>2025-09-16T13:18:55Z</time>
      </trkpt>
      <trkpt lat="44.28537" lon="2.75328">
        <ele>775.44</ele>
        <time>2025-09-16T13:19:09Z</time>
      </trkpt>
      <trkpt lat="44.28525" lon="2.75303">
        <ele>768.23</ele>
        <time>2025-09-16T13:19:25Z</time>
      </trkpt>
      <trkpt lat="44.28512" lon="2.75278">
        <ele>762.94</ele>
        <time>2025-09-16T13:19:42Z</time>
      </trkpt>
      <trkpt lat="44.28502" lon="2.75258">
        <ele>761.98</ele>
        <time>2025-09-16T13:19:57Z</time>
      </trkpt>
      <trkpt lat="44.285" lon="2.75254">
        <ele>761.98</ele>
        <time>2025-09-16T13:20:00Z</time>
      </trkpt>
      <trkpt lat="44.28497" lon="2.75251">
        <ele>762.46</ele>
        <time>2025-09-16T13:20:04Z</time>
      </trkpt>
      <trkpt lat="44.28496" lon="2.7525">
        <ele>762.46</ele>
        <time>2025-09-16T13:20:05Z</time>
      </trkpt>
      <trkpt lat="44.28495" lon="2.75248">
        <ele>762.46</ele>
        <time>2025-09-16T13:20:06Z</time>
      </trkpt>
      <trkpt lat="44.28483" lon="2.75226">
        <ele>761.98</ele>
        <time>2025-09-16T13:20:21Z</time>
      </trkpt>
      <trkpt lat="44.28482" lon="2.75225">
        <ele>761.98</ele>
        <time>2025-09-16T13:20:22Z</time>
      </trkpt>
      <trkpt lat="44.28481" lon="2.75224">
        <ele>761.5</ele>
        <time>2025-09-16T13:20:23Z</time>
      </trkpt>
      <trkpt lat="44.28465" lon="2.75203">
        <ele>758.14</ele>
        <time>2025-09-16T13:20:39Z</time>
      </trkpt>
      <trkpt lat="44.28456" lon="2.75201">
        <ele>757.18</ele>
        <time>2025-09-16T13:20:46Z</time>
      </trkpt>
      <trkpt lat="44.28455" lon="2.752">
        <ele>757.18</ele>
        <time>2025-09-16T13:20:47Z</time>
      </trkpt>
      <trkpt lat="44.28447" lon="2.7517">
        <ele>749.97</ele>
        <time>2025-09-16T13:21:02Z</time>
      </trkpt>
      <trkpt lat="44.2844" lon="2.75137">
        <ele>748.04</ele>
        <time>2025-09-16T13:21:20Z</time>
      </trkpt>
      <trkpt lat="44.28434" lon="2.75122">
        <ele>748.04</ele>
        <time>2025-09-16T13:21:31Z</time>
      </trkpt>
      <trkpt lat="44.28423" lon="2.75113">
        <ele>752.37</ele>
        <time>2025-09-16T13:21:43Z</time>
      </trkpt>
      <trkpt lat="44.28411" lon="2.75103">
        <ele>762.46</ele>
        <time>2025-09-16T13:21:57Z</time>
      </trkpt>
      <trkpt lat="44.28397" lon="2.75085">
        <ele>767.75</ele>
        <time>2025-09-16T13:22:12Z</time>
      </trkpt>
      <trkpt lat="44.28396" lon="2.7508">
        <ele>767.75</ele>
        <time>2025-09-16T13:22:14Z</time>
      </trkpt>
      <trkpt lat="44.28385" lon="2.75058">
        <ele>769.67</ele>
        <time>2025-09-16T13:22:29Z</time>
      </trkpt>
      <trkpt lat="44.28375" lon="2.75044">
        <ele>772.56</ele>
        <time>2025-09-16T13:22:41Z</time>
      </trkpt>
      <trkpt lat="44.28375" lon="2.75041">
        <ele>772.08</ele>
        <time>2025-09-16T13:22:42Z</time>
      </trkpt>
      <trkpt lat="44.28361" lon="2.7502">
        <ele>771.11</ele>
        <time>2025-09-16T13:22:57Z</time>
      </trkpt>
      <trkpt lat="44.28351" lon="2.74992">
        <ele>767.27</ele>
        <time>2025-09-16T13:23:13Z</time>
      </trkpt>
      <trkpt lat="44.2835" lon="2.74989">
        <ele>766.79</ele>
        <time>2025-09-16T13:23:14Z</time>
      </trkpt>
      <trkpt lat="44.28348" lon="2.74937">
        <ele>756.69</ele>
        <time>2025-09-16T13:23:30Z</time>
      </trkpt>
      <trkpt lat="44.28359" lon="2.74907">
        <ele>747.56</ele>
        <time>2025-09-16T13:23:46Z</time>
      </trkpt>
      <trkpt lat="44.28377" lon="2.74891">
        <ele>743.24</ele>
        <time>2025-09-16T13:24:03Z</time>
      </trkpt>
      <trkpt lat="44.28386" lon="2.74866">
        <ele>741.31</ele>
        <time>2025-09-16T13:24:19Z</time>
      </trkpt>
      <trkpt lat="44.28385" lon="2.74826">
        <ele>742.28</ele>
        <time>2025-09-16T13:24:38Z</time>
      </trkpt>
      <trkpt lat="44.28375" lon="2.74806">
        <ele>745.64</ele>
        <time>2025-09-16T13:24:52Z</time>
      </trkpt>
      <trkpt lat="44.28359" lon="2.74788">
        <ele>748.52</ele>
        <time>2025-09-16T13:25:08Z</time>
      </trkpt>
      <trkpt lat="44.28346" lon="2.74784">
        <ele>746.6</ele>
        <time>2025-09-16T13:25:23Z</time>
      </trkpt>
      <trkpt lat="44.28326" lon="2.74764">
        <ele>742.76</ele>
        <time>2025-09-16T13:25:40Z</time>
      </trkpt>
      <trkpt lat="44.28314" lon="2.74754">
        <ele>741.31</ele>
        <time>2025-09-16T13:25:54Z</time>
      </trkpt>
      <trkpt lat="44.28313" lon="2.74757">
        <ele>741.31</ele>
        <time>2025-09-16T13:25:59Z</time>
      </trkpt>
      <trkpt lat="44.28312" lon="2.74758">
        <ele>741.79</ele>
        <time>2025-09-16T13:26:00Z</time>
      </trkpt>
      <trkpt lat="44.28311" lon="2.7476">
        <ele>741.79</ele>
        <time>2025-09-16T13:26:01Z</time>
      </trkpt>
      <trkpt lat="44.28309" lon="2.74761">
        <ele>741.79</ele>
        <time>2025-09-16T13:26:02Z</time>
      </trkpt>
      <trkpt lat="44.28308" lon="2.74762">
        <ele>741.79</ele>
        <time>2025-09-16T13:26:03Z</time>
      </trkpt>
      <trkpt lat="44.28307" lon="2.74763">
        <ele>741.79</ele>
        <time>2025-09-16T13:26:04Z</time>
      </trkpt>
      <trkpt lat="44.28306" lon="2.74763">
        <ele>741.79</ele>
        <time>2025-09-16T13:26:05Z</time>
      </trkpt>
      <trkpt lat="44.28305" lon="2.74763">
        <ele>741.79</ele>
        <time>2025-09-16T13:26:06Z</time>
      </trkpt>
      <trkpt lat="44.28282" lon="2.74763">
        <ele>739.39</ele>
        <time>2025-09-16T13:26:22Z</time>
      </trkpt>
      <trkpt lat="44.28279" lon="2.7476">
        <ele>738.91</ele>
        <time>2025-09-16T13:26:25Z</time>
      </trkpt>
      <trkpt lat="44.28275" lon="2.7473">
        <ele>737.95</ele>
        <time>2025-09-16T13:26:40Z</time>
      </trkpt>
      <trkpt lat="44.2828" lon="2.74701">
        <ele>736.51</ele>
        <time>2025-09-16T13:26:54Z</time>
      </trkpt>
      <trkpt lat="44.28291" lon="2.7467">
        <ele>736.99</ele>
        <time>2025-09-16T13:27:11Z</time>
      </trkpt>
      <trkpt lat="44.28299" lon="2.74632">
        <ele>736.99</ele>
        <time>2025-09-16T13:27:31Z</time>
      </trkpt>
      <trkpt lat="44.283" lon="2.74628">
        <ele>736.99</ele>
        <time>2025-09-16T13:27:48Z</time>
      </trkpt>
      <trkpt lat="44.28299" lon="2.74629">
        <ele>735.55</ele>
        <time>2025-09-16T13:28:10Z</time>
      </trkpt>
      <trkpt lat="44.28299" lon="2.7463">
        <ele>736.99</ele>
        <time>2025-09-16T13:28:38Z</time>
      </trkpt>
      <trkpt lat="44.28299" lon="2.74631">
        <ele>737.47</ele>
        <time>2025-09-16T13:28:39Z</time>
      </trkpt>
      <trkpt lat="44.28298" lon="2.74633">
        <ele>737.47</ele>
        <time>2025-09-16T13:28:40Z</time>
      </trkpt>
      <trkpt lat="44.28298" lon="2.74634">
        <ele>737.47</ele>
        <time>2025-09-16T13:28:41Z</time>
      </trkpt>
      <trkpt lat="44.28295" lon="2.74651">
        <ele>736.99</ele>
        <time>2025-09-16T13:28:55Z</time>
      </trkpt>
      <trkpt lat="44.28295" lon="2.74653">
        <ele>737.95</ele>
        <time>2025-09-16T13:29:10Z</time>
      </trkpt>
      <trkpt lat="44.28293" lon="2.74666">
        <ele>739.87</ele>
        <time>2025-09-16T13:29:24Z</time>
      </trkpt>
      <trkpt lat="44.28284" lon="2.7469">
        <ele>739.87</ele>
        <time>2025-09-16T13:29:40Z</time>
      </trkpt>
      <trkpt lat="44.28277" lon="2.74715">
        <ele>738.91</ele>
        <time>2025-09-16T13:29:54Z</time>
      </trkpt>
      <trkpt lat="44.28276" lon="2.74718">
        <ele>738.91</ele>
        <time>2025-09-16T13:29:56Z</time>
      </trkpt>
      <trkpt lat="44.28276" lon="2.74721">
        <ele>738.43</ele>
        <time>2025-09-16T13:29:57Z</time>
      </trkpt>
      <trkpt lat="44.28276" lon="2.74723">
        <ele>738.43</ele>
        <time>2025-09-16T13:29:58Z</time>
      </trkpt>
      <trkpt lat="44.28276" lon="2.74727">
        <ele>738.43</ele>
        <time>2025-09-16T13:30:00Z</time>
      </trkpt>
      <trkpt lat="44.28275" lon="2.74728">
        <ele>738.43</ele>
        <time>2025-09-16T13:30:01Z</time>
      </trkpt>
      <trkpt lat="44.28272" lon="2.74728">
        <ele>738.43</ele>
        <time>2025-09-16T13:30:05Z</time>
      </trkpt>
      <trkpt lat="44.28271" lon="2.74726">
        <ele>737.95</ele>
        <time>2025-09-16T13:30:06Z</time>
      </trkpt>
      <trkpt lat="44.28271" lon="2.74722">
        <ele>737.47</ele>
        <time>2025-09-16T13:30:09Z</time>
      </trkpt>
      <trkpt lat="44.2827" lon="2.74719">
        <ele>736.99</ele>
        <time>2025-09-16T13:30:11Z</time>
      </trkpt>
      <trkpt lat="44.28265" lon="2.74712">
        <ele>735.55</ele>
        <time>2025-09-16T13:30:19Z</time>
      </trkpt>
      <trkpt lat="44.28262" lon="2.74716">
        <ele>734.1</ele>
        <time>2025-09-16T13:30:26Z</time>
      </trkpt>
      <trkpt lat="44.28262" lon="2.74717">
        <ele>734.1</ele>
        <time>2025-09-16T13:30:27Z</time>
      </trkpt>
      <trkpt lat="44.28262" lon="2.74718">
        <ele>734.1</ele>
        <time>2025-09-16T13:30:28Z</time>
      </trkpt>
      <trkpt lat="44.2826" lon="2.74725">
        <ele>732.66</ele>
        <time>2025-09-16T13:30:34Z</time>
      </trkpt>
      <trkpt lat="44.28261" lon="2.74727">
        <ele>732.66</ele>
        <time>2025-09-16T13:30:35Z</time>
      </trkpt>
      <trkpt lat="44.28261" lon="2.74729">
        <ele>732.18</ele>
        <time>2025-09-16T13:30:36Z</time>
      </trkpt>
      <trkpt lat="44.2826" lon="2.74731">
        <ele>732.18</ele>
        <time>2025-09-16T13:30:37Z</time>
      </trkpt>
      <trkpt lat="44.2826" lon="2.74733">
        <ele>732.18</ele>
        <time>2025-09-16T13:30:38Z</time>
      </trkpt>
      <trkpt lat="44.28259" lon="2.74735">
        <ele>732.66</ele>
        <time>2025-09-16T13:30:39Z</time>
      </trkpt>
      <trkpt lat="44.28258" lon="2.74738">
        <ele>732.18</ele>
        <time>2025-09-16T13:30:40Z</time>
      </trkpt>
      <trkpt lat="44.28244" lon="2.74756">
        <ele>731.7</ele>
        <time>2025-09-16T13:30:51Z</time>
      </trkpt>
      <trkpt lat="44.28235" lon="2.74767">
        <ele>728.34</ele>
        <time>2025-09-16T13:31:00Z</time>
      </trkpt>
      <trkpt lat="44.2823" lon="2.7477">
        <ele>726.89</ele>
        <time>2025-09-16T13:31:04Z</time>
      </trkpt>
      <trkpt lat="44.28229" lon="2.7477">
        <ele>726.89</ele>
        <time>2025-09-16T13:31:05Z</time>
      </trkpt>
      <trkpt lat="44.28227" lon="2.7477">
        <ele>726.41</ele>
        <time>2025-09-16T13:31:06Z</time>
      </trkpt>
      <trkpt lat="44.2822" lon="2.74769">
        <ele>726.41</ele>
        <time>2025-09-16T13:31:11Z</time>
      </trkpt>
      <trkpt lat="44.28218" lon="2.74768">
        <ele>726.41</ele>
        <time>2025-09-16T13:31:12Z</time>
      </trkpt>
      <trkpt lat="44.28199" lon="2.74762">
        <ele>726.89</ele>
        <time>2025-09-16T13:31:25Z</time>
      </trkpt>
      <trkpt lat="44.28185" lon="2.74755">
        <ele>730.26</ele>
        <time>2025-09-16T13:31:42Z</time>
      </trkpt>
      <trkpt lat="44.28179" lon="2.74754">
        <ele>730.74</ele>
        <time>2025-09-16T13:31:46Z</time>
      </trkpt>
      <trkpt lat="44.28171" lon="2.74747">
        <ele>731.22</ele>
        <time>2025-09-16T13:31:52Z</time>
      </trkpt>
      <trkpt lat="44.28169" lon="2.74743">
        <ele>731.7</ele>
        <time>2025-09-16T13:31:53Z</time>
      </trkpt>
      <trkpt lat="44.28155" lon="2.74734">
        <ele>725.45</ele>
        <time>2025-09-16T13:32:10Z</time>
      </trkpt>
      <trkpt lat="44.28152" lon="2.74727">
        <ele>723.05</ele>
        <time>2025-09-16T13:32:25Z</time>
      </trkpt>
      <trkpt lat="44.28151" lon="2.74725">
        <ele>722.57</ele>
        <time>2025-09-16T13:32:46Z</time>
      </trkpt>
      <trkpt lat="44.28147" lon="2.7472">
        <ele>723.53</ele>
        <time>2025-09-16T13:33:01Z</time>
      </trkpt>
      <trkpt lat="44.28138" lon="2.7469">
        <ele>724.97</ele>
        <time>2025-09-16T13:33:18Z</time>
      </trkpt>
      <trkpt lat="44.28127" lon="2.74665">
        <ele>724.49</ele>
        <time>2025-09-16T13:33:32Z</time>
      </trkpt>
      <trkpt lat="44.28118" lon="2.74632">
        <ele>723.05</ele>
        <time>2025-09-16T13:33:49Z</time>
      </trkpt>
      <trkpt lat="44.28111" lon="2.7461">
        <ele>723.53</ele>
        <time>2025-09-16T13:34:03Z</time>
      </trkpt>
      <trkpt lat="44.28101" lon="2.74582">
        <ele>723.05</ele>
        <time>2025-09-16T13:34:17Z</time>
      </trkpt>
      <trkpt lat="44.28103" lon="2.7455">
        <ele>721.61</ele>
        <time>2025-09-16T13:34:30Z</time>
      </trkpt>
      <trkpt lat="44.28091" lon="2.74523">
        <ele>721.61</ele>
        <time>2025-09-16T13:34:45Z</time>
      </trkpt>
      <trkpt lat="44.28089" lon="2.74486">
        <ele>721.13</ele>
        <time>2025-09-16T13:35:00Z</time>
      </trkpt>
      <trkpt lat="44.28084" lon="2.74457">
        <ele>721.61</ele>
        <time>2025-09-16T13:35:15Z</time>
      </trkpt>
      <trkpt lat="44.2808" lon="2.74423">
        <ele>721.13</ele>
        <time>2025-09-16T13:35:32Z</time>
      </trkpt>
      <trkpt lat="44.28074" lon="2.7439">
        <ele>722.09</ele>
        <time>2025-09-16T13:35:48Z</time>
      </trkpt>
      <trkpt lat="44.28077" lon="2.74381">
        <ele>723.05</ele>
        <time>2025-09-16T13:35:54Z</time>
      </trkpt>
      <trkpt lat="44.28089" lon="2.74347">
        <ele>724.01</ele>
        <time>2025-09-16T13:36:10Z</time>
      </trkpt>
      <trkpt lat="44.28094" lon="2.74315">
        <ele>724.01</ele>
        <time>2025-09-16T13:36:24Z</time>
      </trkpt>
      <trkpt lat="44.28098" lon="2.74286">
        <ele>721.61</ele>
        <time>2025-09-16T13:36:39Z</time>
      </trkpt>
      <trkpt lat="44.28088" lon="2.74251">
        <ele>721.61</ele>
        <time>2025-09-16T13:36:57Z</time>
      </trkpt>
      <trkpt lat="44.28076" lon="2.74231">
        <ele>723.53</ele>
        <time>2025-09-16T13:37:10Z</time>
      </trkpt>
      <trkpt lat="44.28063" lon="2.74211">
        <ele>724.97</ele>
        <time>2025-09-16T13:37:23Z</time>
      </trkpt>
      <trkpt lat="44.28061" lon="2.74208">
        <ele>725.93</ele>
        <time>2025-09-16T13:37:26Z</time>
      </trkpt>
      <trkpt lat="44.28045" lon="2.74184">
        <ele>727.37</ele>
        <time>2025-09-16T13:37:40Z</time>
      </trkpt>
      <trkpt lat="44.28027" lon="2.74172">
        <ele>726.89</ele>
        <time>2025-09-16T13:37:54Z</time>
      </trkpt>
      <trkpt lat="44.2802" lon="2.74162">
        <ele>724.97</ele>
        <time>2025-09-16T13:37:59Z</time>
      </trkpt>
      <trkpt lat="44.28019" lon="2.74158">
        <ele>724.49</ele>
        <time>2025-09-16T13:38:00Z</time>
      </trkpt>
      <trkpt lat="44.28018" lon="2.74156">
        <ele>724.49</ele>
        <time>2025-09-16T13:38:01Z</time>
      </trkpt>
      <trkpt lat="44.28018" lon="2.74154">
        <ele>724.01</ele>
        <time>2025-09-16T13:38:02Z</time>
      </trkpt>
      <trkpt lat="44.28018" lon="2.74151">
        <ele>724.01</ele>
        <time>2025-09-16T13:38:03Z</time>
      </trkpt>
      <trkpt lat="44.28018" lon="2.74149">
        <ele>723.53</ele>
        <time>2025-09-16T13:38:04Z</time>
      </trkpt>
      <trkpt lat="44.28018" lon="2.74147">
        <ele>723.53</ele>
        <time>2025-09-16T13:38:05Z</time>
      </trkpt>
      <trkpt lat="44.28026" lon="2.74113">
        <ele>722.57</ele>
        <time>2025-09-16T13:38:20Z</time>
      </trkpt>
      <trkpt lat="44.28023" lon="2.74077">
        <ele>721.13</ele>
        <time>2025-09-16T13:38:37Z</time>
      </trkpt>
      <trkpt lat="44.28006" lon="2.7405">
        <ele>722.09</ele>
        <time>2025-09-16T13:38:52Z</time>
      </trkpt>
      <trkpt lat="44.27986" lon="2.74025">
        <ele>721.61</ele>
        <time>2025-09-16T13:39:06Z</time>
      </trkpt>
      <trkpt lat="44.27972" lon="2.73994">
        <ele>718.72</ele>
        <time>2025-09-16T13:39:22Z</time>
      </trkpt>
      <trkpt lat="44.27975" lon="2.73962">
        <ele>719.2</ele>
        <time>2025-09-16T13:39:38Z</time>
      </trkpt>
      <trkpt lat="44.27997" lon="2.73952">
        <ele>721.13</ele>
        <time>2025-09-16T13:39:53Z</time>
      </trkpt>
      <trkpt lat="44.28018" lon="2.7395">
        <ele>722.09</ele>
        <time>2025-09-16T13:40:06Z</time>
      </trkpt>
      <trkpt lat="44.28041" lon="2.7396">
        <ele>723.53</ele>
        <time>2025-09-16T13:40:20Z</time>
      </trkpt>
      <trkpt lat="44.28057" lon="2.7398">
        <ele>722.57</ele>
        <time>2025-09-16T13:40:33Z</time>
      </trkpt>
      <trkpt lat="44.28058" lon="2.7398">
        <ele>722.57</ele>
        <time>2025-09-16T13:40:34Z</time>
      </trkpt>
      <trkpt lat="44.28059" lon="2.7398">
        <ele>722.57</ele>
        <time>2025-09-16T13:40:35Z</time>
      </trkpt>
      <trkpt lat="44.28064" lon="2.73977">
        <ele>723.53</ele>
        <time>2025-09-16T13:40:41Z</time>
      </trkpt>
      <trkpt lat="44.28068" lon="2.73973">
        <ele>722.57</ele>
        <time>2025-09-16T13:40:46Z</time>
      </trkpt>
      <trkpt lat="44.28069" lon="2.73971">
        <ele>722.57</ele>
        <time>2025-09-16T13:40:47Z</time>
      </trkpt>
      <trkpt lat="44.28069" lon="2.73969">
        <ele>723.05</ele>
        <time>2025-09-16T13:40:48Z</time>
      </trkpt>
      <trkpt lat="44.28069" lon="2.73967">
        <ele>723.05</ele>
        <time>2025-09-16T13:40:49Z</time>
      </trkpt>
      <trkpt lat="44.28069" lon="2.73965">
        <ele>723.05</ele>
        <time>2025-09-16T13:40:50Z</time>
      </trkpt>
      <trkpt lat="44.28056" lon="2.7394">
        <ele>724.01</ele>
        <time>2025-09-16T13:41:05Z</time>
      </trkpt>
      <trkpt lat="44.28041" lon="2.73916">
        <ele>725.93</ele>
        <time>2025-09-16T13:41:22Z</time>
      </trkpt>
      <trkpt lat="44.28021" lon="2.7389">
        <ele>728.34</ele>
        <time>2025-09-16T13:41:40Z</time>
      </trkpt>
      <trkpt lat="44.28013" lon="2.7388">
        <ele>729.3</ele>
        <time>2025-09-16T13:41:47Z</time>
      </trkpt>
      <trkpt lat="44.28012" lon="2.73879">
        <ele>729.3</ele>
        <time>2025-09-16T13:41:48Z</time>
      </trkpt>
      <trkpt lat="44.28011" lon="2.73878">
        <ele>729.3</ele>
        <time>2025-09-16T13:41:49Z</time>
      </trkpt>
      <trkpt lat="44.27996" lon="2.73861">
        <ele>731.7</ele>
        <time>2025-09-16T13:42:03Z</time>
      </trkpt>
      <trkpt lat="44.27979" lon="2.73843">
        <ele>735.55</ele>
        <time>2025-09-16T13:42:18Z</time>
      </trkpt>
      <trkpt lat="44.27964" lon="2.73825">
        <ele>741.31</ele>
        <time>2025-09-16T13:42:33Z</time>
      </trkpt>
      <trkpt lat="44.2795" lon="2.73797">
        <ele>742.28</ele>
        <time>2025-09-16T13:42:47Z</time>
      </trkpt>
      <trkpt lat="44.27929" lon="2.73785">
        <ele>740.35</ele>
        <time>2025-09-16T13:43:02Z</time>
      </trkpt>
      <trkpt lat="44.27907" lon="2.73779">
        <ele>736.51</ele>
        <time>2025-09-16T13:43:16Z</time>
      </trkpt>
      <trkpt lat="44.27881" lon="2.73772">
        <ele>735.55</ele>
        <time>2025-09-16T13:43:32Z</time>
      </trkpt>
      <trkpt lat="44.27851" lon="2.73768">
        <ele>735.55</ele>
        <time>2025-09-16T13:43:50Z</time>
      </trkpt>
      <trkpt lat="44.27829" lon="2.73769">
        <ele>735.55</ele>
        <time>2025-09-16T13:44:05Z</time>
      </trkpt>
      <trkpt lat="44.27805" lon="2.73771">
        <ele>736.99</ele>
        <time>2025-09-16T13:44:20Z</time>
      </trkpt>
      <trkpt lat="44.27783" lon="2.7377">
        <ele>737.95</ele>
        <time>2025-09-16T13:44:34Z</time>
      </trkpt>
      <trkpt lat="44.27759" lon="2.73767">
        <ele>747.56</ele>
        <time>2025-09-16T13:44:50Z</time>
      </trkpt>
      <trkpt lat="44.27751" lon="2.73759">
        <ele>748.04</ele>
        <time>2025-09-16T13:44:57Z</time>
      </trkpt>
      <trkpt lat="44.27751" lon="2.73757">
        <ele>748.04</ele>
        <time>2025-09-16T13:44:58Z</time>
      </trkpt>
      <trkpt lat="44.27752" lon="2.73755">
        <ele>748.04</ele>
        <time>2025-09-16T13:44:59Z</time>
      </trkpt>
      <trkpt lat="44.27752" lon="2.73753">
        <ele>748.04</ele>
        <time>2025-09-16T13:45:00Z</time>
      </trkpt>
      <trkpt lat="44.27753" lon="2.73751">
        <ele>748.04</ele>
        <time>2025-09-16T13:45:01Z</time>
      </trkpt>
      <trkpt lat="44.27755" lon="2.73749">
        <ele>747.56</ele>
        <time>2025-09-16T13:45:02Z</time>
      </trkpt>
      <trkpt lat="44.27767" lon="2.73727">
        <ele>745.64</ele>
        <time>2025-09-16T13:45:13Z</time>
      </trkpt>
      <trkpt lat="44.27782" lon="2.7371">
        <ele>745.16</ele>
        <time>2025-09-16T13:45:26Z</time>
      </trkpt>
      <trkpt lat="44.278" lon="2.73688">
        <ele>744.68</ele>
        <time>2025-09-16T13:45:39Z</time>
      </trkpt>
      <trkpt lat="44.27804" lon="2.73683">
        <ele>743.24</ele>
        <time>2025-09-16T13:45:43Z</time>
      </trkpt>
      <trkpt lat="44.2782" lon="2.73663">
        <ele>741.79</ele>
        <time>2025-09-16T13:45:56Z</time>
      </trkpt>
      <trkpt lat="44.2783" lon="2.73642">
        <ele>743.72</ele>
        <time>2025-09-16T13:46:09Z</time>
      </trkpt>
      <trkpt lat="44.27831" lon="2.73641">
        <ele>743.72</ele>
        <time>2025-09-16T13:46:10Z</time>
      </trkpt>
      <trkpt lat="44.27832" lon="2.7364">
        <ele>744.2</ele>
        <time>2025-09-16T13:46:11Z</time>
      </trkpt>
      <trkpt lat="44.27833" lon="2.73639">
        <ele>744.68</ele>
        <time>2025-09-16T13:46:12Z</time>
      </trkpt>
      <trkpt lat="44.27841" lon="2.73623">
        <ele>745.64</ele>
        <time>2025-09-16T13:46:21Z</time>
      </trkpt>
      <trkpt lat="44.27842" lon="2.73621">
        <ele>745.64</ele>
        <time>2025-09-16T13:46:22Z</time>
      </trkpt>
      <trkpt lat="44.27843" lon="2.73621">
        <ele>745.64</ele>
        <time>2025-09-16T13:46:23Z</time>
      </trkpt>
      <trkpt lat="44.27844" lon="2.73619">
        <ele>745.64</ele>
        <time>2025-09-16T13:46:24Z</time>
      </trkpt>
      <trkpt lat="44.27846" lon="2.73618">
        <ele>745.64</ele>
        <time>2025-09-16T13:46:25Z</time>
      </trkpt>
      <trkpt lat="44.27847" lon="2.73616">
        <ele>745.64</ele>
        <time>2025-09-16T13:46:26Z</time>
      </trkpt>
      <trkpt lat="44.27861" lon="2.73596">
        <ele>743.24</ele>
        <time>2025-09-16T13:46:40Z</time>
      </trkpt>
      <trkpt lat="44.27882" lon="2.7357">
        <ele>744.68</ele>
        <time>2025-09-16T13:46:55Z</time>
      </trkpt>
      <trkpt lat="44.27897" lon="2.73549">
        <ele>746.6</ele>
        <time>2025-09-16T13:47:08Z</time>
      </trkpt>
      <trkpt lat="44.27914" lon="2.73523">
        <ele>747.56</ele>
        <time>2025-09-16T13:47:23Z</time>
      </trkpt>
      <trkpt lat="44.27927" lon="2.73501">
        <ele>748.52</ele>
        <time>2025-09-16T13:47:37Z</time>
      </trkpt>
      <trkpt lat="44.27941" lon="2.73477">
        <ele>751.41</ele>
        <time>2025-09-16T13:47:52Z</time>
      </trkpt>
      <trkpt lat="44.27955" lon="2.73452">
        <ele>750.45</ele>
        <time>2025-09-16T13:48:05Z</time>
      </trkpt>
      <trkpt lat="44.27971" lon="2.73425">
        <ele>749.97</ele>
        <time>2025-09-16T13:48:19Z</time>
      </trkpt>
      <trkpt lat="44.27987" lon="2.734">
        <ele>749.49</ele>
        <time>2025-09-16T13:48:34Z</time>
      </trkpt>
      <trkpt lat="44.28" lon="2.73376">
        <ele>748.52</ele>
        <time>2025-09-16T13:48:47Z</time>
      </trkpt>
      <trkpt lat="44.28009" lon="2.73352">
        <ele>748.04</ele>
        <time>2025-09-16T13:49:00Z</time>
      </trkpt>
      <trkpt lat="44.28009" lon="2.73342">
        <ele>750.93</ele>
        <time>2025-09-16T13:49:06Z</time>
      </trkpt>
      <trkpt lat="44.28007" lon="2.73334">
        <ele>752.85</ele>
        <time>2025-09-16T13:49:10Z</time>
      </trkpt>
      <trkpt lat="44.28007" lon="2.73333">
        <ele>752.85</ele>
        <time>2025-09-16T13:49:11Z</time>
      </trkpt>
      <trkpt lat="44.28004" lon="2.73327">
        <ele>754.29</ele>
        <time>2025-09-16T13:49:16Z</time>
      </trkpt>
      <trkpt lat="44.28003" lon="2.73326">
        <ele>754.77</ele>
        <time>2025-09-16T13:49:17Z</time>
      </trkpt>
      <trkpt lat="44.27997" lon="2.73304">
        <ele>754.77</ele>
        <time>2025-09-16T13:49:29Z</time>
      </trkpt>
      <trkpt lat="44.27998" lon="2.73294">
        <ele>751.89</ele>
        <time>2025-09-16T13:49:44Z</time>
      </trkpt>
      <trkpt lat="44.27998" lon="2.73293">
        <ele>751.41</ele>
        <time>2025-09-16T13:50:13Z</time>
      </trkpt>
      <trkpt lat="44.27999" lon="2.73295">
        <ele>750.45</ele>
        <time>2025-09-16T13:50:31Z</time>
      </trkpt>
      <trkpt lat="44.27998" lon="2.73296">
        <ele>750.45</ele>
        <time>2025-09-16T13:50:47Z</time>
      </trkpt>
      <trkpt lat="44.27998" lon="2.73297">
        <ele>750.45</ele>
        <time>2025-09-16T13:50:58Z</time>
      </trkpt>
      <trkpt lat="44.27998" lon="2.73297">
        <ele>751.41</ele>
        <time>2025-09-16T13:51:10Z</time>
      </trkpt>
      <trkpt lat="44.27999" lon="2.73296">
        <ele>751.41</ele>
        <time>2025-09-16T13:51:28Z</time>
      </trkpt>
      <trkpt lat="44.27998" lon="2.73298">
        <ele>752.37</ele>
        <time>2025-09-16T13:51:48Z</time>
      </trkpt>
      <trkpt lat="44.27997" lon="2.73296">
        <ele>751.41</ele>
        <time>2025-09-16T13:52:04Z</time>
      </trkpt>
      <trkpt lat="44.27999" lon="2.73297">
        <ele>749.97</ele>
        <time>2025-09-16T13:52:10Z</time>
      </trkpt>
      <trkpt lat="44.27998" lon="2.73299">
        <ele>749.49</ele>
        <time>2025-09-16T13:52:12Z</time>
      </trkpt>
      <trkpt lat="44.27995" lon="2.73305">
        <ele>748.52</ele>
        <time>2025-09-16T13:52:23Z</time>
      </trkpt>
      <trkpt lat="44.27995" lon="2.73304">
        <ele>748.52</ele>
        <time>2025-09-16T13:52:32Z</time>
      </trkpt>
      <trkpt lat="44.27991" lon="2.73313">
        <ele>746.12</ele>
        <time>2025-09-16T13:52:42Z</time>
      </trkpt>
      <trkpt lat="44.27989" lon="2.73318">
        <ele>746.12</ele>
        <time>2025-09-16T13:52:46Z</time>
      </trkpt>
      <trkpt lat="44.27984" lon="2.73325">
        <ele>745.64</ele>
        <time>2025-09-16T13:53:00Z</time>
      </trkpt>
      <trkpt lat="44.27984" lon="2.73328">
        <ele>745.16</ele>
        <time>2025-09-16T13:53:19Z</time>
      </trkpt>
      <trkpt lat="44.27983" lon="2.73325">
        <ele>745.16</ele>
        <time>2025-09-16T13:53:37Z</time>
      </trkpt>
      <trkpt lat="44.27983" lon="2.73323">
        <ele>747.56</ele>
        <time>2025-09-16T13:53:58Z</time>
      </trkpt>
      <trkpt lat="44.27984" lon="2.73323">
        <ele>747.56</ele>
        <time>2025-09-16T13:54:19Z</time>
      </trkpt>
      <trkpt lat="44.27982" lon="2.73322">
        <ele>749.49</ele>
        <time>2025-09-16T13:54:37Z</time>
      </trkpt>
      <trkpt lat="44.27982" lon="2.7332">
        <ele>749</ele>
        <time>2025-09-16T13:55:02Z</time>
      </trkpt>
      <trkpt lat="44.27985" lon="2.73319">
        <ele>749.49</ele>
        <time>2025-09-16T13:55:19Z</time>
      </trkpt>
      <trkpt lat="44.27983" lon="2.73325">
        <ele>750.93</ele>
        <time>2025-09-16T13:55:37Z</time>
      </trkpt>
      <trkpt lat="44.27983" lon="2.73323">
        <ele>751.41</ele>
        <time>2025-09-16T13:55:55Z</time>
      </trkpt>
      <trkpt lat="44.27984" lon="2.73319">
        <ele>749.97</ele>
        <time>2025-09-16T13:56:15Z</time>
      </trkpt>
      <trkpt lat="44.27984" lon="2.73315">
        <ele>749.97</ele>
        <time>2025-09-16T13:56:34Z</time>
      </trkpt>
      <trkpt lat="44.27985" lon="2.73314">
        <ele>750.93</ele>
        <time>2025-09-16T13:56:52Z</time>
      </trkpt>
      <trkpt lat="44.27987" lon="2.73315">
        <ele>751.41</ele>
        <time>2025-09-16T13:57:13Z</time>
      </trkpt>
      <trkpt lat="44.27983" lon="2.73311">
        <ele>750.93</ele>
        <time>2025-09-16T13:57:36Z</time>
      </trkpt>
      <trkpt lat="44.27987" lon="2.73315">
        <ele>750.93</ele>
        <time>2025-09-16T13:57:49Z</time>
      </trkpt>
      <trkpt lat="44.27987" lon="2.73321">
        <ele>750.45</ele>
        <time>2025-09-16T13:58:15Z</time>
      </trkpt>
      <trkpt lat="44.27984" lon="2.73318">
        <ele>749</ele>
        <time>2025-09-16T13:58:35Z</time>
      </trkpt>
      <trkpt lat="44.27982" lon="2.73312">
        <ele>748.52</ele>
        <time>2025-09-16T13:58:55Z</time>
      </trkpt>
      <trkpt lat="44.27983" lon="2.73321">
        <ele>748.04</ele>
        <time>2025-09-16T13:59:13Z</time>
      </trkpt>
      <trkpt lat="44.27983" lon="2.73319">
        <ele>747.56</ele>
        <time>2025-09-16T13:59:28Z</time>
      </trkpt>
      <trkpt lat="44.27984" lon="2.73318">
        <ele>746.6</ele>
        <time>2025-09-16T13:59:41Z</time>
      </trkpt>
      <trkpt lat="44.27986" lon="2.73319">
        <ele>747.08</ele>
        <time>2025-09-16T13:59:57Z</time>
      </trkpt>
      <trkpt lat="44.27985" lon="2.73316">
        <ele>749</ele>
        <time>2025-09-16T14:00:26Z</time>
      </trkpt>
      <trkpt lat="44.27986" lon="2.73318">
        <ele>750.45</ele>
        <time>2025-09-16T14:00:59Z</time>
      </trkpt>
      <trkpt lat="44.27989" lon="2.73313">
        <ele>751.89</ele>
        <time>2025-09-16T14:01:24Z</time>
      </trkpt>
      <trkpt lat="44.27986" lon="2.7331">
        <ele>751.41</ele>
        <time>2025-09-16T14:01:51Z</time>
      </trkpt>
      <trkpt lat="44.27986" lon="2.73306">
        <ele>749.49</ele>
        <time>2025-09-16T14:02:10Z</time>
      </trkpt>
      <trkpt lat="44.27988" lon="2.73307">
        <ele>749.97</ele>
        <time>2025-09-16T14:02:34Z</time>
      </trkpt>
      <trkpt lat="44.27989" lon="2.73306">
        <ele>750.45</ele>
        <time>2025-09-16T14:02:55Z</time>
      </trkpt>
      <trkpt lat="44.27988" lon="2.73304">
        <ele>750.93</ele>
        <time>2025-09-16T14:03:18Z</time>
      </trkpt>
      <trkpt lat="44.27985" lon="2.73303">
        <ele>747.56</ele>
        <time>2025-09-16T14:03:43Z</time>
      </trkpt>
      <trkpt lat="44.27982" lon="2.733">
        <ele>747.08</ele>
        <time>2025-09-16T14:04:09Z</time>
      </trkpt>
      <trkpt lat="44.2798" lon="2.73303">
        <ele>746.12</ele>
        <time>2025-09-16T14:04:35Z</time>
      </trkpt>
      <trkpt lat="44.2798" lon="2.73302">
        <ele>746.12</ele>
        <time>2025-09-16T14:05:05Z</time>
      </trkpt>
      <trkpt lat="44.27987" lon="2.73306">
        <ele>747.56</ele>
        <time>2025-09-16T14:05:22Z</time>
      </trkpt>
      <trkpt lat="44.27991" lon="2.73303">
        <ele>748.04</ele>
        <time>2025-09-16T14:05:25Z</time>
      </trkpt>
      <trkpt lat="44.28003" lon="2.73288">
        <ele>747.08</ele>
        <time>2025-09-16T14:05:41Z</time>
      </trkpt>
      <trkpt lat="44.28017" lon="2.73289">
        <ele>745.16</ele>
        <time>2025-09-16T14:05:57Z</time>
      </trkpt>
      <trkpt lat="44.28022" lon="2.73278">
        <ele>745.16</ele>
        <time>2025-09-16T14:06:09Z</time>
      </trkpt>
      <trkpt lat="44.28025" lon="2.73266">
        <ele>744.2</ele>
        <time>2025-09-16T14:06:26Z</time>
      </trkpt>
      <trkpt lat="44.28026" lon="2.7326">
        <ele>743.72</ele>
        <time>2025-09-16T14:06:40Z</time>
      </trkpt>
      <trkpt lat="44.28034" lon="2.73257">
        <ele>743.72</ele>
        <time>2025-09-16T14:06:53Z</time>
      </trkpt>
      <trkpt lat="44.28039" lon="2.73282">
        <ele>742.76</ele>
        <time>2025-09-16T14:07:10Z</time>
      </trkpt>
      <trkpt lat="44.28026" lon="2.73285">
        <ele>740.35</ele>
        <time>2025-09-16T14:07:27Z</time>
      </trkpt>
      <trkpt lat="44.28021" lon="2.73279">
        <ele>743.72</ele>
        <time>2025-09-16T14:07:49Z</time>
      </trkpt>
      <trkpt lat="44.2802" lon="2.73283">
        <ele>747.08</ele>
        <time>2025-09-16T14:08:06Z</time>
      </trkpt>
      <trkpt lat="44.28025" lon="2.73263">
        <ele>745.16</ele>
        <time>2025-09-16T14:08:22Z</time>
      </trkpt>
      <trkpt lat="44.28032" lon="2.73274">
        <ele>745.16</ele>
        <time>2025-09-16T14:10:37Z</time>
      </trkpt>
      <trkpt lat="44.28021" lon="2.73268">
        <ele>750.93</ele>
        <time>2025-09-16T14:10:54Z</time>
      </trkpt>
      <trkpt lat="44.28013" lon="2.73284">
        <ele>751.41</ele>
        <time>2025-09-16T14:11:09Z</time>
      </trkpt>
      <trkpt lat="44.28004" lon="2.73288">
        <ele>748.04</ele>
        <time>2025-09-16T14:11:24Z</time>
      </trkpt>
      <trkpt lat="44.27996" lon="2.73294">
        <ele>743.72</ele>
        <time>2025-09-16T14:11:37Z</time>
      </trkpt>
      <trkpt lat="44.27984" lon="2.73314">
        <ele>747.56</ele>
        <time>2025-09-16T14:11:54Z</time>
      </trkpt>
      <trkpt lat="44.27985" lon="2.73313">
        <ele>746.12</ele>
        <time>2025-09-16T14:12:21Z</time>
      </trkpt>
      <trkpt lat="44.27986" lon="2.73304">
        <ele>749</ele>
        <time>2025-09-16T14:12:46Z</time>
      </trkpt>
      <trkpt lat="44.27981" lon="2.73304">
        <ele>747.08</ele>
        <time>2025-09-16T14:13:04Z</time>
      </trkpt>
      <trkpt lat="44.27988" lon="2.73311">
        <ele>747.56</ele>
        <time>2025-09-16T14:13:18Z</time>
      </trkpt>
      <trkpt lat="44.27986" lon="2.73314">
        <ele>748.04</ele>
        <time>2025-09-16T14:13:39Z</time>
      </trkpt>
      <trkpt lat="44.27987" lon="2.73314">
        <ele>747.08</ele>
        <time>2025-09-16T14:13:54Z</time>
      </trkpt>
      <trkpt lat="44.2799" lon="2.73296">
        <ele>747.08</ele>
        <time>2025-09-16T14:14:12Z</time>
      </trkpt>
      <trkpt lat="44.27996" lon="2.73285">
        <ele>744.68</ele>
        <time>2025-09-16T14:14:28Z</time>
      </trkpt>
      <trkpt lat="44.27998" lon="2.73287">
        <ele>744.2</ele>
        <time>2025-09-16T14:14:47Z</time>
      </trkpt>
      <trkpt lat="44.27997" lon="2.73286">
        <ele>746.12</ele>
        <time>2025-09-16T14:15:06Z</time>
      </trkpt>
      <trkpt lat="44.27992" lon="2.73286">
        <ele>746.6</ele>
        <time>2025-09-16T14:15:23Z</time>
      </trkpt>
      <trkpt lat="44.2799" lon="2.73294">
        <ele>744.68</ele>
        <time>2025-09-16T14:15:48Z</time>
      </trkpt>
      <trkpt lat="44.27996" lon="2.73298">
        <ele>745.16</ele>
        <time>2025-09-16T14:16:04Z</time>
      </trkpt>
      <trkpt lat="44.27997" lon="2.733">
        <ele>744.2</ele>
        <time>2025-09-16T14:16:26Z</time>
      </trkpt>
      <trkpt lat="44.27998" lon="2.73302">
        <ele>745.16</ele>
        <time>2025-09-16T14:16:42Z</time>
      </trkpt>
      <trkpt lat="44.28001" lon="2.73297">
        <ele>747.08</ele>
        <time>2025-09-16T14:17:01Z</time>
      </trkpt>
      <trkpt lat="44.27997" lon="2.73295">
        <ele>746.6</ele>
        <time>2025-09-16T14:17:23Z</time>
      </trkpt>
      <trkpt lat="44.27996" lon="2.73294">
        <ele>746.12</ele>
        <time>2025-09-16T14:17:25Z</time>
      </trkpt>
      <trkpt lat="44.27984" lon="2.73273">
        <ele>746.6</ele>
        <time>2025-09-16T14:17:40Z</time>
      </trkpt>
      <trkpt lat="44.27963" lon="2.73258">
        <ele>745.16</ele>
        <time>2025-09-16T14:17:57Z</time>
      </trkpt>
      <trkpt lat="44.27945" lon="2.7324">
        <ele>740.35</ele>
        <time>2025-09-16T14:18:10Z</time>
      </trkpt>
      <trkpt lat="44.27922" lon="2.73216">
        <ele>734.58</ele>
        <time>2025-09-16T14:18:28Z</time>
      </trkpt>
      <trkpt lat="44.27918" lon="2.73212">
        <ele>733.62</ele>
        <time>2025-09-16T14:18:32Z</time>
      </trkpt>
      <trkpt lat="44.27908" lon="2.73204">
        <ele>733.62</ele>
        <time>2025-09-16T14:18:44Z</time>
      </trkpt>
      <trkpt lat="44.27891" lon="2.73194">
        <ele>730.26</ele>
        <time>2025-09-16T14:19:02Z</time>
      </trkpt>
      <trkpt lat="44.27873" lon="2.73188">
        <ele>726.41</ele>
        <time>2025-09-16T14:19:19Z</time>
      </trkpt>
      <trkpt lat="44.27865" lon="2.73186">
        <ele>722.09</ele>
        <time>2025-09-16T14:19:37Z</time>
      </trkpt>
      <trkpt lat="44.27862" lon="2.73183">
        <ele>721.13</ele>
        <time>2025-09-16T14:19:55Z</time>
      </trkpt>
      <trkpt lat="44.27864" lon="2.73185">
        <ele>723.53</ele>
        <time>2025-09-16T14:20:16Z</time>
      </trkpt>
      <trkpt lat="44.27862" lon="2.73181">
        <ele>726.41</ele>
        <time>2025-09-16T14:20:40Z</time>
      </trkpt>
      <trkpt lat="44.27853" lon="2.73173">
        <ele>727.37</ele>
        <time>2025-09-16T14:20:57Z</time>
      </trkpt>
      <trkpt lat="44.27843" lon="2.73161">
        <ele>723.53</ele>
        <time>2025-09-16T14:21:11Z</time>
      </trkpt>
      <trkpt lat="44.27836" lon="2.73154">
        <ele>720.65</ele>
        <time>2025-09-16T14:21:24Z</time>
      </trkpt>
      <trkpt lat="44.27831" lon="2.73145">
        <ele>716.8</ele>
        <time>2025-09-16T14:21:36Z</time>
      </trkpt>
      <trkpt lat="44.27823" lon="2.73133">
        <ele>714.4</ele>
        <time>2025-09-16T14:21:51Z</time>
      </trkpt>
      <trkpt lat="44.27817" lon="2.73125">
        <ele>713.44</ele>
        <time>2025-09-16T14:22:05Z</time>
      </trkpt>
      <trkpt lat="44.2781" lon="2.73115">
        <ele>712.95</ele>
        <time>2025-09-16T14:22:18Z</time>
      </trkpt>
      <trkpt lat="44.27802" lon="2.73119">
        <ele>710.07</ele>
        <time>2025-09-16T14:22:32Z</time>
      </trkpt>
      <trkpt lat="44.278" lon="2.73123">
        <ele>707.19</ele>
        <time>2025-09-16T14:22:46Z</time>
      </trkpt>
      <trkpt lat="44.27796" lon="2.73129">
        <ele>707.19</ele>
        <time>2025-09-16T14:23:02Z</time>
      </trkpt>
      <trkpt lat="44.27793" lon="2.7313">
        <ele>705.26</ele>
        <time>2025-09-16T14:23:14Z</time>
      </trkpt>
      <trkpt lat="44.27792" lon="2.73123">
        <ele>705.75</ele>
        <time>2025-09-16T14:23:22Z</time>
      </trkpt>
      <trkpt lat="44.27793" lon="2.7311">
        <ele>705.75</ele>
        <time>2025-09-16T14:23:31Z</time>
      </trkpt>
      <trkpt lat="44.27788" lon="2.73107">
        <ele>704.3</ele>
        <time>2025-09-16T14:23:38Z</time>
      </trkpt>
      <trkpt lat="44.27782" lon="2.73109">
        <ele>703.34</ele>
        <time>2025-09-16T14:23:47Z</time>
      </trkpt>
      <trkpt lat="44.27782" lon="2.73083">
        <ele>702.38</ele>
        <time>2025-09-16T14:24:02Z</time>
      </trkpt>
      <trkpt lat="44.2779" lon="2.73058">
        <ele>702.86</ele>
        <time>2025-09-16T14:24:17Z</time>
      </trkpt>
      <trkpt lat="44.27792" lon="2.73053">
        <ele>702.86</ele>
        <time>2025-09-16T14:24:20Z</time>
      </trkpt>
      <trkpt lat="44.27796" lon="2.73049">
        <ele>702.86</ele>
        <time>2025-09-16T14:24:24Z</time>
      </trkpt>
      <trkpt lat="44.278" lon="2.73045">
        <ele>701.42</ele>
        <time>2025-09-16T14:24:29Z</time>
      </trkpt>
      <trkpt lat="44.27807" lon="2.7304">
        <ele>699.02</ele>
        <time>2025-09-16T14:24:38Z</time>
      </trkpt>
      <trkpt lat="44.27812" lon="2.7304">
        <ele>699.02</ele>
        <time>2025-09-16T14:24:43Z</time>
      </trkpt>
      <trkpt lat="44.27815" lon="2.73041">
        <ele>698.53</ele>
        <time>2025-09-16T14:24:45Z</time>
      </trkpt>
      <trkpt lat="44.27818" lon="2.73041">
        <ele>698.05</ele>
        <time>2025-09-16T14:24:48Z</time>
      </trkpt>
      <trkpt lat="44.27834" lon="2.73051">
        <ele>695.65</ele>
        <time>2025-09-16T14:25:02Z</time>
      </trkpt>
      <trkpt lat="44.2784" lon="2.73046">
        <ele>694.21</ele>
        <time>2025-09-16T14:25:17Z</time>
      </trkpt>
      <trkpt lat="44.27841" lon="2.7304">
        <ele>692.29</ele>
        <time>2025-09-16T14:25:33Z</time>
      </trkpt>
      <trkpt lat="44.27839" lon="2.7304">
        <ele>690.36</ele>
        <time>2025-09-16T14:25:43Z</time>
      </trkpt>
      <trkpt lat="44.27839" lon="2.73045">
        <ele>692.77</ele>
        <time>2025-09-16T14:26:02Z</time>
      </trkpt>
      <trkpt lat="44.27832" lon="2.73043">
        <ele>694.69</ele>
        <time>2025-09-16T14:26:12Z</time>
      </trkpt>
      <trkpt lat="44.2783" lon="2.73035">
        <ele>694.69</ele>
        <time>2025-09-16T14:26:20Z</time>
      </trkpt>
      <trkpt lat="44.27817" lon="2.73018">
        <ele>695.17</ele>
        <time>2025-09-16T14:26:34Z</time>
      </trkpt>
      <trkpt lat="44.27813" lon="2.73018">
        <ele>695.17</ele>
        <time>2025-09-16T14:26:38Z</time>
      </trkpt>
      <trkpt lat="44.27808" lon="2.73011">
        <ele>699.02</ele>
        <time>2025-09-16T14:26:51Z</time>
      </trkpt>
      <trkpt lat="44.27803" lon="2.73005">
        <ele>695.65</ele>
        <time>2025-09-16T14:27:04Z</time>
      </trkpt>
      <trkpt lat="44.27805" lon="2.73002">
        <ele>693.25</ele>
        <time>2025-09-16T14:27:17Z</time>
      </trkpt>
      <trkpt lat="44.27805" lon="2.73003">
        <ele>692.77</ele>
        <time>2025-09-16T14:27:33Z</time>
      </trkpt>
      <trkpt lat="44.27805" lon="2.73003">
        <ele>688.92</ele>
        <time>2025-09-16T14:27:51Z</time>
      </trkpt>
      <trkpt lat="44.27802" lon="2.73006">
        <ele>687.48</ele>
        <time>2025-09-16T14:28:06Z</time>
      </trkpt>
      <trkpt lat="44.27799" lon="2.73007">
        <ele>685.08</ele>
        <time>2025-09-16T14:28:32Z</time>
      </trkpt>
      <trkpt lat="44.27798" lon="2.73007">
        <ele>685.56</ele>
        <time>2025-09-16T14:28:37Z</time>
      </trkpt>
      <trkpt lat="44.27793" lon="2.73009">
        <ele>685.56</ele>
        <time>2025-09-16T14:28:43Z</time>
      </trkpt>
      <trkpt lat="44.27789" lon="2.73012">
        <ele>685.56</ele>
        <time>2025-09-16T14:28:47Z</time>
      </trkpt>
      <trkpt lat="44.27786" lon="2.73012">
        <ele>685.08</ele>
        <time>2025-09-16T14:28:50Z</time>
      </trkpt>
      <trkpt lat="44.27778" lon="2.73001">
        <ele>684.12</ele>
        <time>2025-09-16T14:29:05Z</time>
      </trkpt>
      <trkpt lat="44.27779" lon="2.72994">
        <ele>683.15</ele>
        <time>2025-09-16T14:29:18Z</time>
      </trkpt>
      <trkpt lat="44.27783" lon="2.72985">
        <ele>683.63</ele>
        <time>2025-09-16T14:29:35Z</time>
      </trkpt>
      <trkpt lat="44.27785" lon="2.72977">
        <ele>684.12</ele>
        <time>2025-09-16T14:29:41Z</time>
      </trkpt>
      <trkpt lat="44.27791" lon="2.72965">
        <ele>684.12</ele>
        <time>2025-09-16T14:29:52Z</time>
      </trkpt>
      <trkpt lat="44.27785" lon="2.72949">
        <ele>687.96</ele>
        <time>2025-09-16T14:30:03Z</time>
      </trkpt>
      <trkpt lat="44.27783" lon="2.72947">
        <ele>689.4</ele>
        <time>2025-09-16T14:30:05Z</time>
      </trkpt>
      <trkpt lat="44.27777" lon="2.72924">
        <ele>692.77</ele>
        <time>2025-09-16T14:30:19Z</time>
      </trkpt>
      <trkpt lat="44.2779" lon="2.72905">
        <ele>689.4</ele>
        <time>2025-09-16T14:30:32Z</time>
      </trkpt>
      <trkpt lat="44.27809" lon="2.72886">
        <ele>688.44</ele>
        <time>2025-09-16T14:30:48Z</time>
      </trkpt>
      <trkpt lat="44.27808" lon="2.72881">
        <ele>685.56</ele>
        <time>2025-09-16T14:31:02Z</time>
      </trkpt>
      <trkpt lat="44.27805" lon="2.7288">
        <ele>682.67</ele>
        <time>2025-09-16T14:31:16Z</time>
      </trkpt>
      <trkpt lat="44.27805" lon="2.7288">
        <ele>681.71</ele>
        <time>2025-09-16T14:31:30Z</time>
      </trkpt>
      <trkpt lat="44.27806" lon="2.72878">
        <ele>682.19</ele>
        <time>2025-09-16T14:31:46Z</time>
      </trkpt>
      <trkpt lat="44.27806" lon="2.72878">
        <ele>681.23</ele>
        <time>2025-09-16T14:32:02Z</time>
      </trkpt>
      <trkpt lat="44.2781" lon="2.72878">
        <ele>682.19</ele>
        <time>2025-09-16T14:32:16Z</time>
      </trkpt>
      <trkpt lat="44.2781" lon="2.72881">
        <ele>682.19</ele>
        <time>2025-09-16T14:32:37Z</time>
      </trkpt>
      <trkpt lat="44.27807" lon="2.72879">
        <ele>685.08</ele>
        <time>2025-09-16T14:32:58Z</time>
      </trkpt>
      <trkpt lat="44.27807" lon="2.72881">
        <ele>685.08</ele>
        <time>2025-09-16T14:33:21Z</time>
      </trkpt>
      <trkpt lat="44.27807" lon="2.72877">
        <ele>685.08</ele>
        <time>2025-09-16T14:33:39Z</time>
      </trkpt>
      <trkpt lat="44.27807" lon="2.72873">
        <ele>685.08</ele>
        <time>2025-09-16T14:34:06Z</time>
      </trkpt>
      <trkpt lat="44.27809" lon="2.7288">
        <ele>685.08</ele>
        <time>2025-09-16T14:34:29Z</time>
      </trkpt>
      <trkpt lat="44.27809" lon="2.72885">
        <ele>684.6</ele>
        <time>2025-09-16T14:34:53Z</time>
      </trkpt>
      <trkpt lat="44.27809" lon="2.72884">
        <ele>682.19</ele>
        <time>2025-09-16T14:35:16Z</time>
      </trkpt>
      <trkpt lat="44.27815" lon="2.72887">
        <ele>682.19</ele>
        <time>2025-09-16T14:35:51Z</time>
      </trkpt>
      <trkpt lat="44.27809" lon="2.72887">
        <ele>681.23</ele>
        <time>2025-09-16T14:36:21Z</time>
      </trkpt>
      <trkpt lat="44.27807" lon="2.72887">
        <ele>681.23</ele>
        <time>2025-09-16T14:36:41Z</time>
      </trkpt>
      <trkpt lat="44.27807" lon="2.72881">
        <ele>680.75</ele>
        <time>2025-09-16T14:37:05Z</time>
      </trkpt>
      <trkpt lat="44.27809" lon="2.7288">
        <ele>680.27</ele>
        <time>2025-09-16T14:37:26Z</time>
      </trkpt>
      <trkpt lat="44.27809" lon="2.72875">
        <ele>681.23</ele>
        <time>2025-09-16T14:37:54Z</time>
      </trkpt>
      <trkpt lat="44.2781" lon="2.72875">
        <ele>681.23</ele>
        <time>2025-09-16T14:37:55Z</time>
      </trkpt>
      <trkpt lat="44.27816" lon="2.72871">
        <ele>682.19</ele>
        <time>2025-09-16T14:38:01Z</time>
      </trkpt>
      <trkpt lat="44.27824" lon="2.7287">
        <ele>682.19</ele>
        <time>2025-09-16T14:38:08Z</time>
      </trkpt>
      <trkpt lat="44.2783" lon="2.72873">
        <ele>682.19</ele>
        <time>2025-09-16T14:38:13Z</time>
      </trkpt>
      <trkpt lat="44.27835" lon="2.72869">
        <ele>682.19</ele>
        <time>2025-09-16T14:38:18Z</time>
      </trkpt>
      <trkpt lat="44.2785" lon="2.72857">
        <ele>683.15</ele>
        <time>2025-09-16T14:38:33Z</time>
      </trkpt>
      <trkpt lat="44.27853" lon="2.72855">
        <ele>683.63</ele>
        <time>2025-09-16T14:38:36Z</time>
      </trkpt>
      <trkpt lat="44.27871" lon="2.72848">
        <ele>688.92</ele>
        <time>2025-09-16T14:38:52Z</time>
      </trkpt>
      <trkpt lat="44.27891" lon="2.72848">
        <ele>694.69</ele>
        <time>2025-09-16T14:39:09Z</time>
      </trkpt>
      <trkpt lat="44.27913" lon="2.72854">
        <ele>697.57</ele>
        <time>2025-09-16T14:39:24Z</time>
      </trkpt>
      <trkpt lat="44.27921" lon="2.72853">
        <ele>694.69</ele>
        <time>2025-09-16T14:39:32Z</time>
      </trkpt>
      <trkpt lat="44.27918" lon="2.72849">
        <ele>694.21</ele>
        <time>2025-09-16T14:39:36Z</time>
      </trkpt>
      <trkpt lat="44.27903" lon="2.7283">
        <ele>693.73</ele>
        <time>2025-09-16T14:39:50Z</time>
      </trkpt>
      <trkpt lat="44.279" lon="2.72825">
        <ele>694.21</ele>
        <time>2025-09-16T14:39:54Z</time>
      </trkpt>
      <trkpt lat="44.27901" lon="2.7281">
        <ele>693.73</ele>
        <time>2025-09-16T14:40:02Z</time>
      </trkpt>
      <trkpt lat="44.27906" lon="2.72781">
        <ele>697.09</ele>
        <time>2025-09-16T14:40:20Z</time>
      </trkpt>
      <trkpt lat="44.27926" lon="2.72776">
        <ele>700.94</ele>
        <time>2025-09-16T14:40:37Z</time>
      </trkpt>
      <trkpt lat="44.27951" lon="2.72778">
        <ele>700.94</ele>
        <time>2025-09-16T14:40:54Z</time>
      </trkpt>
      <trkpt lat="44.27977" lon="2.72774">
        <ele>703.34</ele>
        <time>2025-09-16T14:41:13Z</time>
      </trkpt>
      <trkpt lat="44.27999" lon="2.72771">
        <ele>703.34</ele>
        <time>2025-09-16T14:41:30Z</time>
      </trkpt>
      <trkpt lat="44.28027" lon="2.72767">
        <ele>703.82</ele>
        <time>2025-09-16T14:41:49Z</time>
      </trkpt>
      <trkpt lat="44.28053" lon="2.72763">
        <ele>705.26</ele>
        <time>2025-09-16T14:42:08Z</time>
      </trkpt>
      <trkpt lat="44.28079" lon="2.7276">
        <ele>707.19</ele>
        <time>2025-09-16T14:42:26Z</time>
      </trkpt>
      <trkpt lat="44.28098" lon="2.72758">
        <ele>709.59</ele>
        <time>2025-09-16T14:42:41Z</time>
      </trkpt>
      <trkpt lat="44.28124" lon="2.72754">
        <ele>709.59</ele>
        <time>2025-09-16T14:42:59Z</time>
      </trkpt>
      <trkpt lat="44.2815" lon="2.72752">
        <ele>711.03</ele>
        <time>2025-09-16T14:43:19Z</time>
      </trkpt>
      <trkpt lat="44.28171" lon="2.72746">
        <ele>710.07</ele>
        <time>2025-09-16T14:43:34Z</time>
      </trkpt>
      <trkpt lat="44.2819" lon="2.72746">
        <ele>709.59</ele>
        <time>2025-09-16T14:43:49Z</time>
      </trkpt>
      <trkpt lat="44.28211" lon="2.7274">
        <ele>711.03</ele>
        <time>2025-09-16T14:44:06Z</time>
      </trkpt>
      <trkpt lat="44.28226" lon="2.72722">
        <ele>714.4</ele>
        <time>2025-09-16T14:44:22Z</time>
      </trkpt>
      <trkpt lat="44.2825" lon="2.72698">
        <ele>719.2</ele>
        <time>2025-09-16T14:44:44Z</time>
      </trkpt>
      <trkpt lat="44.28271" lon="2.72675">
        <ele>720.65</ele>
        <time>2025-09-16T14:45:04Z</time>
      </trkpt>
      <trkpt lat="44.28291" lon="2.72654">
        <ele>723.05</ele>
        <time>2025-09-16T14:45:25Z</time>
      </trkpt>
      <trkpt lat="44.28311" lon="2.72636">
        <ele>724.49</ele>
        <time>2025-09-16T14:45:43Z</time>
      </trkpt>
      <trkpt lat="44.2833" lon="2.72618">
        <ele>722.57</ele>
        <time>2025-09-16T14:46:01Z</time>
      </trkpt>
      <trkpt lat="44.28355" lon="2.726">
        <ele>720.65</ele>
        <time>2025-09-16T14:46:21Z</time>
      </trkpt>
      <trkpt lat="44.28385" lon="2.72602">
        <ele>719.68</ele>
        <time>2025-09-16T14:46:42Z</time>
      </trkpt>
      <trkpt lat="44.28407" lon="2.72608">
        <ele>719.68</ele>
        <time>2025-09-16T14:47:00Z</time>
      </trkpt>
      <trkpt lat="44.28433" lon="2.72619">
        <ele>720.65</ele>
        <time>2025-09-16T14:47:20Z</time>
      </trkpt>
      <trkpt lat="44.28453" lon="2.72633">
        <ele>722.09</ele>
        <time>2025-09-16T14:47:39Z</time>
      </trkpt>
      <trkpt lat="44.28465" lon="2.72635">
        <ele>723.05</ele>
        <time>2025-09-16T14:47:51Z</time>
      </trkpt>
      <trkpt lat="44.28477" lon="2.72643">
        <ele>727.86</ele>
        <time>2025-09-16T14:48:04Z</time>
      </trkpt>
      <trkpt lat="44.28493" lon="2.7266">
        <ele>729.3</ele>
        <time>2025-09-16T14:48:20Z</time>
      </trkpt>
      <trkpt lat="44.28511" lon="2.72669">
        <ele>735.07</ele>
        <time>2025-09-16T14:48:36Z</time>
      </trkpt>
      <trkpt lat="44.28529" lon="2.72685">
        <ele>738.91</ele>
        <time>2025-09-16T14:48:52Z</time>
      </trkpt>
      <trkpt lat="44.28534" lon="2.72689">
        <ele>739.87</ele>
        <time>2025-09-16T14:48:57Z</time>
      </trkpt>
      <trkpt lat="44.28554" lon="2.72712">
        <ele>740.83</ele>
        <time>2025-09-16T14:49:12Z</time>
      </trkpt>
      <trkpt lat="44.2856" lon="2.72717">
        <ele>740.35</ele>
        <time>2025-09-16T14:49:17Z</time>
      </trkpt>
      <trkpt lat="44.28565" lon="2.7272">
        <ele>738.91</ele>
        <time>2025-09-16T14:49:21Z</time>
      </trkpt>
      <trkpt lat="44.28588" lon="2.72729">
        <ele>736.51</ele>
        <time>2025-09-16T14:49:39Z</time>
      </trkpt>
      <trkpt lat="44.28602" lon="2.72732">
        <ele>734.1</ele>
        <time>2025-09-16T14:49:52Z</time>
      </trkpt>
      <trkpt lat="44.28619" lon="2.72748">
        <ele>736.99</ele>
        <time>2025-09-16T14:50:09Z</time>
      </trkpt>
      <trkpt lat="44.28632" lon="2.72752">
        <ele>739.87</ele>
        <time>2025-09-16T14:50:20Z</time>
      </trkpt>
      <trkpt lat="44.28651" lon="2.72742">
        <ele>748.04</ele>
        <time>2025-09-16T14:50:37Z</time>
      </trkpt>
      <trkpt lat="44.2867" lon="2.72726">
        <ele>754.77</ele>
        <time>2025-09-16T14:50:55Z</time>
      </trkpt>
      <trkpt lat="44.28679" lon="2.72709">
        <ele>756.69</ele>
        <time>2025-09-16T14:51:09Z</time>
      </trkpt>
      <trkpt lat="44.28686" lon="2.72701">
        <ele>755.73</ele>
        <time>2025-09-16T14:51:24Z</time>
      </trkpt>
      <trkpt lat="44.28688" lon="2.72687">
        <ele>749</ele>
        <time>2025-09-16T14:51:43Z</time>
      </trkpt>
      <trkpt lat="44.28692" lon="2.72687">
        <ele>741.31</ele>
        <time>2025-09-16T14:52:01Z</time>
      </trkpt>
      <trkpt lat="44.28694" lon="2.72683">
        <ele>738.43</ele>
        <time>2025-09-16T14:52:04Z</time>
      </trkpt>
      <trkpt lat="44.28706" lon="2.72659">
        <ele>731.7</ele>
        <time>2025-09-16T14:52:21Z</time>
      </trkpt>
      <trkpt lat="44.28709" lon="2.72656">
        <ele>732.18</ele>
        <time>2025-09-16T14:52:24Z</time>
      </trkpt>
      <trkpt lat="44.28713" lon="2.72654">
        <ele>733.14</ele>
        <time>2025-09-16T14:52:28Z</time>
      </trkpt>
      <trkpt lat="44.28727" lon="2.7265">
        <ele>737.95</ele>
        <time>2025-09-16T14:52:43Z</time>
      </trkpt>
      <trkpt lat="44.28755" lon="2.72651">
        <ele>743.24</ele>
        <time>2025-09-16T14:52:59Z</time>
      </trkpt>
      <trkpt lat="44.28766" lon="2.72647">
        <ele>744.2</ele>
        <time>2025-09-16T14:53:13Z</time>
      </trkpt>
      <trkpt lat="44.28782" lon="2.72647">
        <ele>748.52</ele>
        <time>2025-09-16T14:53:27Z</time>
      </trkpt>
      <trkpt lat="44.28804" lon="2.72643">
        <ele>746.6</ele>
        <time>2025-09-16T14:53:42Z</time>
      </trkpt>
      <trkpt lat="44.28822" lon="2.72651">
        <ele>747.08</ele>
        <time>2025-09-16T14:53:58Z</time>
      </trkpt>
      <trkpt lat="44.28833" lon="2.72664">
        <ele>748.04</ele>
        <time>2025-09-16T14:54:12Z</time>
      </trkpt>
      <trkpt lat="44.28852" lon="2.72674">
        <ele>750.45</ele>
        <time>2025-09-16T14:54:28Z</time>
      </trkpt>
      <trkpt lat="44.28871" lon="2.72689">
        <ele>750.45</ele>
        <time>2025-09-16T14:54:44Z</time>
      </trkpt>
      <trkpt lat="44.2889" lon="2.72699">
        <ele>749.97</ele>
        <time>2025-09-16T14:55:00Z</time>
      </trkpt>
      <trkpt lat="44.28905" lon="2.727">
        <ele>754.77</ele>
        <time>2025-09-16T14:55:15Z</time>
      </trkpt>
      <trkpt lat="44.28924" lon="2.72698">
        <ele>761.02</ele>
        <time>2025-09-16T14:55:32Z</time>
      </trkpt>
      <trkpt lat="44.28944" lon="2.72697">
        <ele>765.35</ele>
        <time>2025-09-16T14:55:48Z</time>
      </trkpt>
      <trkpt lat="44.28966" lon="2.72686">
        <ele>764.87</ele>
        <time>2025-09-16T14:56:05Z</time>
      </trkpt>
      <trkpt lat="44.28988" lon="2.72684">
        <ele>761.98</ele>
        <time>2025-09-16T14:56:19Z</time>
      </trkpt>
      <trkpt lat="44.29014" lon="2.72697">
        <ele>759.58</ele>
        <time>2025-09-16T14:56:32Z</time>
      </trkpt>
      <trkpt lat="44.29038" lon="2.72696">
        <ele>754.29</ele>
        <time>2025-09-16T14:56:49Z</time>
      </trkpt>
      <trkpt lat="44.29061" lon="2.72692">
        <ele>750.45</ele>
        <time>2025-09-16T14:57:06Z</time>
      </trkpt>
      <trkpt lat="44.29081" lon="2.72686">
        <ele>746.6</ele>
        <time>2025-09-16T14:57:21Z</time>
      </trkpt>
      <trkpt lat="44.29096" lon="2.7267">
        <ele>746.6</ele>
        <time>2025-09-16T14:57:37Z</time>
      </trkpt>
      <trkpt lat="44.29108" lon="2.72649">
        <ele>749.97</ele>
        <time>2025-09-16T14:57:52Z</time>
      </trkpt>
      <trkpt lat="44.29113" lon="2.72638">
        <ele>749.97</ele>
        <time>2025-09-16T14:57:58Z</time>
      </trkpt>
      <trkpt lat="44.29117" lon="2.7263">
        <ele>750.93</ele>
        <time>2025-09-16T14:58:02Z</time>
      </trkpt>
      <trkpt lat="44.29137" lon="2.726">
        <ele>741.31</ele>
        <time>2025-09-16T14:58:20Z</time>
      </trkpt>
      <trkpt lat="44.29142" lon="2.72575">
        <ele>739.39</ele>
        <time>2025-09-16T14:58:36Z</time>
      </trkpt>
      <trkpt lat="44.29145" lon="2.72563">
        <ele>737.95</ele>
        <time>2025-09-16T14:58:51Z</time>
      </trkpt>
      <trkpt lat="44.29145" lon="2.7256">
        <ele>738.43</ele>
        <time>2025-09-16T14:58:56Z</time>
      </trkpt>
      <trkpt lat="44.29144" lon="2.72533">
        <ele>738.43</ele>
        <time>2025-09-16T14:59:11Z</time>
      </trkpt>
      <trkpt lat="44.29141" lon="2.72511">
        <ele>738.43</ele>
        <time>2025-09-16T14:59:24Z</time>
      </trkpt>
      <trkpt lat="44.29138" lon="2.72475">
        <ele>737.47</ele>
        <time>2025-09-16T14:59:41Z</time>
      </trkpt>
      <trkpt lat="44.29138" lon="2.72448">
        <ele>735.07</ele>
        <time>2025-09-16T14:59:54Z</time>
      </trkpt>
      <trkpt lat="44.29139" lon="2.7242">
        <ele>735.07</ele>
        <time>2025-09-16T15:00:10Z</time>
      </trkpt>
      <trkpt lat="44.29145" lon="2.72402">
        <ele>734.58</ele>
        <time>2025-09-16T15:00:24Z</time>
      </trkpt>
      <trkpt lat="44.2915" lon="2.72395">
        <ele>734.58</ele>
        <time>2025-09-16T15:00:33Z</time>
      </trkpt>
      <trkpt lat="44.29174" lon="2.72387">
        <ele>732.18</ele>
        <time>2025-09-16T15:00:47Z</time>
      </trkpt>
      <trkpt lat="44.29198" lon="2.72391">
        <ele>733.62</ele>
        <time>2025-09-16T15:01:01Z</time>
      </trkpt>
      <trkpt lat="44.29207" lon="2.72392">
        <ele>735.07</ele>
        <time>2025-09-16T15:01:07Z</time>
      </trkpt>
      <trkpt lat="44.29211" lon="2.724">
        <ele>733.62</ele>
        <time>2025-09-16T15:01:18Z</time>
      </trkpt>
      <trkpt lat="44.29211" lon="2.72402">
        <ele>733.62</ele>
        <time>2025-09-16T15:01:19Z</time>
      </trkpt>
      <trkpt lat="44.29212" lon="2.72404">
        <ele>733.62</ele>
        <time>2025-09-16T15:01:20Z</time>
      </trkpt>
      <trkpt lat="44.29217" lon="2.72424">
        <ele>735.55</ele>
        <time>2025-09-16T15:01:37Z</time>
      </trkpt>
      <trkpt lat="44.29224" lon="2.72425">
        <ele>736.51</ele>
        <time>2025-09-16T15:01:44Z</time>
      </trkpt>
      <trkpt lat="44.2924" lon="2.72421">
        <ele>735.55</ele>
        <time>2025-09-16T15:01:58Z</time>
      </trkpt>
      <trkpt lat="44.29241" lon="2.72421">
        <ele>735.07</ele>
        <time>2025-09-16T15:01:59Z</time>
      </trkpt>
      <trkpt lat="44.29243" lon="2.72422">
        <ele>734.58</ele>
        <time>2025-09-16T15:02:00Z</time>
      </trkpt>
      <trkpt lat="44.29244" lon="2.72422">
        <ele>734.58</ele>
        <time>2025-09-16T15:02:01Z</time>
      </trkpt>
      <trkpt lat="44.29257" lon="2.72439">
        <ele>736.99</ele>
        <time>2025-09-16T15:02:16Z</time>
      </trkpt>
      <trkpt lat="44.2926" lon="2.72443">
        <ele>736.51</ele>
        <time>2025-09-16T15:02:32Z</time>
      </trkpt>
      <trkpt lat="44.29262" lon="2.72444">
        <ele>736.51</ele>
        <time>2025-09-16T15:02:33Z</time>
      </trkpt>
      <trkpt lat="44.29268" lon="2.72453">
        <ele>737.47</ele>
        <time>2025-09-16T15:02:40Z</time>
      </trkpt>
      <trkpt lat="44.29268" lon="2.72455">
        <ele>737.95</ele>
        <time>2025-09-16T15:02:41Z</time>
      </trkpt>
      <trkpt lat="44.29273" lon="2.72472">
        <ele>745.16</ele>
        <time>2025-09-16T15:02:54Z</time>
      </trkpt>
      <trkpt lat="44.29282" lon="2.72484">
        <ele>745.16</ele>
        <time>2025-09-16T15:03:08Z</time>
      </trkpt>
      <trkpt lat="44.29283" lon="2.72485">
        <ele>745.64</ele>
        <time>2025-09-16T15:03:09Z</time>
      </trkpt>
      <trkpt lat="44.29302" lon="2.72496">
        <ele>749</ele>
        <time>2025-09-16T15:03:25Z</time>
      </trkpt>
      <trkpt lat="44.29315" lon="2.72503">
        <ele>742.76</ele>
        <time>2025-09-16T15:03:38Z</time>
      </trkpt>
      <trkpt lat="44.29319" lon="2.72506">
        <ele>736.99</ele>
        <time>2025-09-16T15:04:02Z</time>
      </trkpt>
      <trkpt lat="44.29319" lon="2.72507">
        <ele>734.58</ele>
        <time>2025-09-16T15:04:09Z</time>
      </trkpt>
      <trkpt lat="44.29319" lon="2.72509">
        <ele>732.18</ele>
        <time>2025-09-16T15:04:12Z</time>
      </trkpt>
      <trkpt lat="44.29324" lon="2.72508">
        <ele>728.82</ele>
        <time>2025-09-16T15:04:29Z</time>
      </trkpt>
      <trkpt lat="44.29327" lon="2.72517">
        <ele>728.34</ele>
        <time>2025-09-16T15:04:43Z</time>
      </trkpt>
      <trkpt lat="44.29326" lon="2.72517">
        <ele>727.37</ele>
        <time>2025-09-16T15:05:00Z</time>
      </trkpt>
      <trkpt lat="44.29329" lon="2.72509">
        <ele>724.97</ele>
        <time>2025-09-16T15:05:19Z</time>
      </trkpt>
      <trkpt lat="44.29329" lon="2.72506">
        <ele>723.05</ele>
        <time>2025-09-16T15:05:20Z</time>
      </trkpt>
      <trkpt lat="44.2933" lon="2.72503">
        <ele>722.57</ele>
        <time>2025-09-16T15:05:21Z</time>
      </trkpt>
      <trkpt lat="44.29336" lon="2.72491">
        <ele>720.65</ele>
        <time>2025-09-16T15:05:35Z</time>
      </trkpt>
      <trkpt lat="44.29338" lon="2.72487">
        <ele>718.24</ele>
        <time>2025-09-16T15:05:57Z</time>
      </trkpt>
      <trkpt lat="44.29338" lon="2.72491">
        <ele>718.72</ele>
        <time>2025-09-16T15:06:15Z</time>
      </trkpt>
      <trkpt lat="44.29335" lon="2.72496">
        <ele>720.16</ele>
        <time>2025-09-16T15:06:35Z</time>
      </trkpt>
      <trkpt lat="44.29333" lon="2.72495">
        <ele>719.2</ele>
        <time>2025-09-16T15:06:51Z</time>
      </trkpt>
      <trkpt lat="44.29336" lon="2.72489">
        <ele>718.24</ele>
        <time>2025-09-16T15:07:05Z</time>
      </trkpt>
      <trkpt lat="44.2934" lon="2.72487">
        <ele>718.72</ele>
        <time>2025-09-16T15:07:21Z</time>
      </trkpt>
      <trkpt lat="44.2934" lon="2.7249">
        <ele>719.2</ele>
        <time>2025-09-16T15:07:34Z</time>
      </trkpt>
      <trkpt lat="44.29339" lon="2.7249">
        <ele>720.16</ele>
        <time>2025-09-16T15:07:46Z</time>
      </trkpt>
      <trkpt lat="44.29338" lon="2.72492">
        <ele>718.24</ele>
        <time>2025-09-16T15:07:59Z</time>
      </trkpt>
      <trkpt lat="44.29338" lon="2.72492">
        <ele>717.76</ele>
        <time>2025-09-16T15:08:01Z</time>
      </trkpt>
      <trkpt lat="44.29339" lon="2.72492">
        <ele>719.68</ele>
        <time>2025-09-16T15:08:11Z</time>
      </trkpt>
      <trkpt lat="44.29338" lon="2.72491">
        <ele>720.65</ele>
        <time>2025-09-16T15:08:24Z</time>
      </trkpt>
      <trkpt lat="44.29341" lon="2.72491">
        <ele>723.05</ele>
        <time>2025-09-16T15:08:41Z</time>
      </trkpt>
      <trkpt lat="44.29341" lon="2.72492">
        <ele>723.05</ele>
        <time>2025-09-16T15:08:55Z</time>
      </trkpt>
      <trkpt lat="44.29341" lon="2.72492">
        <ele>720.65</ele>
        <time>2025-09-16T15:09:06Z</time>
      </trkpt>
      <trkpt lat="44.2934" lon="2.72488">
        <ele>721.13</ele>
        <time>2025-09-16T15:09:20Z</time>
      </trkpt>
      <trkpt lat="44.29343" lon="2.72486">
        <ele>722.09</ele>
        <time>2025-09-16T15:09:40Z</time>
      </trkpt>
      <trkpt lat="44.29342" lon="2.72491">
        <ele>721.61</ele>
        <time>2025-09-16T15:09:57Z</time>
      </trkpt>
      <trkpt lat="44.29338" lon="2.72486">
        <ele>721.13</ele>
        <time>2025-09-16T15:10:09Z</time>
      </trkpt>
      <trkpt lat="44.29333" lon="2.72482">
        <ele>718.72</ele>
        <time>2025-09-16T15:10:28Z</time>
      </trkpt>
      <trkpt lat="44.29341" lon="2.72489">
        <ele>722.09</ele>
        <time>2025-09-16T15:10:44Z</time>
      </trkpt>
      <trkpt lat="44.2934" lon="2.72494">
        <ele>724.01</ele>
        <time>2025-09-16T15:10:59Z</time>
      </trkpt>
      <trkpt lat="44.29341" lon="2.72489">
        <ele>723.05</ele>
        <time>2025-09-16T15:11:10Z</time>
      </trkpt>
      <trkpt lat="44.29341" lon="2.7249">
        <ele>723.53</ele>
        <time>2025-09-16T15:11:15Z</time>
      </trkpt>
      <trkpt lat="44.2934" lon="2.72493">
        <ele>724.01</ele>
        <time>2025-09-16T15:11:26Z</time>
      </trkpt>
      <trkpt lat="44.29339" lon="2.72493">
        <ele>724.49</ele>
        <time>2025-09-16T15:11:42Z</time>
      </trkpt>
      <trkpt lat="44.29338" lon="2.72499">
        <ele>723.05</ele>
        <time>2025-09-16T15:11:53Z</time>
      </trkpt>
      <trkpt lat="44.29338" lon="2.725">
        <ele>723.53</ele>
        <time>2025-09-16T15:11:54Z</time>
      </trkpt>
      <trkpt lat="44.29337" lon="2.72495">
        <ele>722.09</ele>
        <time>2025-09-16T15:12:02Z</time>
      </trkpt>
      <trkpt lat="44.29337" lon="2.72494">
        <ele>721.61</ele>
        <time>2025-09-16T15:12:05Z</time>
      </trkpt>
      <trkpt lat="44.29336" lon="2.7249">
        <ele>720.16</ele>
        <time>2025-09-16T15:12:18Z</time>
      </trkpt>
      <trkpt lat="44.29332" lon="2.7249">
        <ele>719.2</ele>
        <time>2025-09-16T15:12:35Z</time>
      </trkpt>
      <trkpt lat="44.29327" lon="2.72481">
        <ele>718.72</ele>
        <time>2025-09-16T15:12:56Z</time>
      </trkpt>
      <trkpt lat="44.29333" lon="2.72482">
        <ele>718.24</ele>
        <time>2025-09-16T15:13:18Z</time>
        <extensions>
          <visugpx:TrkExtension xmlns:visugpx="https://www.visugpx.com/editgpx/">
            <visugpx:node>1</visugpx:node>
            </visugpx:TrkExtension>
        </extensions>
      </trkpt>
    </trkseg>
  </trk>
</gpx>